PWSweather.com
Personal Weather Stations
Station Observations
ROSEGARDEN
Rose Garden, Brentwood, CA 94513

Rose GardenBrentwood, CA 94513

Lat: 37.967503, Lon: -121.721004

Elevation: 89

Station Type: Davis Vantage Vue

High Low Average
Temperature 52.2°F11.2°C 38.8°F3.8°C 45.3°F7.4°C
Dew Point 41.0°F5.0°C -1.0°F-18.3°C 35.9°F2.2°C
Winds 11.0 mph 17.7 kmh Calm Calm 4.0 mph WSW6.4 kmh WSW
Wind Gusts 21.0 mph33.8 kmh -- 9.0 mph14.5 kmh
Humidity 90% 51% 71%
Pressure 30.16 in1021.3 mb 29.84 in1010.5 mb -
Precipitation 0.15 in3.8 mm - -
Hour Temp Dew Point Humidity Winds Wind Gusts Pressure Precip Precip Rate Daily Precip Total
12:00 AM 44.4°F6.9°C 41.0°F5.0°C 87% 4.6 mph WNW7.4 kmh WNW 9.0 mph14.5 kmh 29.84 in1010.5 mb 0.00 in0.0 mm 0.00 in0.0 mm 0.00 in0.0 mm
12:01 AM 44.3°F6.8°C 41.0°F5.0°C 87% 4.3 mph W6.9 kmh W 9.0 mph14.5 kmh 29.84 in1010.5 mb 0.00 in0.0 mm 0.00 in0.0 mm 0.00 in0.0 mm
12:02 AM 44.3°F6.8°C 41.0°F5.0°C 87% 4.0 mph W6.4 kmh W 9.0 mph14.5 kmh 29.84 in1010.5 mb 0.00 in0.0 mm 0.00 in0.0 mm 0.00 in0.0 mm
12:03 AM 44.3°F6.8°C 41.0°F5.0°C 87% 3.9 mph W6.3 kmh W 9.0 mph14.5 kmh 29.84 in1010.5 mb 0.00 in0.0 mm 0.00 in0.0 mm 0.00 in0.0 mm
12:04 AM 44.3°F6.8°C 41.0°F5.0°C 87% 3.9 mph NW6.3 kmh NW 9.0 mph14.5 kmh 29.84 in1010.5 mb 0.00 in0.0 mm 0.00 in0.0 mm 0.00 in0.0 mm
12:05 AM 44.3°F6.8°C 41.0°F5.0°C 87% 3.7 mph WNW6.0 kmh WNW 8.0 mph12.9 kmh 29.84 in1010.5 mb 0.00 in0.0 mm 0.00 in0.0 mm 0.00 in0.0 mm
12:06 AM 44.2°F6.8°C 41.0°F5.0°C 87% 3.2 mph NW5.1 kmh NW 8.0 mph12.9 kmh 29.84 in1010.5 mb 0.00 in0.0 mm 0.00 in0.0 mm 0.00 in0.0 mm
12:07 AM 44.2°F6.8°C 41.0°F5.0°C 88% 3.0 mph NW4.8 kmh NW 6.0 mph9.7 kmh 29.84 in1010.5 mb 0.00 in0.0 mm 0.00 in0.0 mm 0.00 in0.0 mm
12:08 AM 44.2°F6.8°C 41.0°F5.0°C 88% 2.7 mph NW4.3 kmh NW 6.0 mph9.7 kmh 29.84 in1010.5 mb 0.00 in0.0 mm 0.00 in0.0 mm 0.00 in0.0 mm
12:09 AM 44.2°F6.8°C 41.0°F5.0°C 88% 2.6 mph W4.2 kmh W 6.0 mph9.7 kmh 29.84 in1010.5 mb 0.00 in0.0 mm 0.00 in0.0 mm 0.00 in0.0 mm
12:10 AM 44.2°F6.8°C 41.0°F5.0°C 88% 2.3 mph NW3.7 kmh NW 6.0 mph9.7 kmh 29.84 in1010.5 mb 0.00 in0.0 mm 0.00 in0.0 mm 0.00 in0.0 mm
12:11 AM 44.2°F6.8°C 41.0°F5.0°C 88% 2.3 mph NW3.7 kmh NW 6.0 mph9.7 kmh 29.84 in1010.5 mb 0.00 in0.0 mm 0.00 in0.0 mm 0.00 in0.0 mm
12:12 AM 44.2°F6.8°C 41.0°F5.0°C 88% 2.4 mph NW3.9 kmh NW 6.0 mph9.7 kmh 29.85 in1010.8 mb 0.00 in0.0 mm 0.00 in0.0 mm 0.00 in0.0 mm
12:13 AM 44.1°F6.7°C 41.0°F5.0°C 88% 2.4 mph NW3.9 kmh NW 6.0 mph9.7 kmh 29.85 in1010.8 mb 0.00 in0.0 mm 0.00 in0.0 mm 0.00 in0.0 mm
12:14 AM 44.2°F6.8°C 41.0°F5.0°C 89% 2.4 mph W3.9 kmh W 7.0 mph11.3 kmh 29.85 in1010.8 mb 0.04 in1.0 mm 2.40 in61.0 mm 0.04 in1.0 mm
12:15 AM 44.2°F6.8°C 41.0°F5.0°C 89% 2.6 mph NW4.2 kmh NW 8.0 mph12.9 kmh 29.85 in1010.8 mb 0.04 in1.0 mm 0.00 in0.0 mm 0.01 in0.3 mm
12:16 AM 44.1°F6.7°C 41.0°F5.0°C 89% 2.5 mph NW4.0 kmh NW 8.0 mph12.9 kmh 29.85 in1010.8 mb 0.04 in1.0 mm 0.00 in0.0 mm 0.01 in0.3 mm
12:17 AM 44.1°F6.7°C 41.0°F5.0°C 89% 2.7 mph NW4.3 kmh NW 8.0 mph12.9 kmh 29.85 in1010.8 mb 0.04 in1.0 mm 0.00 in0.0 mm 0.01 in0.3 mm
12:18 AM 44.1°F6.7°C 41.0°F5.0°C 89% 2.9 mph NW4.7 kmh NW 8.0 mph12.9 kmh 29.85 in1010.8 mb 0.04 in1.0 mm 0.00 in0.0 mm 0.01 in0.3 mm
12:19 AM 44.1°F6.7°C 41.0°F5.0°C 89% 3.0 mph NW4.8 kmh NW 8.0 mph12.9 kmh 29.85 in1010.8 mb 0.04 in1.0 mm 0.00 in0.0 mm 0.01 in0.3 mm
12:20 AM 44.0°F6.7°C 41.0°F5.0°C 89% 3.1 mph NW5.0 kmh NW 8.0 mph12.9 kmh 29.85 in1010.8 mb 0.04 in1.0 mm 0.00 in0.0 mm 0.01 in0.3 mm
12:21 AM 44.0°F6.7°C 41.0°F5.0°C 89% 3.2 mph NW5.1 kmh NW 8.0 mph12.9 kmh 29.85 in1010.8 mb 0.04 in1.0 mm 0.00 in0.0 mm 0.01 in0.3 mm
12:22 AM 44.0°F6.7°C 41.0°F5.0°C 89% 3.1 mph W5.0 kmh W 8.0 mph12.9 kmh 29.85 in1010.8 mb 0.04 in1.0 mm 0.00 in0.0 mm 0.01 in0.3 mm
12:23 AM 44.0°F6.7°C 41.0°F5.0°C 89% 3.0 mph NW4.8 kmh NW 6.0 mph9.7 kmh 29.85 in1010.8 mb 0.07 in1.8 mm 1.80 in45.7 mm 0.02 in0.5 mm
12:24 AM 43.9°F6.6°C 41.0°F5.0°C 89% 2.9 mph NW4.7 kmh NW 6.0 mph9.7 kmh 29.85 in1010.8 mb 0.07 in1.8 mm 0.00 in0.0 mm 0.02 in0.5 mm
12:25 AM 44.0°F6.7°C 41.0°F5.0°C 89% 2.8 mph WSW4.5 kmh WSW 6.0 mph9.7 kmh 29.85 in1010.8 mb 0.07 in1.8 mm 0.00 in0.0 mm 0.02 in0.5 mm
12:26 AM 43.8°F6.6°C 41.0°F5.0°C 89% 3.0 mph W4.8 kmh W 13.0 mph20.9 kmh 29.85 in1010.8 mb 0.18 in4.6 mm 6.60 in167.6 mm 0.02 in0.5 mm
12:27 AM 43.8°F6.6°C 41.0°F5.0°C 89% 3.5 mph WNW5.6 kmh WNW 14.0 mph22.5 kmh 29.85 in1010.8 mb 0.18 in4.6 mm 0.00 in0.0 mm 0.03 in0.8 mm
12:28 AM 43.7°F6.5°C 41.0°F5.0°C 89% 3.9 mph WNW6.3 kmh WNW 17.0 mph27.4 kmh 29.85 in1010.8 mb 0.18 in4.6 mm 0.00 in0.0 mm 0.03 in0.8 mm
12:29 AM 43.6°F6.4°C 41.0°F5.0°C 89% 4.5 mph SW7.2 kmh SW 17.0 mph27.4 kmh 29.85 in1010.8 mb 0.18 in4.6 mm 0.00 in0.0 mm 0.03 in0.8 mm
12:30 AM 43.5°F6.4°C 40.0°F4.4°C 88% 4.7 mph WNW7.6 kmh WNW 17.0 mph27.4 kmh 29.85 in1010.8 mb 0.15 in3.8 mm 0.00 in0.0 mm 0.03 in0.8 mm
12:31 AM 43.4°F6.3°C 40.0°F4.4°C 88% 4.8 mph WNW7.7 kmh WNW 17.0 mph27.4 kmh 29.85 in1010.8 mb 0.12 in3.0 mm 0.00 in0.0 mm 0.03 in0.8 mm
12:32 AM 43.4°F6.3°C 40.0°F4.4°C 88% 5.1 mph NNE8.2 kmh NNE 17.0 mph27.4 kmh 29.85 in1010.8 mb 0.10 in2.5 mm 0.00 in0.0 mm 0.03 in0.8 mm
12:33 AM 43.4°F6.3°C 40.0°F4.4°C 88% 5.3 mph NW8.5 kmh NW 17.0 mph27.4 kmh 29.85 in1010.8 mb 0.09 in2.3 mm 0.00 in0.0 mm 0.03 in0.8 mm
12:34 AM 43.3°F6.3°C 40.0°F4.4°C 88% 5.3 mph NNW8.5 kmh NNW 17.0 mph27.4 kmh 29.85 in1010.8 mb 0.07 in1.8 mm 0.00 in0.0 mm 0.03 in0.8 mm
12:35 AM 43.3°F6.3°C 40.0°F4.4°C 88% 5.3 mph NW8.5 kmh NW 17.0 mph27.4 kmh 29.85 in1010.8 mb 0.07 in1.8 mm 0.00 in0.0 mm 0.03 in0.8 mm
12:36 AM 43.3°F6.3°C 40.0°F4.4°C 88% 5.2 mph WNW8.4 kmh WNW 17.0 mph27.4 kmh 29.85 in1010.8 mb 0.06 in1.5 mm 0.00 in0.0 mm 0.03 in0.8 mm
12:37 AM 43.3°F6.3°C 40.0°F4.4°C 88% 4.8 mph NE7.7 kmh NE 16.0 mph25.7 kmh 29.85 in1010.8 mb 0.05 in1.3 mm 0.00 in0.0 mm 0.03 in0.8 mm
12:38 AM 43.1°F6.2°C 40.0°F4.4°C 88% 4.4 mph N7.1 kmh N 9.0 mph14.5 kmh 29.85 in1010.8 mb 0.05 in1.3 mm 0.00 in0.0 mm 0.03 in0.8 mm
12:39 AM 43.1°F6.2°C 40.0°F4.4°C 87% 3.9 mph W6.3 kmh W 8.0 mph12.9 kmh 29.85 in1010.8 mb 0.05 in1.3 mm 0.00 in0.0 mm 0.03 in0.8 mm
12:40 AM 43.1°F6.2°C 40.0°F4.4°C 87% 3.9 mph WNW6.3 kmh WNW 8.0 mph12.9 kmh 29.85 in1010.8 mb 0.04 in1.0 mm 0.00 in0.0 mm 0.03 in0.8 mm
12:41 AM 43.1°F6.2°C 39.0°F3.9°C 87% 4.0 mph NW6.4 kmh NW 8.0 mph12.9 kmh 29.85 in1010.8 mb 0.04 in1.0 mm 0.00 in0.0 mm 0.03 in0.8 mm
12:42 AM 43.0°F6.1°C 39.0°F3.9°C 87% 4.0 mph WNW6.4 kmh WNW 8.0 mph12.9 kmh 29.85 in1010.8 mb 0.04 in1.0 mm 0.00 in0.0 mm 0.03 in0.8 mm
12:43 AM 43.0°F6.1°C 39.0°F3.9°C 87% 4.2 mph SSW6.8 kmh SSW 13.0 mph20.9 kmh 29.85 in1010.8 mb 0.04 in1.0 mm 0.00 in0.0 mm 0.03 in0.8 mm
12:44 AM 42.9°F6.1°C 39.0°F3.9°C 86% 4.7 mph NW7.6 kmh NW 13.0 mph20.9 kmh 29.86 in1011.2 mb 0.00 in0.0 mm 0.00 in0.0 mm 0.03 in0.8 mm
12:45 AM 42.9°F6.1°C 39.0°F3.9°C 86% 5.1 mph WNW8.2 kmh WNW 13.0 mph20.9 kmh 29.86 in1011.2 mb 0.00 in0.0 mm 0.00 in0.0 mm 0.03 in0.8 mm
12:46 AM 42.9°F6.1°C 39.0°F3.9°C 86% 5.5 mph WNW8.9 kmh WNW 13.0 mph20.9 kmh 29.86 in1011.2 mb 0.00 in0.0 mm 0.00 in0.0 mm 0.03 in0.8 mm
12:47 AM 42.9°F6.1°C 39.0°F3.9°C 86% 5.5 mph NW8.9 kmh NW 13.0 mph20.9 kmh 29.86 in1011.2 mb 0.00 in0.0 mm 0.00 in0.0 mm 0.03 in0.8 mm
12:48 AM 42.9°F6.1°C 39.0°F3.9°C 86% 5.4 mph W8.7 kmh W 13.0 mph20.9 kmh 29.86 in1011.2 mb 0.00 in0.0 mm 0.00 in0.0 mm 0.03 in0.8 mm
12:49 AM 42.9°F6.1°C 39.0°F3.9°C 86% 5.4 mph WNW8.7 kmh WNW 13.0 mph20.9 kmh 29.86 in1011.2 mb 0.00 in0.0 mm 0.00 in0.0 mm 0.04 in1.0 mm
12:50 AM 42.8°F6.0°C 39.0°F3.9°C 86% 5.5 mph W8.9 kmh W 13.0 mph20.9 kmh 29.86 in1011.2 mb 0.00 in0.0 mm 0.00 in0.0 mm 0.04 in1.0 mm
12:51 AM 42.8°F6.0°C 39.0°F3.9°C 86% 5.3 mph NW8.5 kmh NW 13.0 mph20.9 kmh 29.86 in1011.2 mb 0.00 in0.0 mm 0.00 in0.0 mm 0.04 in1.0 mm
12:52 AM 42.8°F6.0°C 39.0°F3.9°C 86% 5.2 mph W8.4 kmh W 12.0 mph19.3 kmh 29.86 in1011.2 mb 0.00 in0.0 mm 0.00 in0.0 mm 0.04 in1.0 mm
12:53 AM 42.8°F6.0°C 39.0°F3.9°C 86% 4.9 mph WSW7.9 kmh WSW 12.0 mph19.3 kmh 29.86 in1011.2 mb 0.00 in0.0 mm 0.00 in0.0 mm 0.04 in1.0 mm
12:54 AM 42.7°F5.9°C 39.0°F3.9°C 86% 4.6 mph W7.4 kmh W 11.0 mph17.7 kmh 29.86 in1011.2 mb 0.00 in0.0 mm 0.00 in0.0 mm 0.04 in1.0 mm
12:55 AM 42.7°F5.9°C 39.0°F3.9°C 86% 4.1 mph NW6.6 kmh NW 10.0 mph16.1 kmh 29.86 in1011.2 mb 0.00 in0.0 mm 0.00 in0.0 mm 0.04 in1.0 mm
12:56 AM 42.7°F5.9°C 39.0°F3.9°C 86% 3.5 mph NW5.6 kmh NW 10.0 mph16.1 kmh 29.86 in1011.2 mb 0.00 in0.0 mm 0.00 in0.0 mm 0.04 in1.0 mm
12:57 AM 42.7°F5.9°C 39.0°F3.9°C 86% 3.3 mph NW5.3 kmh NW 10.0 mph16.1 kmh 29.86 in1011.2 mb 0.00 in0.0 mm 0.00 in0.0 mm 0.04 in1.0 mm
12:58 AM 42.7°F5.9°C 39.0°F3.9°C 86% 3.2 mph WNW5.1 kmh WNW 10.0 mph16.1 kmh 29.86 in1011.2 mb 0.00 in0.0 mm 0.00 in0.0 mm 0.04 in1.0 mm
12:59 AM 42.7°F5.9°C 39.0°F3.9°C 86% 3.0 mph NW4.8 kmh NW 7.0 mph11.3 kmh 29.86 in1011.2 mb 0.00 in0.0 mm 0.00 in0.0 mm 0.04 in1.0 mm
01:00 AM 42.6°F5.9°C -1.0°F-18.3°C 86% - WNW WNW -- 29.86 in1011.2 mb 0.05 in1.3 mm 0.05 in1.3 mm 0.05 in1.3 mm
01:01 AM 42.7°F5.9°C 39.0°F3.9°C 86% 3.0 mph NW4.8 kmh NW 7.0 mph11.3 kmh 29.86 in1011.2 mb 0.05 in1.3 mm 0.00 in0.0 mm 0.05 in1.3 mm
01:02 AM 42.6°F5.9°C 39.0°F3.9°C 86% 3.0 mph W4.8 kmh W 7.0 mph11.3 kmh 29.86 in1011.2 mb 0.05 in1.3 mm 0.00 in0.0 mm 0.05 in1.3 mm
01:03 AM 42.6°F5.9°C 39.0°F3.9°C 86% 2.8 mph WNW4.5 kmh WNW 7.0 mph11.3 kmh 29.86 in1011.2 mb 0.05 in1.3 mm 0.00 in0.0 mm 0.05 in1.3 mm
01:04 AM 42.6°F5.9°C 39.0°F3.9°C 86% 2.7 mph NW4.3 kmh NW 7.0 mph11.3 kmh 29.86 in1011.2 mb 0.05 in1.3 mm 0.00 in0.0 mm 0.05 in1.3 mm
01:06 AM 42.6°F5.9°C 39.0°F3.9°C 86% 3.0 mph NW4.8 kmh NW 7.0 mph11.3 kmh 29.86 in1011.2 mb 0.05 in1.3 mm 0.00 in0.0 mm 0.05 in1.3 mm
01:07 AM 42.6°F5.9°C 39.0°F3.9°C 86% 2.8 mph N4.5 kmh N 7.0 mph11.3 kmh 29.86 in1011.2 mb 0.05 in1.3 mm 0.00 in0.0 mm 0.05 in1.3 mm
01:08 AM 42.6°F5.9°C 39.0°F3.9°C 86% 2.7 mph N4.3 kmh N 7.0 mph11.3 kmh 29.86 in1011.2 mb 0.05 in1.3 mm 0.00 in0.0 mm 0.05 in1.3 mm
01:09 AM 42.6°F5.9°C 39.0°F3.9°C 86% 2.7 mph SW4.3 kmh SW 7.0 mph11.3 kmh 29.86 in1011.2 mb 0.05 in1.3 mm 0.00 in0.0 mm 0.05 in1.3 mm
01:10 AM 42.6°F5.9°C 39.0°F3.9°C 86% 2.7 mph WSW4.3 kmh WSW 7.0 mph11.3 kmh 29.86 in1011.2 mb 0.05 in1.3 mm 0.00 in0.0 mm 0.05 in1.3 mm
01:11 AM 42.6°F5.9°C 39.0°F3.9°C 86% 2.6 mph W4.2 kmh W 7.0 mph11.3 kmh 29.86 in1011.2 mb 0.05 in1.3 mm 0.00 in0.0 mm 0.05 in1.3 mm
01:12 AM 42.6°F5.9°C 39.0°F3.9°C 86% 2.8 mph NW4.5 kmh NW 8.0 mph12.9 kmh 29.86 in1011.2 mb 0.05 in1.3 mm 0.00 in0.0 mm 0.05 in1.3 mm
01:13 AM 42.5°F5.8°C 39.0°F3.9°C 86% 2.7 mph WNW4.3 kmh WNW 8.0 mph12.9 kmh 29.86 in1011.2 mb 0.04 in1.0 mm 0.00 in0.0 mm 0.05 in1.3 mm
01:14 AM 42.5°F5.8°C 39.0°F3.9°C 86% 2.7 mph WNW4.3 kmh WNW 8.0 mph12.9 kmh 29.86 in1011.2 mb 0.04 in1.0 mm 0.00 in0.0 mm 0.05 in1.3 mm
01:15 AM 42.5°F5.8°C 39.0°F3.9°C 86% 2.5 mph W4.0 kmh W 8.0 mph12.9 kmh 29.86 in1011.2 mb 0.04 in1.0 mm 0.00 in0.0 mm 0.05 in1.3 mm
01:16 AM 42.5°F5.8°C 39.0°F3.9°C 87% 2.5 mph NW4.0 kmh NW 8.0 mph12.9 kmh 29.86 in1011.2 mb 0.04 in1.0 mm 0.00 in0.0 mm 0.05 in1.3 mm
01:17 AM 42.4°F5.8°C 39.0°F3.9°C 86% 2.6 mph WSW4.2 kmh WSW 8.0 mph12.9 kmh 29.86 in1011.2 mb 0.00 in0.0 mm 0.00 in0.0 mm 0.05 in1.3 mm
01:18 AM 42.5°F5.8°C 39.0°F3.9°C 87% 2.8 mph WNW4.5 kmh WNW 8.0 mph12.9 kmh 29.86 in1011.2 mb 0.00 in0.0 mm 0.00 in0.0 mm 0.05 in1.3 mm
01:19 AM 42.4°F5.8°C 39.0°F3.9°C 87% 3.1 mph W5.0 kmh W 8.0 mph12.9 kmh 29.86 in1011.2 mb 0.00 in0.0 mm 0.00 in0.0 mm 0.05 in1.3 mm
01:20 AM 42.4°F5.8°C 39.0°F3.9°C 86% 3.1 mph W5.0 kmh W 8.0 mph12.9 kmh 29.86 in1011.2 mb 0.00 in0.0 mm 0.00 in0.0 mm 0.05 in1.3 mm
01:21 AM 42.5°F5.8°C 39.0°F3.9°C 86% 2.9 mph W4.7 kmh W 7.0 mph11.3 kmh 29.86 in1011.2 mb 0.00 in0.0 mm 0.00 in0.0 mm 0.05 in1.3 mm
01:22 AM 42.4°F5.8°C 39.0°F3.9°C 87% 2.7 mph WSW4.3 kmh WSW 7.0 mph11.3 kmh 29.86 in1011.2 mb 0.00 in0.0 mm 0.00 in0.0 mm 0.05 in1.3 mm
01:23 AM 42.4°F5.8°C 39.0°F3.9°C 87% 2.8 mph S4.5 kmh S 7.0 mph11.3 kmh 29.86 in1011.2 mb 0.00 in0.0 mm 0.00 in0.0 mm 0.05 in1.3 mm
01:24 AM 42.5°F5.8°C 39.0°F3.9°C 87% 2.7 mph WSW4.3 kmh WSW 7.0 mph11.3 kmh 29.86 in1011.2 mb 0.00 in0.0 mm 0.00 in0.0 mm 0.05 in1.3 mm
01:25 AM 42.4°F5.8°C 39.0°F3.9°C 87% 2.7 mph WSW4.3 kmh WSW 7.0 mph11.3 kmh 29.86 in1011.2 mb 0.00 in0.0 mm 0.00 in0.0 mm 0.05 in1.3 mm
01:26 AM 42.4°F5.8°C 39.0°F3.9°C 87% 2.7 mph WSW4.3 kmh WSW 7.0 mph11.3 kmh 29.86 in1011.2 mb 0.00 in0.0 mm 0.00 in0.0 mm 0.05 in1.3 mm
01:27 AM 42.4°F5.8°C 39.0°F3.9°C 87% 2.7 mph WSW4.3 kmh WSW 7.0 mph11.3 kmh 29.86 in1011.2 mb 0.00 in0.0 mm 0.00 in0.0 mm 0.05 in1.3 mm
01:28 AM 42.5°F5.8°C 39.0°F3.9°C 87% 2.6 mph W4.2 kmh W 5.0 mph8.0 kmh 29.86 in1011.2 mb 0.00 in0.0 mm 0.00 in0.0 mm 0.05 in1.3 mm
01:29 AM 42.5°F5.8°C 39.0°F3.9°C 87% 2.4 mph WSW3.9 kmh WSW 5.0 mph8.0 kmh 29.86 in1011.2 mb 0.00 in0.0 mm 0.00 in0.0 mm 0.05 in1.3 mm
01:30 AM 42.4°F5.8°C 39.0°F3.9°C 87% 2.3 mph W3.7 kmh W 5.0 mph8.0 kmh 29.86 in1011.2 mb 0.00 in0.0 mm 0.00 in0.0 mm 0.05 in1.3 mm
01:31 AM 42.4°F5.8°C 39.0°F3.9°C 87% 2.5 mph WSW4.0 kmh WSW 5.0 mph8.0 kmh 29.86 in1011.2 mb 0.00 in0.0 mm 0.00 in0.0 mm 0.05 in1.3 mm
01:32 AM 42.4°F5.8°C 39.0°F3.9°C 87% 2.5 mph WSW4.0 kmh WSW 5.0 mph8.0 kmh 29.86 in1011.2 mb 0.00 in0.0 mm 0.00 in0.0 mm 0.05 in1.3 mm
01:33 AM 42.4°F5.8°C 39.0°F3.9°C 87% 2.4 mph W3.9 kmh W 5.0 mph8.0 kmh 29.86 in1011.2 mb 0.00 in0.0 mm 0.00 in0.0 mm 0.05 in1.3 mm
01:34 AM 42.4°F5.8°C 39.0°F3.9°C 87% 2.4 mph W3.9 kmh W 5.0 mph8.0 kmh 29.86 in1011.2 mb 0.00 in0.0 mm 0.00 in0.0 mm 0.06 in1.5 mm
01:35 AM 42.4°F5.8°C 39.0°F3.9°C 87% 2.5 mph WNW4.0 kmh WNW 5.0 mph8.0 kmh 29.86 in1011.2 mb 0.00 in0.0 mm 0.00 in0.0 mm 0.06 in1.5 mm
01:36 AM 42.4°F5.8°C 39.0°F3.9°C 87% 2.5 mph W4.0 kmh W 5.0 mph8.0 kmh 29.86 in1011.2 mb 0.00 in0.0 mm 0.00 in0.0 mm 0.06 in1.5 mm
01:37 AM 42.4°F5.8°C 39.0°F3.9°C 87% 2.7 mph WNW4.3 kmh WNW 6.0 mph9.7 kmh 29.86 in1011.2 mb 0.00 in0.0 mm 0.00 in0.0 mm 0.06 in1.5 mm
01:38 AM 42.4°F5.8°C 39.0°F3.9°C 87% 2.8 mph W4.5 kmh W 6.0 mph9.7 kmh 29.86 in1011.2 mb 0.00 in0.0 mm 0.00 in0.0 mm 0.06 in1.5 mm
01:39 AM 42.5°F5.8°C 39.0°F3.9°C 87% 2.7 mph WNW4.3 kmh WNW 6.0 mph9.7 kmh 29.86 in1011.2 mb 0.00 in0.0 mm 0.00 in0.0 mm 0.06 in1.5 mm
01:40 AM 42.5°F5.8°C 39.0°F3.9°C 87% 2.6 mph WNW4.2 kmh WNW 6.0 mph9.7 kmh 29.87 in1011.5 mb 0.00 in0.0 mm 0.00 in0.0 mm 0.06 in1.5 mm
01:41 AM 42.5°F5.8°C 39.0°F3.9°C 87% 2.3 mph W3.7 kmh W 6.0 mph9.7 kmh 29.87 in1011.5 mb 0.00 in0.0 mm 0.00 in0.0 mm 0.06 in1.5 mm
01:42 AM 42.5°F5.8°C 39.0°F3.9°C 87% 2.1 mph WNW3.4 kmh WNW 6.0 mph9.7 kmh 29.87 in1011.5 mb 0.00 in0.0 mm 0.00 in0.0 mm 0.06 in1.5 mm
01:43 AM 42.5°F5.8°C 39.0°F3.9°C 87% 2.0 mph W3.2 kmh W 6.0 mph9.7 kmh 29.87 in1011.5 mb 0.00 in0.0 mm 0.00 in0.0 mm 0.06 in1.5 mm
01:44 AM 42.5°F5.8°C 39.0°F3.9°C 87% 2.0 mph W3.2 kmh W 6.0 mph9.7 kmh 29.87 in1011.5 mb 0.00 in0.0 mm 0.00 in0.0 mm 0.06 in1.5 mm
01:45 AM 42.4°F5.8°C 39.0°F3.9°C 87% 1.9 mph NNW3.1 kmh NNW 5.0 mph8.0 kmh 29.87 in1011.5 mb 0.00 in0.0 mm 0.00 in0.0 mm 0.06 in1.5 mm
01:46 AM 42.5°F5.8°C 39.0°F3.9°C 87% 1.8 mph WSW2.9 kmh WSW 4.0 mph6.4 kmh 29.86 in1011.2 mb 0.05 in1.3 mm 3.00 in76.2 mm 0.07 in1.8 mm
01:47 AM 42.4°F5.8°C 39.0°F3.9°C 87% 1.5 mph W2.4 kmh W 3.0 mph4.8 kmh 29.86 in1011.2 mb 0.05 in1.3 mm 0.00 in0.0 mm 0.07 in1.8 mm
01:48 AM 42.4°F5.8°C 39.0°F3.9°C 87% 1.3 mph WNW2.1 kmh WNW 3.0 mph4.8 kmh 29.87 in1011.5 mb 0.05 in1.3 mm 0.00 in0.0 mm 0.07 in1.8 mm
01:49 AM 42.4°F5.8°C 39.0°F3.9°C 87% 1.2 mph W1.9 kmh W 3.0 mph4.8 kmh 29.86 in1011.2 mb 0.05 in1.3 mm 0.00 in0.0 mm 0.07 in1.8 mm
01:50 AM 42.4°F5.8°C 39.0°F3.9°C 87% 1.2 mph WSW1.9 kmh WSW 3.0 mph4.8 kmh 29.86 in1011.2 mb 0.05 in1.3 mm 0.00 in0.0 mm 0.07 in1.8 mm
01:51 AM 42.4°F5.8°C 39.0°F3.9°C 87% 1.1 mph WSW1.8 kmh WSW 3.0 mph4.8 kmh 29.86 in1011.2 mb 0.05 in1.3 mm 0.00 in0.0 mm 0.07 in1.8 mm
01:52 AM 42.4°F5.8°C 39.0°F3.9°C 87% 1.0 mph WSW1.6 kmh WSW 3.0 mph4.8 kmh 29.86 in1011.2 mb 0.05 in1.3 mm 0.00 in0.0 mm 0.07 in1.8 mm
01:53 AM 42.4°F5.8°C 39.0°F3.9°C 88% 0.9 mph WSW1.4 kmh WSW 3.0 mph4.8 kmh 29.86 in1011.2 mb 0.05 in1.3 mm 0.00 in0.0 mm 0.07 in1.8 mm
01:54 AM 42.4°F5.8°C 39.0°F3.9°C 88% 0.8 mph WSW1.3 kmh WSW 2.0 mph3.2 kmh 29.86 in1011.2 mb 0.05 in1.3 mm 0.00 in0.0 mm 0.07 in1.8 mm
01:55 AM 42.4°F5.8°C 39.0°F3.9°C 88% 0.6 mph WSW1.0 kmh WSW 2.0 mph3.2 kmh 29.86 in1011.2 mb 0.05 in1.3 mm 0.00 in0.0 mm 0.07 in1.8 mm
01:56 AM 42.4°F5.8°C 39.0°F3.9°C 88% 0.5 mph WSW0.8 kmh WSW 2.0 mph3.2 kmh 29.87 in1011.5 mb 0.05 in1.3 mm 0.00 in0.0 mm 0.07 in1.8 mm
01:57 AM 42.4°F5.8°C 39.0°F3.9°C 88% 0.4 mph WSW0.6 kmh WSW 2.0 mph3.2 kmh 29.87 in1011.5 mb 0.05 in1.3 mm 0.00 in0.0 mm 0.07 in1.8 mm
01:58 AM 42.3°F5.7°C 39.0°F3.9°C 88% 0.3 mph WSW0.5 kmh WSW 1.0 mph1.6 kmh 29.87 in1011.5 mb 0.05 in1.3 mm 0.00 in0.0 mm 0.07 in1.8 mm
01:59 AM 42.4°F5.8°C 39.0°F3.9°C 88% 0.2 mph WSW0.3 kmh WSW 1.0 mph1.6 kmh 29.87 in1011.5 mb 0.05 in1.3 mm 0.00 in0.0 mm 0.07 in1.8 mm
02:00 AM 42.3°F5.7°C 39.0°F3.9°C 88% 0.1 mph W0.2 kmh W 1.0 mph1.6 kmh 29.87 in1011.5 mb 0.04 in1.0 mm 0.00 in0.0 mm 0.07 in1.8 mm
02:01 AM 42.4°F5.8°C 39.0°F3.9°C 88% 0.2 mph W0.3 kmh W 1.0 mph1.6 kmh 29.87 in1011.5 mb 0.04 in1.0 mm 0.00 in0.0 mm 0.07 in1.8 mm
02:02 AM 42.4°F5.8°C 39.0°F3.9°C 88% 0.2 mph WSW0.3 kmh WSW 1.0 mph1.6 kmh 29.87 in1011.5 mb 0.04 in1.0 mm 0.00 in0.0 mm 0.07 in1.8 mm
02:03 AM 42.4°F5.8°C 39.0°F3.9°C 88% 0.3 mph NW0.5 kmh NW 2.0 mph3.2 kmh 29.87 in1011.5 mb 0.00 in0.0 mm 0.00 in0.0 mm 0.07 in1.8 mm
02:04 AM 42.3°F5.7°C 39.0°F3.9°C 88% 0.2 mph NW0.3 kmh NW 2.0 mph3.2 kmh 29.87 in1011.5 mb 0.00 in0.0 mm 0.00 in0.0 mm 0.07 in1.8 mm
02:05 AM 42.3°F5.7°C 39.0°F3.9°C 88% 0.3 mph WNW0.5 kmh WNW 2.0 mph3.2 kmh 29.87 in1011.5 mb 0.00 in0.0 mm 0.00 in0.0 mm 0.07 in1.8 mm
02:06 AM 42.3°F5.7°C 39.0°F3.9°C 88% 0.3 mph NNW0.5 kmh NNW 2.0 mph3.2 kmh 29.87 in1011.5 mb 0.00 in0.0 mm 0.00 in0.0 mm 0.07 in1.8 mm
02:07 AM 42.4°F5.8°C 39.0°F3.9°C 88% 0.3 mph WNW0.5 kmh WNW 2.0 mph3.2 kmh 29.87 in1011.5 mb 0.00 in0.0 mm 0.00 in0.0 mm 0.07 in1.8 mm
02:08 AM 42.3°F5.7°C 39.0°F3.9°C 88% 0.5 mph WSW0.8 kmh WSW 3.0 mph4.8 kmh 29.87 in1011.5 mb 0.00 in0.0 mm 0.00 in0.0 mm 0.07 in1.8 mm
02:09 AM 42.3°F5.7°C 39.0°F3.9°C 88% 0.6 mph SW1.0 kmh SW 3.0 mph4.8 kmh 29.87 in1011.5 mb 0.00 in0.0 mm 0.00 in0.0 mm 0.07 in1.8 mm
02:10 AM 42.3°F5.7°C 39.0°F3.9°C 88% 0.7 mph W1.1 kmh W 3.0 mph4.8 kmh 29.87 in1011.5 mb 0.00 in0.0 mm 0.00 in0.0 mm 0.07 in1.8 mm
02:11 AM 42.4°F5.8°C 39.0°F3.9°C 88% 0.7 mph W1.1 kmh W 3.0 mph4.8 kmh 29.87 in1011.5 mb 0.00 in0.0 mm 0.00 in0.0 mm 0.07 in1.8 mm
02:12 AM 42.4°F5.8°C 39.0°F3.9°C 88% 1.0 mph W1.6 kmh W 5.0 mph8.0 kmh 29.87 in1011.5 mb 0.00 in0.0 mm 0.00 in0.0 mm 0.07 in1.8 mm
02:13 AM 42.3°F5.7°C 39.0°F3.9°C 88% 1.2 mph WNW1.9 kmh WNW 5.0 mph8.0 kmh 29.87 in1011.5 mb 0.00 in0.0 mm 0.00 in0.0 mm 0.07 in1.8 mm
02:14 AM 42.3°F5.7°C 39.0°F3.9°C 88% 1.4 mph W2.3 kmh W 5.0 mph8.0 kmh 29.87 in1011.5 mb 0.00 in0.0 mm 0.00 in0.0 mm 0.07 in1.8 mm
02:15 AM 42.3°F5.7°C 39.0°F3.9°C 88% 1.4 mph W2.3 kmh W 5.0 mph8.0 kmh 29.87 in1011.5 mb 0.00 in0.0 mm 0.00 in0.0 mm 0.08 in2.0 mm
02:16 AM 42.3°F5.7°C 39.0°F3.9°C 88% 1.4 mph W2.3 kmh W 5.0 mph8.0 kmh 29.87 in1011.5 mb 0.00 in0.0 mm 0.00 in0.0 mm 0.08 in2.0 mm
02:17 AM 42.3°F5.7°C 39.0°F3.9°C 88% 1.4 mph W2.3 kmh W 5.0 mph8.0 kmh 29.87 in1011.5 mb 0.00 in0.0 mm 0.00 in0.0 mm 0.08 in2.0 mm
02:18 AM 42.3°F5.7°C 39.0°F3.9°C 88% 1.3 mph N2.1 kmh N 5.0 mph8.0 kmh 29.87 in1011.5 mb 0.00 in0.0 mm 0.00 in0.0 mm 0.08 in2.0 mm
02:19 AM 42.3°F5.7°C 39.0°F3.9°C 88% 1.2 mph SW1.9 kmh SW 5.0 mph8.0 kmh 29.87 in1011.5 mb 0.00 in0.0 mm 0.00 in0.0 mm 0.08 in2.0 mm
02:20 AM 42.3°F5.7°C 39.0°F3.9°C 88% 1.2 mph N1.9 kmh N 5.0 mph8.0 kmh 29.87 in1011.5 mb 0.00 in0.0 mm 0.00 in0.0 mm 0.08 in2.0 mm
02:21 AM 42.2°F5.7°C 39.0°F3.9°C 87% 1.1 mph WSW1.8 kmh WSW 5.0 mph8.0 kmh 29.86 in1011.2 mb 0.00 in0.0 mm 0.00 in0.0 mm 0.08 in2.0 mm
02:22 AM 42.1°F5.6°C 39.0°F3.9°C 87% 0.8 mph W1.3 kmh W 3.0 mph4.8 kmh 29.86 in1011.2 mb 0.00 in0.0 mm 0.00 in0.0 mm 0.08 in2.0 mm
02:23 AM 42.1°F5.6°C 38.0°F3.3°C 86% 0.7 mph WNW1.1 kmh WNW 4.0 mph6.4 kmh 29.86 in1011.2 mb 0.00 in0.0 mm 0.00 in0.0 mm 0.08 in2.0 mm
02:24 AM 42.1°F5.6°C 38.0°F3.3°C 85% 0.9 mph WSW1.4 kmh WSW 6.0 mph9.7 kmh 29.86 in1011.2 mb 0.00 in0.0 mm 0.00 in0.0 mm 0.08 in2.0 mm
02:25 AM 42.2°F5.7°C 38.0°F3.3°C 84% 1.1 mph W1.8 kmh W 6.0 mph9.7 kmh 29.86 in1011.2 mb 0.00 in0.0 mm 0.00 in0.0 mm 0.08 in2.0 mm
02:26 AM 42.3°F5.7°C 38.0°F3.3°C 84% 1.4 mph W2.3 kmh W 6.0 mph9.7 kmh 29.86 in1011.2 mb 0.00 in0.0 mm 0.00 in0.0 mm 0.08 in2.0 mm
02:27 AM 42.3°F5.7°C 38.0°F3.3°C 84% 1.6 mph W2.6 kmh W 6.0 mph9.7 kmh 29.86 in1011.2 mb 0.00 in0.0 mm 0.00 in0.0 mm 0.08 in2.0 mm
02:28 AM 42.4°F5.8°C 38.0°F3.3°C 84% 1.8 mph WSW2.9 kmh WSW 6.0 mph9.7 kmh 29.86 in1011.2 mb 0.00 in0.0 mm 0.00 in0.0 mm 0.08 in2.0 mm
02:29 AM 42.4°F5.8°C 38.0°F3.3°C 84% 2.0 mph W3.2 kmh W 6.0 mph9.7 kmh 29.86 in1011.2 mb 0.00 in0.0 mm 0.00 in0.0 mm 0.08 in2.0 mm
02:30 AM 42.4°F5.8°C 38.0°F3.3°C 84% 2.1 mph W3.4 kmh W 6.0 mph9.7 kmh 29.86 in1011.2 mb 0.00 in0.0 mm 0.00 in0.0 mm 0.08 in2.0 mm
02:31 AM 42.4°F5.8°C 38.0°F3.3°C 85% 2.3 mph W3.7 kmh W 6.0 mph9.7 kmh 29.86 in1011.2 mb 0.00 in0.0 mm 0.00 in0.0 mm 0.08 in2.0 mm
02:32 AM 42.5°F5.8°C 38.0°F3.3°C 85% 2.5 mph WSW4.0 kmh WSW 6.0 mph9.7 kmh 29.86 in1011.2 mb 0.00 in0.0 mm 0.00 in0.0 mm 0.08 in2.0 mm
02:33 AM 42.4°F5.8°C 38.0°F3.3°C 85% 2.4 mph WSW3.9 kmh WSW 5.0 mph8.0 kmh 29.86 in1011.2 mb 0.00 in0.0 mm 0.00 in0.0 mm 0.08 in2.0 mm
02:34 AM 42.5°F5.8°C 38.0°F3.3°C 85% 2.2 mph SW3.5 kmh SW 5.0 mph8.0 kmh 29.86 in1011.2 mb 0.00 in0.0 mm 0.00 in0.0 mm 0.08 in2.0 mm
02:35 AM 42.4°F5.8°C 38.0°F3.3°C 85% 2.1 mph WSW3.4 kmh WSW 4.0 mph6.4 kmh 29.86 in1011.2 mb 0.00 in0.0 mm 0.00 in0.0 mm 0.08 in2.0 mm
02:36 AM 42.4°F5.8°C 38.0°F3.3°C 85% 2.0 mph WSW3.2 kmh WSW 4.0 mph6.4 kmh 29.86 in1011.2 mb 0.00 in0.0 mm 0.00 in0.0 mm 0.08 in2.0 mm
02:37 AM 42.4°F5.8°C 38.0°F3.3°C 85% 2.1 mph SW3.4 kmh SW 4.0 mph6.4 kmh 29.86 in1011.2 mb 0.00 in0.0 mm 0.00 in0.0 mm 0.08 in2.0 mm
02:38 AM 42.4°F5.8°C 38.0°F3.3°C 85% 2.0 mph SW3.2 kmh SW 4.0 mph6.4 kmh 29.86 in1011.2 mb 0.00 in0.0 mm 0.00 in0.0 mm 0.08 in2.0 mm
02:39 AM 42.4°F5.8°C 38.0°F3.3°C 85% 2.3 mph WSW3.7 kmh WSW 8.0 mph12.9 kmh 29.86 in1011.2 mb 0.00 in0.0 mm 0.00 in0.0 mm 0.08 in2.0 mm
02:40 AM 42.4°F5.8°C 38.0°F3.3°C 84% 2.5 mph SW4.0 kmh SW 8.0 mph12.9 kmh 29.86 in1011.2 mb 0.00 in0.0 mm 0.00 in0.0 mm 0.08 in2.0 mm
02:41 AM 42.5°F5.8°C 38.0°F3.3°C 84% 2.6 mph WSW4.2 kmh WSW 8.0 mph12.9 kmh 29.86 in1011.2 mb 0.00 in0.0 mm 0.00 in0.0 mm 0.08 in2.0 mm
02:42 AM 42.5°F5.8°C 38.0°F3.3°C 84% 2.6 mph W4.2 kmh W 8.0 mph12.9 kmh 29.86 in1011.2 mb 0.00 in0.0 mm 0.00 in0.0 mm 0.08 in2.0 mm
02:43 AM 42.5°F5.8°C 38.0°F3.3°C 85% 2.8 mph SW4.5 kmh SW 8.0 mph12.9 kmh 29.86 in1011.2 mb 0.00 in0.0 mm 0.00 in0.0 mm 0.08 in2.0 mm
02:44 AM 42.6°F5.9°C 38.0°F3.3°C 85% 2.9 mph WSW4.7 kmh WSW 8.0 mph12.9 kmh 29.86 in1011.2 mb 0.00 in0.0 mm 0.00 in0.0 mm 0.08 in2.0 mm
02:45 AM 42.5°F5.8°C 38.0°F3.3°C 84% 3.1 mph W5.0 kmh W 8.0 mph12.9 kmh 29.86 in1011.2 mb 0.00 in0.0 mm 0.00 in0.0 mm 0.08 in2.0 mm
02:46 AM 42.5°F5.8°C 38.0°F3.3°C 84% 3.2 mph W5.1 kmh W 8.0 mph12.9 kmh 29.86 in1011.2 mb 0.00 in0.0 mm 0.00 in0.0 mm 0.08 in2.0 mm
02:47 AM 42.6°F5.9°C 38.0°F3.3°C 84% 3.1 mph WSW5.0 kmh WSW 8.0 mph12.9 kmh 29.86 in1011.2 mb 0.00 in0.0 mm 0.00 in0.0 mm 0.08 in2.0 mm
02:48 AM 42.6°F5.9°C 38.0°F3.3°C 84% 3.3 mph SW5.3 kmh SW 8.0 mph12.9 kmh 29.86 in1011.2 mb 0.00 in0.0 mm 0.00 in0.0 mm 0.08 in2.0 mm
02:49 AM 42.6°F5.9°C 38.0°F3.3°C 84% 3.1 mph WSW5.0 kmh WSW 8.0 mph12.9 kmh 29.86 in1011.2 mb 0.00 in0.0 mm 0.00 in0.0 mm 0.08 in2.0 mm
02:50 AM 42.6°F5.9°C 38.0°F3.3°C 84% 3.1 mph W5.0 kmh W 8.0 mph12.9 kmh 29.86 in1011.2 mb 0.00 in0.0 mm 0.00 in0.0 mm 0.08 in2.0 mm
02:51 AM 42.6°F5.9°C 38.0°F3.3°C 83% 3.1 mph W5.0 kmh W 8.0 mph12.9 kmh 29.86 in1011.2 mb 0.00 in0.0 mm 0.00 in0.0 mm 0.08 in2.0 mm
02:52 AM 42.6°F5.9°C 38.0°F3.3°C 83% 3.3 mph W5.3 kmh W 8.0 mph12.9 kmh 29.86 in1011.2 mb 0.00 in0.0 mm 0.00 in0.0 mm 0.09 in2.3 mm
02:53 AM 42.6°F5.9°C 38.0°F3.3°C 83% 3.2 mph WSW5.1 kmh WSW 8.0 mph12.9 kmh 29.86 in1011.2 mb 0.00 in0.0 mm 0.00 in0.0 mm 0.09 in2.3 mm
02:54 AM 42.7°F5.9°C 38.0°F3.3°C 83% 3.1 mph WSW5.0 kmh WSW 8.0 mph12.9 kmh 29.86 in1011.2 mb 0.00 in0.0 mm 0.00 in0.0 mm 0.09 in2.3 mm
02:55 AM 42.7°F5.9°C 38.0°F3.3°C 83% 3.0 mph WSW4.8 kmh WSW 8.0 mph12.9 kmh 29.86 in1011.2 mb 0.00 in0.0 mm 0.00 in0.0 mm 0.09 in2.3 mm
02:56 AM 42.6°F5.9°C 38.0°F3.3°C 83% 3.0 mph W4.8 kmh W 8.0 mph12.9 kmh 29.86 in1011.2 mb 0.00 in0.0 mm 0.00 in0.0 mm 0.09 in2.3 mm
02:57 AM 42.7°F5.9°C 38.0°F3.3°C 83% 3.1 mph W5.0 kmh W 5.0 mph8.0 kmh 29.86 in1011.2 mb 0.00 in0.0 mm 0.00 in0.0 mm 0.09 in2.3 mm
02:59 AM 42.7°F5.9°C 38.0°F3.3°C 83% 2.7 mph SW4.3 kmh SW 5.0 mph8.0 kmh 29.86 in1011.2 mb 0.00 in0.0 mm 0.00 in0.0 mm 0.09 in2.3 mm
03:00 AM 42.7°F5.9°C 38.0°F3.3°C 83% 2.5 mph SSW4.0 kmh SSW 5.0 mph8.0 kmh 29.86 in1011.2 mb 0.00 in0.0 mm 0.00 in0.0 mm 0.09 in2.3 mm
03:01 AM 42.6°F5.9°C 38.0°F3.3°C 83% 2.5 mph SW4.0 kmh SW 5.0 mph8.0 kmh 29.86 in1011.2 mb 0.00 in0.0 mm 0.00 in0.0 mm 0.09 in2.3 mm
03:02 AM 42.6°F5.9°C 38.0°F3.3°C 83% 2.4 mph SSW3.9 kmh SSW 5.0 mph8.0 kmh 29.86 in1011.2 mb 0.00 in0.0 mm 0.00 in0.0 mm 0.09 in2.3 mm
03:03 AM 42.6°F5.9°C 38.0°F3.3°C 82% 2.5 mph SW4.0 kmh SW 5.0 mph8.0 kmh 29.86 in1011.2 mb 0.05 in1.3 mm 3.00 in76.2 mm 0.10 in2.5 mm
03:04 AM 42.6°F5.9°C 38.0°F3.3°C 83% 2.6 mph SW4.2 kmh SW 5.0 mph8.0 kmh 29.86 in1011.2 mb 0.05 in1.3 mm 0.00 in0.0 mm 0.10 in2.5 mm
03:05 AM 42.6°F5.9°C 38.0°F3.3°C 83% 2.6 mph SSW4.2 kmh SSW 5.0 mph8.0 kmh 29.86 in1011.2 mb 0.05 in1.3 mm 0.00 in0.0 mm 0.10 in2.5 mm
03:06 AM 42.6°F5.9°C 38.0°F3.3°C 83% 2.6 mph SW4.2 kmh SW 5.0 mph8.0 kmh 29.85 in1010.8 mb 0.05 in1.3 mm 0.00 in0.0 mm 0.10 in2.5 mm
03:07 AM 42.6°F5.9°C 38.0°F3.3°C 83% 2.6 mph SW4.2 kmh SW 5.0 mph8.0 kmh 29.85 in1010.8 mb 0.05 in1.3 mm 0.00 in0.0 mm 0.10 in2.5 mm
03:08 AM 42.5°F5.8°C 38.0°F3.3°C 83% 2.7 mph SW4.3 kmh SW 5.0 mph8.0 kmh 29.85 in1010.8 mb 0.05 in1.3 mm 0.00 in0.0 mm 0.10 in2.5 mm
03:09 AM 42.6°F5.9°C 38.0°F3.3°C 83% 3.0 mph SW4.8 kmh SW 5.0 mph8.0 kmh 29.85 in1010.8 mb 0.05 in1.3 mm 0.00 in0.0 mm 0.10 in2.5 mm
03:10 AM 42.6°F5.9°C 38.0°F3.3°C 83% 3.1 mph SW5.0 kmh SW 6.0 mph9.7 kmh 29.85 in1010.8 mb 0.05 in1.3 mm 0.00 in0.0 mm 0.10 in2.5 mm
03:11 AM 42.6°F5.9°C 38.0°F3.3°C 83% 3.2 mph WSW5.1 kmh WSW 6.0 mph9.7 kmh 29.85 in1010.8 mb 0.05 in1.3 mm 0.00 in0.0 mm 0.10 in2.5 mm
03:12 AM 42.5°F5.8°C 38.0°F3.3°C 83% 3.2 mph SW5.1 kmh SW 6.0 mph9.7 kmh 29.85 in1010.8 mb 0.05 in1.3 mm 0.00 in0.0 mm 0.10 in2.5 mm
03:13 AM 42.5°F5.8°C 38.0°F3.3°C 83% 3.2 mph SW5.1 kmh SW 6.0 mph9.7 kmh 29.85 in1010.8 mb 0.05 in1.3 mm 0.00 in0.0 mm 0.10 in2.5 mm
03:14 AM 42.5°F5.8°C 38.0°F3.3°C 84% 3.0 mph SW4.8 kmh SW 6.0 mph9.7 kmh 29.85 in1010.8 mb 0.05 in1.3 mm 0.00 in0.0 mm 0.10 in2.5 mm
03:15 AM 42.5°F5.8°C 38.0°F3.3°C 84% 3.0 mph WSW4.8 kmh WSW 6.0 mph9.7 kmh 29.86 in1011.2 mb 0.05 in1.3 mm 0.00 in0.0 mm 0.10 in2.5 mm
03:16 AM 42.5°F5.8°C 38.0°F3.3°C 84% 3.0 mph W4.8 kmh W 6.0 mph9.7 kmh 29.86 in1011.2 mb 0.04 in1.0 mm 0.00 in0.0 mm 0.10 in2.5 mm
03:17 AM 42.4°F5.8°C 38.0°F3.3°C 84% 2.9 mph SW4.7 kmh SW 6.0 mph9.7 kmh 29.86 in1011.2 mb 0.04 in1.0 mm 0.00 in0.0 mm 0.10 in2.5 mm
03:18 AM 42.4°F5.8°C 38.0°F3.3°C 84% 2.9 mph WSW4.7 kmh WSW 6.0 mph9.7 kmh 29.86 in1011.2 mb 0.04 in1.0 mm 0.00 in0.0 mm 0.10 in2.5 mm
03:19 AM 42.4°F5.8°C 38.0°F3.3°C 84% 2.7 mph SW4.3 kmh SW 5.0 mph8.0 kmh 29.86 in1011.2 mb 0.04 in1.0 mm 0.00 in0.0 mm 0.10 in2.5 mm
03:20 AM 42.3°F5.7°C 38.0°F3.3°C 85% 2.5 mph WSW4.0 kmh WSW 4.0 mph6.4 kmh 29.86 in1011.2 mb 0.00 in0.0 mm 0.00 in0.0 mm 0.10 in2.5 mm
03:21 AM 42.3°F5.7°C 38.0°F3.3°C 85% 2.2 mph WSW3.5 kmh WSW 4.0 mph6.4 kmh 29.85 in1010.8 mb 0.00 in0.0 mm 0.00 in0.0 mm 0.10 in2.5 mm
03:22 AM 42.3°F5.7°C 38.0°F3.3°C 85% 1.9 mph WSW3.1 kmh WSW 4.0 mph6.4 kmh 29.85 in1010.8 mb 0.00 in0.0 mm 0.00 in0.0 mm 0.10 in2.5 mm
03:23 AM 42.3°F5.7°C 38.0°F3.3°C 85% 1.6 mph WSW2.6 kmh WSW 4.0 mph6.4 kmh 29.85 in1010.8 mb 0.00 in0.0 mm 0.00 in0.0 mm 0.10 in2.5 mm
03:24 AM 42.3°F5.7°C 38.0°F3.3°C 85% 1.5 mph SW2.4 kmh SW 4.0 mph6.4 kmh 29.85 in1010.8 mb 0.00 in0.0 mm 0.00 in0.0 mm 0.10 in2.5 mm
03:25 AM 42.3°F5.7°C 38.0°F3.3°C 85% 1.3 mph SW2.1 kmh SW 3.0 mph4.8 kmh 29.85 in1010.8 mb 0.00 in0.0 mm 0.00 in0.0 mm 0.10 in2.5 mm
03:26 AM 42.2°F5.7°C 38.0°F3.3°C 85% 1.2 mph SSW1.9 kmh SSW 3.0 mph4.8 kmh 29.85 in1010.8 mb 0.00 in0.0 mm 0.00 in0.0 mm 0.10 in2.5 mm
03:27 AM 42.2°F5.7°C 38.0°F3.3°C 85% 1.2 mph SW1.9 kmh SW 2.0 mph3.2 kmh 29.85 in1010.8 mb 0.00 in0.0 mm 0.00 in0.0 mm 0.10 in2.5 mm
03:28 AM 42.3°F5.7°C 38.0°F3.3°C 85% 1.0 mph SW1.6 kmh SW 2.0 mph3.2 kmh 29.85 in1010.8 mb 0.00 in0.0 mm 0.00 in0.0 mm 0.10 in2.5 mm
03:29 AM 42.2°F5.7°C 38.0°F3.3°C 85% 0.9 mph SW1.4 kmh SW 2.0 mph3.2 kmh 29.85 in1010.8 mb 0.00 in0.0 mm 0.00 in0.0 mm 0.10 in2.5 mm
03:30 AM 42.2°F5.7°C 38.0°F3.3°C 85% 0.9 mph WSW1.4 kmh WSW 2.0 mph3.2 kmh 29.85 in1010.8 mb 0.00 in0.0 mm 0.00 in0.0 mm 0.10 in2.5 mm
03:31 AM 42.2°F5.7°C 38.0°F3.3°C 85% 0.9 mph SW1.4 kmh SW 2.0 mph3.2 kmh 29.85 in1010.8 mb 0.00 in0.0 mm 0.00 in0.0 mm 0.10 in2.5 mm
03:32 AM 42.2°F5.7°C 38.0°F3.3°C 85% 1.0 mph SW1.6 kmh SW 2.0 mph3.2 kmh 29.85 in1010.8 mb 0.00 in0.0 mm 0.00 in0.0 mm 0.10 in2.5 mm
03:33 AM 42.2°F5.7°C 38.0°F3.3°C 85% 1.1 mph WSW1.8 kmh WSW 2.0 mph3.2 kmh 29.85 in1010.8 mb 0.00 in0.0 mm 0.00 in0.0 mm 0.10 in2.5 mm
03:34 AM 42.2°F5.7°C 38.0°F3.3°C 85% 1.3 mph SW2.1 kmh SW 2.0 mph3.2 kmh 29.85 in1010.8 mb 0.00 in0.0 mm 0.00 in0.0 mm 0.10 in2.5 mm
03:35 AM 42.2°F5.7°C 38.0°F3.3°C 85% 1.4 mph SW2.3 kmh SW 3.0 mph4.8 kmh 29.85 in1010.8 mb 0.00 in0.0 mm 0.00 in0.0 mm 0.10 in2.5 mm
03:36 AM 42.2°F5.7°C 38.0°F3.3°C 85% 1.4 mph WSW2.3 kmh WSW 3.0 mph4.8 kmh 29.85 in1010.8 mb 0.00 in0.0 mm 0.00 in0.0 mm 0.10 in2.5 mm
03:37 AM 42.2°F5.7°C 38.0°F3.3°C 85% 1.4 mph W2.3 kmh W 3.0 mph4.8 kmh 29.85 in1010.8 mb 0.00 in0.0 mm 0.00 in0.0 mm 0.10 in2.5 mm
03:38 AM 42.2°F5.7°C 38.0°F3.3°C 85% 1.5 mph WSW2.4 kmh WSW 3.0 mph4.8 kmh 29.85 in1010.8 mb 0.00 in0.0 mm 0.00 in0.0 mm 0.10 in2.5 mm
03:39 AM 42.2°F5.7°C 38.0°F3.3°C 85% 1.6 mph WSW2.6 kmh WSW 3.0 mph4.8 kmh 29.85 in1010.8 mb 0.00 in0.0 mm 0.00 in0.0 mm 0.10 in2.5 mm
03:40 AM 42.2°F5.7°C 38.0°F3.3°C 84% 1.8 mph SW2.9 kmh SW 4.0 mph6.4 kmh 29.85 in1010.8 mb 0.00 in0.0 mm 0.00 in0.0 mm 0.10 in2.5 mm
03:41 AM 42.2°F5.7°C 38.0°F3.3°C 84% 2.0 mph SW3.2 kmh SW 4.0 mph6.4 kmh 29.85 in1010.8 mb 0.00 in0.0 mm 0.00 in0.0 mm 0.10 in2.5 mm
03:42 AM 42.2°F5.7°C 38.0°F3.3°C 84% 2.1 mph SW3.4 kmh SW 4.0 mph6.4 kmh 29.85 in1010.8 mb 0.00 in0.0 mm 0.00 in0.0 mm 0.10 in2.5 mm
03:43 AM 42.2°F5.7°C 38.0°F3.3°C 84% 2.2 mph SW3.5 kmh SW 4.0 mph6.4 kmh 29.85 in1010.8 mb 0.00 in0.0 mm 0.00 in0.0 mm 0.10 in2.5 mm
03:44 AM 42.2°F5.7°C 38.0°F3.3°C 84% 2.3 mph SW3.7 kmh SW 5.0 mph8.0 kmh 29.85 in1010.8 mb 0.00 in0.0 mm 0.00 in0.0 mm 0.10 in2.5 mm
03:45 AM 42.1°F5.6°C 38.0°F3.3°C 84% 2.4 mph SSW3.9 kmh SSW 5.0 mph8.0 kmh 29.85 in1010.8 mb 0.00 in0.0 mm 0.00 in0.0 mm 0.10 in2.5 mm
03:46 AM 42.2°F5.7°C 38.0°F3.3°C 84% 2.3 mph SSW3.7 kmh SSW 5.0 mph8.0 kmh 29.85 in1010.8 mb 0.00 in0.0 mm 0.00 in0.0 mm 0.10 in2.5 mm
03:47 AM 42.1°F5.6°C 38.0°F3.3°C 85% 2.4 mph SSW3.9 kmh SSW 5.0 mph8.0 kmh 29.85 in1010.8 mb 0.00 in0.0 mm 0.00 in0.0 mm 0.10 in2.5 mm
03:48 AM 42.1°F5.6°C 38.0°F3.3°C 84% 2.4 mph SW3.9 kmh SW 5.0 mph8.0 kmh 29.85 in1010.8 mb 0.00 in0.0 mm 0.00 in0.0 mm 0.10 in2.5 mm
03:49 AM 42.1°F5.6°C 38.0°F3.3°C 85% 2.3 mph SW3.7 kmh SW 5.0 mph8.0 kmh 29.85 in1010.8 mb 0.00 in0.0 mm 0.00 in0.0 mm 0.10 in2.5 mm
03:50 AM 42.2°F5.7°C 38.0°F3.3°C 85% 2.1 mph SW3.4 kmh SW 5.0 mph8.0 kmh 29.85 in1010.8 mb 0.00 in0.0 mm 0.00 in0.0 mm 0.10 in2.5 mm
03:51 AM 42.1°F5.6°C 38.0°F3.3°C 85% 1.9 mph SW3.1 kmh SW 5.0 mph8.0 kmh 29.85 in1010.8 mb 0.00 in0.0 mm 0.00 in0.0 mm 0.10 in2.5 mm
03:52 AM 42.2°F5.7°C 38.0°F3.3°C 85% 1.8 mph WSW2.9 kmh WSW 5.0 mph8.0 kmh 29.85 in1010.8 mb 0.00 in0.0 mm 0.00 in0.0 mm 0.10 in2.5 mm
03:54 AM 42.1°F5.6°C 38.0°F3.3°C 85% 1.7 mph SSW2.7 kmh SSW 4.0 mph6.4 kmh 29.85 in1010.8 mb 0.00 in0.0 mm 0.00 in0.0 mm 0.10 in2.5 mm
03:55 AM 42.1°F5.6°C 38.0°F3.3°C 85% 1.6 mph WSW2.6 kmh WSW 4.0 mph6.4 kmh 29.85 in1010.8 mb 0.00 in0.0 mm 0.00 in0.0 mm 0.10 in2.5 mm
03:56 AM 42.1°F5.6°C 38.0°F3.3°C 85% 1.7 mph SSW2.7 kmh SSW 4.0 mph6.4 kmh 29.85 in1010.8 mb 0.00 in0.0 mm 0.00 in0.0 mm 0.10 in2.5 mm
03:57 AM 42.2°F5.7°C 38.0°F3.3°C 85% 1.6 mph WSW2.6 kmh WSW 4.0 mph6.4 kmh 29.85 in1010.8 mb 0.00 in0.0 mm 0.00 in0.0 mm 0.10 in2.5 mm
03:58 AM 42.2°F5.7°C 38.0°F3.3°C 85% 1.6 mph SW2.6 kmh SW 4.0 mph6.4 kmh 29.85 in1010.8 mb 0.00 in0.0 mm 0.00 in0.0 mm 0.10 in2.5 mm
03:59 AM 42.2°F5.7°C 38.0°F3.3°C 85% 1.7 mph S2.7 kmh S 4.0 mph6.4 kmh 29.85 in1010.8 mb 0.00 in0.0 mm 0.00 in0.0 mm 0.10 in2.5 mm
04:00 AM 42.1°F5.6°C 38.0°F3.3°C 85% 1.8 mph SSW2.9 kmh SSW 4.0 mph6.4 kmh 29.85 in1010.8 mb 0.00 in0.0 mm 0.00 in0.0 mm 0.10 in2.5 mm
04:01 AM 42.1°F5.6°C 38.0°F3.3°C 85% 1.9 mph SSW3.1 kmh SSW 4.0 mph6.4 kmh 29.85 in1010.8 mb 0.00 in0.0 mm 0.00 in0.0 mm 0.10 in2.5 mm
04:02 AM 42.1°F5.6°C 38.0°F3.3°C 86% 2.0 mph SSW3.2 kmh SSW 4.0 mph6.4 kmh 29.85 in1010.8 mb 0.00 in0.0 mm 0.00 in0.0 mm 0.10 in2.5 mm
04:03 AM 42.1°F5.6°C 38.0°F3.3°C 86% 2.0 mph SW3.2 kmh SW 4.0 mph6.4 kmh 29.85 in1010.8 mb 0.00 in0.0 mm 0.00 in0.0 mm 0.10 in2.5 mm
04:04 AM 42.1°F5.6°C 38.0°F3.3°C 85% 1.9 mph SW3.1 kmh SW 3.0 mph4.8 kmh 29.85 in1010.8 mb 0.00 in0.0 mm 0.00 in0.0 mm 0.10 in2.5 mm
04:05 AM 42.1°F5.6°C 38.0°F3.3°C 85% 2.0 mph SW3.2 kmh SW 4.0 mph6.4 kmh 29.85 in1010.8 mb 0.00 in0.0 mm 0.00 in0.0 mm 0.10 in2.5 mm
04:06 AM 42.1°F5.6°C 38.0°F3.3°C 85% 2.0 mph SW3.2 kmh SW 4.0 mph6.4 kmh 29.85 in1010.8 mb 0.00 in0.0 mm 0.00 in0.0 mm 0.10 in2.5 mm
04:07 AM 42.1°F5.6°C 38.0°F3.3°C 85% 2.1 mph SW3.4 kmh SW 4.0 mph6.4 kmh 29.85 in1010.8 mb 0.00 in0.0 mm 0.00 in0.0 mm 0.10 in2.5 mm
04:08 AM 42.1°F5.6°C 38.0°F3.3°C 85% 2.2 mph S3.5 kmh S 4.0 mph6.4 kmh 29.85 in1010.8 mb 0.00 in0.0 mm 0.00 in0.0 mm 0.10 in2.5 mm
04:09 AM 42.1°F5.6°C 38.0°F3.3°C 85% 2.2 mph S3.5 kmh S 4.0 mph6.4 kmh 29.85 in1010.8 mb 0.00 in0.0 mm 0.00 in0.0 mm 0.10 in2.5 mm
04:10 AM 42.1°F5.6°C 38.0°F3.3°C 85% 2.3 mph SSW3.7 kmh SSW 4.0 mph6.4 kmh 29.85 in1010.8 mb 0.00 in0.0 mm 0.00 in0.0 mm 0.10 in2.5 mm
04:11 AM 42.1°F5.6°C 38.0°F3.3°C 85% 2.3 mph SW3.7 kmh SW 4.0 mph6.4 kmh 29.85 in1010.8 mb 0.00 in0.0 mm 0.00 in0.0 mm 0.10 in2.5 mm
04:12 AM 42.1°F5.6°C 38.0°F3.3°C 85% 2.5 mph S4.0 kmh S 5.0 mph8.0 kmh 29.85 in1010.8 mb 0.00 in0.0 mm 0.00 in0.0 mm 0.10 in2.5 mm
04:13 AM 42.1°F5.6°C 38.0°F3.3°C 85% 2.6 mph SE4.2 kmh SE 5.0 mph8.0 kmh 29.85 in1010.8 mb 0.00 in0.0 mm 0.00 in0.0 mm 0.10 in2.5 mm
04:14 AM 42.1°F5.6°C 38.0°F3.3°C 85% 2.6 mph SW4.2 kmh SW 5.0 mph8.0 kmh 29.85 in1010.8 mb 0.00 in0.0 mm 0.00 in0.0 mm 0.10 in2.5 mm
04:15 AM 42.1°F5.6°C 38.0°F3.3°C 85% 2.5 mph SSW4.0 kmh SSW 5.0 mph8.0 kmh 29.85 in1010.8 mb 0.00 in0.0 mm 0.00 in0.0 mm 0.10 in2.5 mm
04:16 AM 42.1°F5.6°C 38.0°F3.3°C 85% 2.5 mph SSW4.0 kmh SSW 5.0 mph8.0 kmh 29.85 in1010.8 mb 0.00 in0.0 mm 0.00 in0.0 mm 0.10 in2.5 mm
04:17 AM 42.1°F5.6°C 38.0°F3.3°C 85% 2.5 mph SW4.0 kmh SW 5.0 mph8.0 kmh 29.85 in1010.8 mb 0.00 in0.0 mm 0.00 in0.0 mm 0.10 in2.5 mm
04:18 AM 42.1°F5.6°C 38.0°F3.3°C 85% 2.3 mph SW3.7 kmh SW 5.0 mph8.0 kmh 29.85 in1010.8 mb 0.00 in0.0 mm 0.00 in0.0 mm 0.10 in2.5 mm
04:19 AM 42.1°F5.6°C 38.0°F3.3°C 85% 2.2 mph SSW3.5 kmh SSW 5.0 mph8.0 kmh 29.85 in1010.8 mb 0.00 in0.0 mm 0.00 in0.0 mm 0.10 in2.5 mm
04:20 AM 42.1°F5.6°C 38.0°F3.3°C 85% 2.1 mph S3.4 kmh S 5.0 mph8.0 kmh 29.85 in1010.8 mb 0.00 in0.0 mm 0.00 in0.0 mm 0.10 in2.5 mm
04:21 AM 42.0°F5.6°C 38.0°F3.3°C 85% 2.1 mph SSE3.4 kmh SSE 4.0 mph6.4 kmh 29.85 in1010.8 mb 0.00 in0.0 mm 0.00 in0.0 mm 0.10 in2.5 mm
04:22 AM 42.1°F5.6°C 38.0°F3.3°C 85% 1.8 mph S2.9 kmh S 4.0 mph6.4 kmh 29.85 in1010.8 mb 0.00 in0.0 mm 0.00 in0.0 mm 0.10 in2.5 mm
04:23 AM 42.1°F5.6°C 38.0°F3.3°C 85% 1.8 mph SSW2.9 kmh SSW 4.0 mph6.4 kmh 29.85 in1010.8 mb 0.00 in0.0 mm 0.00 in0.0 mm 0.10 in2.5 mm
04:24 AM 42.0°F5.6°C 38.0°F3.3°C 85% 1.7 mph SSW2.7 kmh SSW 4.0 mph6.4 kmh 29.85 in1010.8 mb 0.00 in0.0 mm 0.00 in0.0 mm 0.10 in2.5 mm
04:25 AM 42.0°F5.6°C 38.0°F3.3°C 85% 1.6 mph SW2.6 kmh SW 3.0 mph4.8 kmh 29.84 in1010.5 mb 0.00 in0.0 mm 0.00 in0.0 mm 0.10 in2.5 mm
04:26 AM 42.0°F5.6°C 38.0°F3.3°C 85% 1.5 mph S2.4 kmh S 3.0 mph4.8 kmh 29.85 in1010.8 mb 0.00 in0.0 mm 0.00 in0.0 mm 0.10 in2.5 mm
04:27 AM 42.0°F5.6°C 38.0°F3.3°C 86% 1.5 mph SSW2.4 kmh SSW 3.0 mph4.8 kmh 29.85 in1010.8 mb 0.00 in0.0 mm 0.00 in0.0 mm 0.10 in2.5 mm
04:28 AM 41.9°F5.5°C 38.0°F3.3°C 85% 1.6 mph SSW2.6 kmh SSW 3.0 mph4.8 kmh 29.85 in1010.8 mb 0.00 in0.0 mm 0.00 in0.0 mm 0.10 in2.5 mm
04:29 AM 42.0°F5.6°C 38.0°F3.3°C 86% 1.6 mph SSE2.6 kmh SSE 3.0 mph4.8 kmh 29.85 in1010.8 mb 0.00 in0.0 mm 0.00 in0.0 mm 0.10 in2.5 mm
04:30 AM 41.9°F5.5°C 38.0°F3.3°C 86% 1.5 mph SSW2.4 kmh SSW 4.0 mph6.4 kmh 29.85 in1010.8 mb 0.00 in0.0 mm 0.00 in0.0 mm 0.10 in2.5 mm
04:31 AM 41.9°F5.5°C 38.0°F3.3°C 85% 1.6 mph SSE2.6 kmh SSE 4.0 mph6.4 kmh 29.85 in1010.8 mb 0.00 in0.0 mm 0.00 in0.0 mm 0.10 in2.5 mm
04:32 AM 41.9°F5.5°C 38.0°F3.3°C 85% 1.6 mph S2.6 kmh S 4.0 mph6.4 kmh 29.85 in1010.8 mb 0.00 in0.0 mm 0.00 in0.0 mm 0.10 in2.5 mm
04:33 AM 41.9°F5.5°C 38.0°F3.3°C 85% 1.7 mph S2.7 kmh S 4.0 mph6.4 kmh 29.84 in1010.5 mb 0.00 in0.0 mm 0.00 in0.0 mm 0.10 in2.5 mm
04:34 AM 41.9°F5.5°C 38.0°F3.3°C 85% 1.8 mph S2.9 kmh S 4.0 mph6.4 kmh 29.85 in1010.8 mb 0.00 in0.0 mm 0.00 in0.0 mm 0.10 in2.5 mm
04:35 AM 41.9°F5.5°C 38.0°F3.3°C 85% 1.9 mph SE3.1 kmh SE 4.0 mph6.4 kmh 29.84 in1010.5 mb 0.00 in0.0 mm 0.00 in0.0 mm 0.10 in2.5 mm
04:36 AM 41.9°F5.5°C 38.0°F3.3°C 85% 1.8 mph S2.9 kmh S 4.0 mph6.4 kmh 29.84 in1010.5 mb 0.00 in0.0 mm 0.00 in0.0 mm 0.10 in2.5 mm
04:37 AM 41.9°F5.5°C 38.0°F3.3°C 85% 1.7 mph SW2.7 kmh SW 4.0 mph6.4 kmh 29.84 in1010.5 mb 0.00 in0.0 mm 0.00 in0.0 mm 0.10 in2.5 mm
04:38 AM 41.9°F5.5°C 38.0°F3.3°C 85% 1.6 mph SSE2.6 kmh SSE 4.0 mph6.4 kmh 29.84 in1010.5 mb 0.00 in0.0 mm 0.00 in0.0 mm 0.10 in2.5 mm
04:39 AM 42.0°F5.6°C 38.0°F3.3°C 85% 1.6 mph SSW2.6 kmh SSW 4.0 mph6.4 kmh 29.84 in1010.5 mb 0.00 in0.0 mm 0.00 in0.0 mm 0.10 in2.5 mm
04:40 AM 42.0°F5.6°C 38.0°F3.3°C 85% 1.6 mph SSW2.6 kmh SSW 4.0 mph6.4 kmh 29.84 in1010.5 mb 0.00 in0.0 mm 0.00 in0.0 mm 0.10 in2.5 mm
04:41 AM 41.9°F5.5°C 38.0°F3.3°C 85% 1.4 mph SW2.3 kmh SW 4.0 mph6.4 kmh 29.84 in1010.5 mb 0.00 in0.0 mm 0.00 in0.0 mm 0.10 in2.5 mm
04:42 AM 41.9°F5.5°C 38.0°F3.3°C 85% 1.3 mph SW2.1 kmh SW 4.0 mph6.4 kmh 29.84 in1010.5 mb 0.00 in0.0 mm 0.00 in0.0 mm 0.10 in2.5 mm
04:43 AM 41.9°F5.5°C 38.0°F3.3°C 85% 1.0 mph SW1.6 kmh SW 4.0 mph6.4 kmh 29.84 in1010.5 mb 0.00 in0.0 mm 0.00 in0.0 mm 0.10 in2.5 mm
04:44 AM 41.9°F5.5°C 38.0°F3.3°C 86% 0.9 mph WSW1.4 kmh WSW 2.0 mph3.2 kmh 29.84 in1010.5 mb 0.00 in0.0 mm 0.00 in0.0 mm 0.10 in2.5 mm
04:45 AM 41.8°F5.4°C 38.0°F3.3°C 86% 0.8 mph W1.3 kmh W 2.0 mph3.2 kmh 29.84 in1010.5 mb 0.00 in0.0 mm 0.00 in0.0 mm 0.10 in2.5 mm
04:46 AM 41.9°F5.5°C 38.0°F3.3°C 86% 0.8 mph W1.3 kmh W 2.0 mph3.2 kmh 29.84 in1010.5 mb 0.00 in0.0 mm 0.00 in0.0 mm 0.10 in2.5 mm
04:47 AM 41.9°F5.5°C 38.0°F3.3°C 86% 0.8 mph WSW1.3 kmh WSW 2.0 mph3.2 kmh 29.84 in1010.5 mb 0.00 in0.0 mm 0.00 in0.0 mm 0.10 in2.5 mm
04:48 AM 41.9°F5.5°C 38.0°F3.3°C 86% 0.8 mph W1.3 kmh W 2.0 mph3.2 kmh 29.84 in1010.5 mb 0.00 in0.0 mm 0.00 in0.0 mm 0.10 in2.5 mm
04:49 AM 41.9°F5.5°C 38.0°F3.3°C 86% 0.7 mph WSW1.1 kmh WSW 2.0 mph3.2 kmh 29.84 in1010.5 mb 0.00 in0.0 mm 0.00 in0.0 mm 0.10 in2.5 mm
04:50 AM 41.9°F5.5°C 38.0°F3.3°C 86% 0.6 mph WSW1.0 kmh WSW 2.0 mph3.2 kmh 29.84 in1010.5 mb 0.00 in0.0 mm 0.00 in0.0 mm 0.10 in2.5 mm
04:52 AM 41.8°F5.4°C 38.0°F3.3°C 86% 0.5 mph WSW0.8 kmh WSW 2.0 mph3.2 kmh 29.84 in1010.5 mb 0.00 in0.0 mm 0.00 in0.0 mm 0.10 in2.5 mm
04:53 AM 41.8°F5.4°C 38.0°F3.3°C 86% 0.5 mph WSW0.8 kmh WSW 2.0 mph3.2 kmh 29.84 in1010.5 mb 0.00 in0.0 mm 0.00 in0.0 mm 0.10 in2.5 mm
04:54 AM 41.8°F5.4°C 38.0°F3.3°C 86% 0.5 mph W0.8 kmh W 2.0 mph3.2 kmh 29.84 in1010.5 mb 0.00 in0.0 mm 0.00 in0.0 mm 0.10 in2.5 mm
04:56 AM 41.9°F5.5°C 38.0°F3.3°C 86% 0.6 mph W1.0 kmh W 3.0 mph4.8 kmh 29.85 in1010.8 mb 0.00 in0.0 mm 0.00 in0.0 mm 0.10 in2.5 mm
04:57 AM 41.9°F5.5°C 38.0°F3.3°C 86% 0.7 mph WSW1.1 kmh WSW 3.0 mph4.8 kmh 29.85 in1010.8 mb 0.00 in0.0 mm 0.00 in0.0 mm 0.10 in2.5 mm
04:58 AM 41.9°F5.5°C 38.0°F3.3°C 86% 0.9 mph WSW1.4 kmh WSW 5.0 mph8.0 kmh 29.85 in1010.8 mb 0.00 in0.0 mm 0.00 in0.0 mm 0.10 in2.5 mm
04:59 AM 41.9°F5.5°C 38.0°F3.3°C 86% 1.3 mph W2.1 kmh W 9.0 mph14.5 kmh 29.86 in1011.2 mb 0.00 in0.0 mm 0.00 in0.0 mm 0.10 in2.5 mm
05:00 AM 41.9°F5.5°C 38.0°F3.3°C 85% 1.8 mph W2.9 kmh W 9.0 mph14.5 kmh 29.86 in1011.2 mb 0.00 in0.0 mm 0.00 in0.0 mm 0.10 in2.5 mm
05:01 AM 41.9°F5.5°C 37.0°F2.8°C 84% 2.4 mph E3.9 kmh E 11.0 mph17.7 kmh 29.86 in1011.2 mb 0.00 in0.0 mm 0.00 in0.0 mm 0.10 in2.5 mm
05:02 AM 41.8°F5.4°C 37.0°F2.8°C 84% 3.1 mph NNE5.0 kmh NNE 13.0 mph20.9 kmh 29.87 in1011.5 mb 0.00 in0.0 mm 0.00 in0.0 mm 0.10 in2.5 mm
05:03 AM 41.5°F5.3°C 37.0°F2.8°C 84% 3.6 mph ESE5.8 kmh ESE 13.0 mph20.9 kmh 29.86 in1011.2 mb 0.00 in0.0 mm 0.00 in0.0 mm 0.10 in2.5 mm
05:04 AM 41.3°F5.2°C 37.0°F2.8°C 85% 4.1 mph NW6.6 kmh NW 13.0 mph20.9 kmh 29.87 in1011.5 mb 0.00 in0.0 mm 0.00 in0.0 mm 0.10 in2.5 mm
05:05 AM 41.2°F5.1°C 37.0°F2.8°C 85% 4.5 mph NW7.2 kmh NW 13.0 mph20.9 kmh 29.87 in1011.5 mb 0.00 in0.0 mm 0.00 in0.0 mm 0.10 in2.5 mm
05:06 AM 41.0°F5.0°C 37.0°F2.8°C 86% 4.6 mph W7.4 kmh W 13.0 mph20.9 kmh 29.87 in1011.5 mb 0.00 in0.0 mm 0.00 in0.0 mm 0.10 in2.5 mm
05:07 AM 40.9°F4.9°C 37.0°F2.8°C 86% 4.9 mph NNE7.9 kmh NNE 13.0 mph20.9 kmh 29.86 in1011.2 mb 0.00 in0.0 mm 0.00 in0.0 mm 0.10 in2.5 mm
05:08 AM 40.8°F4.9°C 37.0°F2.8°C 86% 5.2 mph NNW8.4 kmh NNW 15.0 mph24.1 kmh 29.87 in1011.5 mb 0.00 in0.0 mm 0.00 in0.0 mm 0.11 in2.8 mm
05:09 AM 40.8°F4.9°C 37.0°F2.8°C 86% 5.3 mph NW8.5 kmh NW 15.0 mph24.1 kmh 29.87 in1011.5 mb 0.00 in0.0 mm 0.00 in0.0 mm 0.11 in2.8 mm
05:10 AM 40.6°F4.8°C 37.0°F2.8°C 86% 5.4 mph WNW8.7 kmh WNW 15.0 mph24.1 kmh 29.87 in1011.5 mb 0.00 in0.0 mm 0.00 in0.0 mm 0.11 in2.8 mm
05:11 AM 40.5°F4.7°C 37.0°F2.8°C 86% 5.4 mph NW8.7 kmh NW 15.0 mph24.1 kmh 29.87 in1011.5 mb 0.00 in0.0 mm 0.00 in0.0 mm 0.11 in2.8 mm
05:12 AM 40.5°F4.7°C 37.0°F2.8°C 87% 5.1 mph NW8.2 kmh NW 15.0 mph24.1 kmh 29.87 in1011.5 mb 0.00 in0.0 mm 0.00 in0.0 mm 0.11 in2.8 mm
05:13 AM 40.4°F4.7°C 37.0°F2.8°C 87% 5.1 mph NW8.2 kmh NW 15.0 mph24.1 kmh 29.87 in1011.5 mb 0.00 in0.0 mm 0.00 in0.0 mm 0.11 in2.8 mm
05:14 AM 40.3°F4.6°C 37.0°F2.8°C 87% 5.1 mph N8.2 kmh N 15.0 mph24.1 kmh 29.87 in1011.5 mb 0.00 in0.0 mm 0.00 in0.0 mm 0.11 in2.8 mm
05:15 AM 40.2°F4.6°C 37.0°F2.8°C 87% 5.3 mph NW8.5 kmh NW 15.0 mph24.1 kmh 29.87 in1011.5 mb 0.00 in0.0 mm 0.00 in0.0 mm 0.11 in2.8 mm
05:16 AM 40.2°F4.6°C 37.0°F2.8°C 87% 5.7 mph W9.2 kmh W 13.0 mph20.9 kmh 29.87 in1011.5 mb 0.07 in1.8 mm 4.20 in106.7 mm 0.12 in3.0 mm
05:17 AM 40.1°F4.5°C 36.0°F2.2°C 86% 5.7 mph N9.2 kmh N 12.0 mph19.3 kmh 29.87 in1011.5 mb 0.07 in1.8 mm 0.00 in0.0 mm 0.12 in3.0 mm
05:18 AM 39.9°F4.4°C 36.0°F2.2°C 86% 5.6 mph NNW9.0 kmh NNW 12.0 mph19.3 kmh 29.87 in1011.5 mb 0.07 in1.8 mm 0.00 in0.0 mm 0.12 in3.0 mm
05:19 AM 39.9°F4.4°C 36.0°F2.2°C 86% 5.6 mph WNW9.0 kmh WNW 12.0 mph19.3 kmh 29.87 in1011.5 mb 0.07 in1.8 mm 0.00 in0.0 mm 0.12 in3.0 mm
05:20 AM 39.8°F4.3°C 36.0°F2.2°C 86% 5.4 mph N8.7 kmh N 12.0 mph19.3 kmh 29.87 in1011.5 mb 0.07 in1.8 mm 0.00 in0.0 mm 0.12 in3.0 mm
05:21 AM 39.8°F4.3°C 36.0°F2.2°C 87% 5.2 mph NW8.4 kmh NW 12.0 mph19.3 kmh 29.87 in1011.5 mb 0.11 in2.8 mm 2.40 in61.0 mm 0.12 in3.0 mm
05:22 AM 39.7°F4.3°C 36.0°F2.2°C 87% 5.1 mph NW8.2 kmh NW 12.0 mph19.3 kmh 29.87 in1011.5 mb 0.11 in2.8 mm 0.00 in0.0 mm 0.13 in3.3 mm
05:23 AM 39.7°F4.3°C 36.0°F2.2°C 87% 5.1 mph WNW8.2 kmh WNW 12.0 mph19.3 kmh 29.87 in1011.5 mb 0.11 in2.8 mm 0.00 in0.0 mm 0.13 in3.3 mm
05:25 AM 39.6°F4.2°C 36.0°F2.2°C 87% 4.5 mph NW7.2 kmh NW 11.0 mph17.7 kmh 29.87 in1011.5 mb 0.11 in2.8 mm 0.00 in0.0 mm 0.13 in3.3 mm
05:26 AM 39.6°F4.2°C 36.0°F2.2°C 87% 4.2 mph SW6.8 kmh SW 11.0 mph17.7 kmh 29.87 in1011.5 mb 0.11 in2.8 mm 0.00 in0.0 mm 0.13 in3.3 mm
05:27 AM 39.6°F4.2°C 36.0°F2.2°C 87% 4.1 mph WSW6.6 kmh WSW 11.0 mph17.7 kmh 29.87 in1011.5 mb 0.10 in2.5 mm 0.00 in0.0 mm 0.14 in3.6 mm
05:28 AM 39.5°F4.2°C 36.0°F2.2°C 87% 4.1 mph W6.6 kmh W 9.0 mph14.5 kmh 29.87 in1011.5 mb 0.10 in2.5 mm 0.00 in0.0 mm 0.14 in3.6 mm
05:29 AM 39.4°F4.1°C 36.0°F2.2°C 87% 3.9 mph NW6.3 kmh NW 8.0 mph12.9 kmh 29.88 in1011.9 mb 0.10 in2.5 mm 0.00 in0.0 mm 0.14 in3.6 mm
05:30 AM 39.4°F4.1°C 36.0°F2.2°C 87% 3.7 mph NW6.0 kmh NW 8.0 mph12.9 kmh 29.88 in1011.9 mb 0.10 in2.5 mm 0.00 in0.0 mm 0.14 in3.6 mm
05:31 AM 39.3°F4.1°C 36.0°F2.2°C 87% 3.7 mph NW6.0 kmh NW 8.0 mph12.9 kmh 29.88 in1011.9 mb 0.10 in2.5 mm 0.00 in0.0 mm 0.14 in3.6 mm
05:33 AM 39.3°F4.1°C 36.0°F2.2°C 87% 3.4 mph NW5.5 kmh NW 8.0 mph12.9 kmh 29.88 in1011.9 mb 0.09 in2.3 mm 0.00 in0.0 mm 0.14 in3.6 mm
05:34 AM 39.2°F4.0°C 36.0°F2.2°C 87% 3.4 mph N5.5 kmh N 8.0 mph12.9 kmh 29.88 in1011.9 mb 0.09 in2.3 mm 0.00 in0.0 mm 0.15 in3.8 mm
05:35 AM 39.2°F4.0°C 36.0°F2.2°C 87% 3.2 mph N5.1 kmh N 8.0 mph12.9 kmh 29.88 in1011.9 mb 0.09 in2.3 mm 0.00 in0.0 mm 0.15 in3.8 mm
05:36 AM 39.3°F4.1°C 36.0°F2.2°C 87% 3.0 mph N4.8 kmh N 8.0 mph12.9 kmh 29.87 in1011.5 mb 0.09 in2.3 mm 0.00 in0.0 mm 0.15 in3.8 mm
05:37 AM 39.3°F4.1°C 36.0°F2.2°C 87% 2.7 mph NNW4.3 kmh NNW 8.0 mph12.9 kmh 29.87 in1011.5 mb 0.09 in2.3 mm 0.00 in0.0 mm 0.15 in3.8 mm
05:38 AM 39.2°F4.0°C 36.0°F2.2°C 88% 2.3 mph WNW3.7 kmh WNW 8.0 mph12.9 kmh 29.87 in1011.5 mb 0.09 in2.3 mm 0.00 in0.0 mm 0.15 in3.8 mm
05:39 AM 39.2°F4.0°C 36.0°F2.2°C 88% 2.1 mph WNW3.4 kmh WNW 8.0 mph12.9 kmh 29.87 in1011.5 mb 0.09 in2.3 mm 0.00 in0.0 mm 0.15 in3.8 mm
05:40 AM 39.2°F4.0°C 36.0°F2.2°C 88% 2.0 mph NW3.2 kmh NW 6.0 mph9.7 kmh 29.87 in1011.5 mb 0.09 in2.3 mm 0.00 in0.0 mm 0.15 in3.8 mm
05:41 AM 39.1°F3.9°C 36.0°F2.2°C 88% 1.7 mph W2.7 kmh W 6.0 mph9.7 kmh 29.87 in1011.5 mb 0.08 in2.0 mm 0.00 in0.0 mm 0.15 in3.8 mm
05:42 AM 39.2°F4.0°C 36.0°F2.2°C 88% 1.5 mph WSW2.4 kmh WSW 6.0 mph9.7 kmh 29.87 in1011.5 mb 0.07 in1.8 mm 0.00 in0.0 mm 0.15 in3.8 mm
05:43 AM 39.2°F4.0°C 36.0°F2.2°C 88% 1.4 mph WSW2.3 kmh WSW 4.0 mph6.4 kmh 29.87 in1011.5 mb 0.06 in1.5 mm 0.00 in0.0 mm 0.15 in3.8 mm
05:44 AM 39.2°F4.0°C 36.0°F2.2°C 88% 1.2 mph W1.9 kmh W 3.0 mph4.8 kmh 29.87 in1011.5 mb 0.06 in1.5 mm 0.00 in0.0 mm 0.15 in3.8 mm
05:45 AM 39.2°F4.0°C 36.0°F2.2°C 88% 1.0 mph WSW1.6 kmh WSW 3.0 mph4.8 kmh 29.87 in1011.5 mb 0.05 in1.3 mm 0.00 in0.0 mm 0.15 in3.8 mm
05:46 AM 39.2°F4.0°C 36.0°F2.2°C 88% 0.8 mph WSW1.3 kmh WSW 3.0 mph4.8 kmh 29.87 in1011.5 mb 0.05 in1.3 mm 0.00 in0.0 mm 0.15 in3.8 mm
05:47 AM 39.2°F4.0°C 36.0°F2.2°C 88% 0.7 mph WSW1.1 kmh WSW 3.0 mph4.8 kmh 29.86 in1011.2 mb 0.05 in1.3 mm 0.00 in0.0 mm 0.15 in3.8 mm
05:48 AM 39.2°F4.0°C 36.0°F2.2°C 88% 0.6 mph WSW1.0 kmh WSW 3.0 mph4.8 kmh 29.86 in1011.2 mb 0.04 in1.0 mm 0.00 in0.0 mm 0.15 in3.8 mm
05:49 AM 39.2°F4.0°C 36.0°F2.2°C 88% 0.6 mph WSW1.0 kmh WSW 2.0 mph3.2 kmh 29.86 in1011.2 mb 0.04 in1.0 mm 0.00 in0.0 mm 0.15 in3.8 mm
05:50 AM 39.2°F4.0°C 36.0°F2.2°C 88% 0.4 mph WSW0.6 kmh WSW 2.0 mph3.2 kmh 29.86 in1011.2 mb 0.04 in1.0 mm 0.00 in0.0 mm 0.15 in3.8 mm
05:51 AM 39.2°F4.0°C 36.0°F2.2°C 88% 0.4 mph WSW0.6 kmh WSW 2.0 mph3.2 kmh 29.86 in1011.2 mb 0.00 in0.0 mm 0.00 in0.0 mm 0.15 in3.8 mm
05:52 AM 39.2°F4.0°C 36.0°F2.2°C 88% 0.2 mph WSW0.3 kmh WSW 1.0 mph1.6 kmh 29.87 in1011.5 mb 0.00 in0.0 mm 0.00 in0.0 mm 0.15 in3.8 mm
05:53 AM 39.2°F4.0°C 36.0°F2.2°C 88% 0.1 mph WSW0.2 kmh WSW 1.0 mph1.6 kmh 29.87 in1011.5 mb 0.00 in0.0 mm 0.00 in0.0 mm 0.15 in3.8 mm
05:54 AM 39.2°F4.0°C 36.0°F2.2°C 88% Calm Calm 1.0 mph1.6 kmh 29.87 in1011.5 mb 0.00 in0.0 mm 0.00 in0.0 mm 0.15 in3.8 mm
05:55 AM 39.1°F3.9°C 36.0°F2.2°C 88% Calm Calm 1.0 mph1.6 kmh 29.87 in1011.5 mb 0.00 in0.0 mm 0.00 in0.0 mm 0.15 in3.8 mm
05:56 AM 39.1°F3.9°C 36.0°F2.2°C 88% Calm Calm -- 29.87 in1011.5 mb 0.00 in0.0 mm 0.00 in0.0 mm 0.15 in3.8 mm
05:57 AM 39.1°F3.9°C 36.0°F2.2°C 88% Calm Calm -- 29.87 in1011.5 mb 0.00 in0.0 mm 0.00 in0.0 mm 0.15 in3.8 mm
05:58 AM 39.0°F3.9°C 36.0°F2.2°C 88% Calm Calm -- 29.87 in1011.5 mb 0.00 in0.0 mm 0.00 in0.0 mm 0.15 in3.8 mm
05:59 AM 39.1°F3.9°C 36.0°F2.2°C 88% Calm Calm -- 29.87 in1011.5 mb 0.00 in0.0 mm 0.00 in0.0 mm 0.15 in3.8 mm
06:00 AM 39.1°F3.9°C 36.0°F2.2°C 88% Calm Calm -- 29.87 in1011.5 mb 0.00 in0.0 mm 0.00 in0.0 mm 0.15 in3.8 mm
06:01 AM 39.0°F3.9°C 36.0°F2.2°C 88% Calm Calm -- 29.87 in1011.5 mb 0.00 in0.0 mm 0.00 in0.0 mm 0.15 in3.8 mm
06:02 AM 39.0°F3.9°C 36.0°F2.2°C 88% Calm Calm -- 29.87 in1011.5 mb 0.00 in0.0 mm 0.00 in0.0 mm 0.15 in3.8 mm
06:03 AM 39.0°F3.9°C 36.0°F2.2°C 88% Calm Calm -- 29.87 in1011.5 mb 0.00 in0.0 mm 0.00 in0.0 mm 0.15 in3.8 mm
06:04 AM 39.0°F3.9°C 36.0°F2.2°C 88% Calm Calm -- 29.87 in1011.5 mb 0.00 in0.0 mm 0.00 in0.0 mm 0.15 in3.8 mm
06:05 AM 39.0°F3.9°C 36.0°F2.2°C 88% Calm Calm -- 29.87 in1011.5 mb 0.00 in0.0 mm 0.00 in0.0 mm 0.15 in3.8 mm
06:06 AM 39.0°F3.9°C 36.0°F2.2°C 88% Calm Calm -- 29.87 in1011.5 mb 0.00 in0.0 mm 0.00 in0.0 mm 0.15 in3.8 mm
06:07 AM 39.1°F3.9°C 36.0°F2.2°C 89% Calm Calm -- 29.87 in1011.5 mb 0.00 in0.0 mm 0.00 in0.0 mm 0.15 in3.8 mm
06:08 AM 39.0°F3.9°C 36.0°F2.2°C 89% Calm Calm -- 29.87 in1011.5 mb 0.00 in0.0 mm 0.00 in0.0 mm 0.15 in3.8 mm
06:09 AM 39.0°F3.9°C 36.0°F2.2°C 89% Calm Calm -- 29.87 in1011.5 mb 0.00 in0.0 mm 0.00 in0.0 mm 0.15 in3.8 mm
06:10 AM 39.0°F3.9°C 36.0°F2.2°C 89% Calm Calm -- 29.87 in1011.5 mb 0.00 in0.0 mm 0.00 in0.0 mm 0.15 in3.8 mm
06:11 AM 39.0°F3.9°C 36.0°F2.2°C 89% Calm Calm -- 29.87 in1011.5 mb 0.00 in0.0 mm 0.00 in0.0 mm 0.15 in3.8 mm
06:12 AM 39.0°F3.9°C 36.0°F2.2°C 89% Calm Calm -- 29.87 in1011.5 mb 0.00 in0.0 mm 0.00 in0.0 mm 0.15 in3.8 mm
06:13 AM 39.0°F3.9°C 36.0°F2.2°C 89% Calm Calm -- 29.87 in1011.5 mb 0.00 in0.0 mm 0.00 in0.0 mm 0.15 in3.8 mm
06:14 AM 39.0°F3.9°C 36.0°F2.2°C 89% Calm Calm -- 29.87 in1011.5 mb 0.00 in0.0 mm 0.00 in0.0 mm 0.15 in3.8 mm
06:15 AM 39.0°F3.9°C 36.0°F2.2°C 89% Calm Calm -- 29.87 in1011.5 mb 0.00 in0.0 mm 0.00 in0.0 mm 0.15 in3.8 mm
06:16 AM 38.9°F3.8°C 36.0°F2.2°C 89% Calm Calm -- 29.87 in1011.5 mb 0.00 in0.0 mm 0.00 in0.0 mm 0.15 in3.8 mm
06:17 AM 39.0°F3.9°C 36.0°F2.2°C 89% Calm Calm -- 29.87 in1011.5 mb 0.00 in0.0 mm 0.00 in0.0 mm 0.15 in3.8 mm
06:18 AM 38.9°F3.8°C 36.0°F2.2°C 89% Calm Calm 1.0 mph1.6 kmh 29.87 in1011.5 mb 0.00 in0.0 mm 0.00 in0.0 mm 0.15 in3.8 mm
06:19 AM 39.0°F3.9°C 36.0°F2.2°C 89% 0.1 mph SSW0.2 kmh SSW 3.0 mph4.8 kmh 29.87 in1011.5 mb 0.00 in0.0 mm 0.00 in0.0 mm 0.15 in3.8 mm
06:21 AM 39.0°F3.9°C 36.0°F2.2°C 89% 0.4 mph SW0.6 kmh SW 3.0 mph4.8 kmh 29.87 in1011.5 mb 0.00 in0.0 mm 0.00 in0.0 mm 0.15 in3.8 mm
06:22 AM 39.0°F3.9°C 36.0°F2.2°C 89% 0.5 mph SW0.8 kmh SW 3.0 mph4.8 kmh 29.87 in1011.5 mb 0.00 in0.0 mm 0.00 in0.0 mm 0.15 in3.8 mm
06:23 AM 39.1°F3.9°C 36.0°F2.2°C 89% 0.6 mph SW1.0 kmh SW 3.0 mph4.8 kmh 29.87 in1011.5 mb 0.00 in0.0 mm 0.00 in0.0 mm 0.15 in3.8 mm
06:24 AM 39.1°F3.9°C 36.0°F2.2°C 89% 0.7 mph SW1.1 kmh SW 3.0 mph4.8 kmh 29.87 in1011.5 mb 0.00 in0.0 mm 0.00 in0.0 mm 0.15 in3.8 mm
06:25 AM 39.1°F3.9°C 36.0°F2.2°C 89% 0.8 mph SW1.3 kmh SW 3.0 mph4.8 kmh 29.87 in1011.5 mb 0.00 in0.0 mm 0.00 in0.0 mm 0.15 in3.8 mm
06:26 AM 39.1°F3.9°C 36.0°F2.2°C 89% 0.9 mph SW1.4 kmh SW 3.0 mph4.8 kmh 29.87 in1011.5 mb 0.00 in0.0 mm 0.00 in0.0 mm 0.15 in3.8 mm
06:27 AM 39.1°F3.9°C 36.0°F2.2°C 89% 1.0 mph SSE1.6 kmh SSE 3.0 mph4.8 kmh 29.87 in1011.5 mb 0.00 in0.0 mm 0.00 in0.0 mm 0.15 in3.8 mm
06:28 AM 39.1°F3.9°C 36.0°F2.2°C 89% 1.1 mph SSE1.8 kmh SSE 3.0 mph4.8 kmh 29.87 in1011.5 mb 0.00 in0.0 mm 0.00 in0.0 mm 0.15 in3.8 mm
06:29 AM 39.0°F3.9°C 36.0°F2.2°C 89% 1.0 mph SSE1.6 kmh SSE 3.0 mph4.8 kmh 29.87 in1011.5 mb 0.00 in0.0 mm 0.00 in0.0 mm 0.15 in3.8 mm
06:30 AM 39.0°F3.9°C 36.0°F2.2°C 89% 0.8 mph SSE1.3 kmh SSE 3.0 mph4.8 kmh 29.87 in1011.5 mb 0.00 in0.0 mm 0.00 in0.0 mm 0.15 in3.8 mm
06:31 AM 39.0°F3.9°C 36.0°F2.2°C 89% 0.7 mph SSE1.1 kmh SSE 3.0 mph4.8 kmh 29.87 in1011.5 mb 0.00 in0.0 mm 0.00 in0.0 mm 0.15 in3.8 mm
06:32 AM 39.0°F3.9°C 36.0°F2.2°C 89% 0.6 mph SSE1.0 kmh SSE 3.0 mph4.8 kmh 29.87 in1011.5 mb 0.00 in0.0 mm 0.00 in0.0 mm 0.15 in3.8 mm
06:33 AM 39.0°F3.9°C 36.0°F2.2°C 89% 0.5 mph S0.8 kmh S 1.0 mph1.6 kmh 29.87 in1011.5 mb 0.00 in0.0 mm 0.00 in0.0 mm 0.15 in3.8 mm
06:34 AM 39.0°F3.9°C 36.0°F2.2°C 89% 0.4 mph SSE0.6 kmh SSE 1.0 mph1.6 kmh 29.87 in1011.5 mb 0.00 in0.0 mm 0.00 in0.0 mm 0.15 in3.8 mm
06:35 AM 38.9°F3.8°C 36.0°F2.2°C 89% 0.3 mph SSE0.5 kmh SSE 1.0 mph1.6 kmh 29.87 in1011.5 mb 0.00 in0.0 mm 0.00 in0.0 mm 0.15 in3.8 mm
06:36 AM 38.9°F3.8°C 36.0°F2.2°C 89% 0.2 mph SSE0.3 kmh SSE 1.0 mph1.6 kmh 29.87 in1011.5 mb 0.00 in0.0 mm 0.00 in0.0 mm 0.15 in3.8 mm
06:37 AM 38.9°F3.8°C 36.0°F2.2°C 89% 0.1 mph SSE0.2 kmh SSE 1.0 mph1.6 kmh 29.87 in1011.5 mb 0.00 in0.0 mm 0.00 in0.0 mm 0.15 in3.8 mm
06:38 AM 39.0°F3.9°C 36.0°F2.2°C 89% Calm Calm 1.0 mph1.6 kmh 29.87 in1011.5 mb 0.00 in0.0 mm 0.00 in0.0 mm 0.15 in3.8 mm
06:39 AM 39.0°F3.9°C 36.0°F2.2°C 89% Calm Calm 1.0 mph1.6 kmh 29.87 in1011.5 mb 0.00 in0.0 mm 0.00 in0.0 mm 0.15 in3.8 mm
06:40 AM 39.0°F3.9°C 36.0°F2.2°C 89% Calm Calm 1.0 mph1.6 kmh 29.87 in1011.5 mb 0.00 in0.0 mm 0.00 in0.0 mm 0.15 in3.8 mm
06:41 AM 39.0°F3.9°C 36.0°F2.2°C 89% Calm Calm 1.0 mph1.6 kmh 29.87 in1011.5 mb 0.00 in0.0 mm 0.00 in0.0 mm 0.15 in3.8 mm
06:42 AM 39.0°F3.9°C 36.0°F2.2°C 89% Calm Calm 1.0 mph1.6 kmh 29.87 in1011.5 mb 0.00 in0.0 mm 0.00 in0.0 mm 0.15 in3.8 mm
06:43 AM 38.9°F3.8°C 36.0°F2.2°C 89% Calm Calm -- 29.87 in1011.5 mb 0.00 in0.0 mm 0.00 in0.0 mm 0.15 in3.8 mm
06:44 AM 38.9°F3.8°C 36.0°F2.2°C 89% Calm Calm -- 29.87 in1011.5 mb 0.00 in0.0 mm 0.00 in0.0 mm 0.15 in3.8 mm
06:45 AM 38.9°F3.8°C 36.0°F2.2°C 89% Calm Calm -- 29.87 in1011.5 mb 0.00 in0.0 mm 0.00 in0.0 mm 0.15 in3.8 mm
06:46 AM 38.9°F3.8°C 36.0°F2.2°C 89% Calm Calm -- 29.87 in1011.5 mb 0.00 in0.0 mm 0.00 in0.0 mm 0.15 in3.8 mm
06:47 AM 38.8°F3.8°C 36.0°F2.2°C 89% Calm Calm -- 29.87 in1011.5 mb 0.00 in0.0 mm 0.00 in0.0 mm 0.15 in3.8 mm
06:48 AM 38.8°F3.8°C 36.0°F2.2°C 89% Calm Calm 1.0 mph1.6 kmh 29.87 in1011.5 mb 0.00 in0.0 mm 0.00 in0.0 mm 0.15 in3.8 mm
06:49 AM 38.8°F3.8°C 36.0°F2.2°C 89% Calm Calm 1.0 mph1.6 kmh 29.87 in1011.5 mb 0.00 in0.0 mm 0.00 in0.0 mm 0.15 in3.8 mm
06:50 AM 38.8°F3.8°C 36.0°F2.2°C 89% Calm Calm 1.0 mph1.6 kmh 29.87 in1011.5 mb 0.00 in0.0 mm 0.00 in0.0 mm 0.15 in3.8 mm
06:51 AM 38.8°F3.8°C 36.0°F2.2°C 89% Calm Calm 1.0 mph1.6 kmh 29.87 in1011.5 mb 0.00 in0.0 mm 0.00 in0.0 mm 0.15 in3.8 mm
06:52 AM 38.8°F3.8°C 36.0°F2.2°C 89% Calm Calm 1.0 mph1.6 kmh 29.87 in1011.5 mb 0.00 in0.0 mm 0.00 in0.0 mm 0.15 in3.8 mm
06:53 AM 38.8°F3.8°C 36.0°F2.2°C 89% Calm Calm 1.0 mph1.6 kmh 29.87 in1011.5 mb 0.00 in0.0 mm 0.00 in0.0 mm 0.15 in3.8 mm
06:54 AM 38.8°F3.8°C 36.0°F2.2°C 89% Calm Calm 1.0 mph1.6 kmh 29.87 in1011.5 mb 0.00 in0.0 mm 0.00 in0.0 mm 0.15 in3.8 mm
06:55 AM 38.8°F3.8°C 36.0°F2.2°C 89% Calm Calm 1.0 mph1.6 kmh 29.87 in1011.5 mb 0.00 in0.0 mm 0.00 in0.0 mm 0.15 in3.8 mm
06:56 AM 38.8°F3.8°C 36.0°F2.2°C 89% Calm Calm -- 29.87 in1011.5 mb 0.00 in0.0 mm 0.00 in0.0 mm 0.15 in3.8 mm
06:57 AM 38.8°F3.8°C 36.0°F2.2°C 89% Calm Calm -- 29.87 in1011.5 mb 0.00 in0.0 mm 0.00 in0.0 mm 0.15 in3.8 mm
06:58 AM 38.8°F3.8°C 36.0°F2.2°C 89% Calm Calm -- 29.87 in1011.5 mb 0.00 in0.0 mm 0.00 in0.0 mm 0.15 in3.8 mm
06:59 AM 38.8°F3.8°C 36.0°F2.2°C 90% Calm Calm -- 29.87 in1011.5 mb 0.00 in0.0 mm 0.00 in0.0 mm 0.15 in3.8 mm
07:00 AM 38.9°F3.8°C 36.0°F2.2°C 90% Calm Calm -- 29.87 in1011.5 mb 0.00 in0.0 mm 0.00 in0.0 mm 0.15 in3.8 mm
07:01 AM 38.8°F3.8°C 36.0°F2.2°C 90% Calm Calm -- 29.87 in1011.5 mb 0.00 in0.0 mm 0.00 in0.0 mm 0.15 in3.8 mm
07:02 AM 38.9°F3.8°C 36.0°F2.2°C 89% Calm Calm -- 29.87 in1011.5 mb 0.00 in0.0 mm 0.00 in0.0 mm 0.15 in3.8 mm
07:03 AM 38.9°F3.8°C 36.0°F2.2°C 90% Calm Calm -- 29.87 in1011.5 mb 0.00 in0.0 mm 0.00 in0.0 mm 0.15 in3.8 mm
07:04 AM 38.9°F3.8°C 36.0°F2.2°C 90% Calm Calm -- 29.87 in1011.5 mb 0.00 in0.0 mm 0.00 in0.0 mm 0.15 in3.8 mm
07:05 AM 38.9°F3.8°C 36.0°F2.2°C 89% Calm Calm -- 29.87 in1011.5 mb 0.00 in0.0 mm 0.00 in0.0 mm 0.15 in3.8 mm
07:06 AM 38.9°F3.8°C 36.0°F2.2°C 89% Calm Calm -- 29.87 in1011.5 mb 0.00 in0.0 mm 0.00 in0.0 mm 0.15 in3.8 mm
07:07 AM 38.9°F3.8°C 36.0°F2.2°C 89% Calm Calm -- 29.87 in1011.5 mb 0.00 in0.0 mm 0.00 in0.0 mm 0.15 in3.8 mm
07:08 AM 38.9°F3.8°C 36.0°F2.2°C 90% Calm Calm -- 29.88 in1011.9 mb 0.00 in0.0 mm 0.00 in0.0 mm 0.15 in3.8 mm
07:09 AM 38.9°F3.8°C 36.0°F2.2°C 90% Calm Calm -- 29.88 in1011.9 mb 0.00 in0.0 mm 0.00 in0.0 mm 0.15 in3.8 mm
07:10 AM 38.9°F3.8°C 36.0°F2.2°C 90% Calm Calm -- 29.88 in1011.9 mb 0.00 in0.0 mm 0.00 in0.0 mm 0.15 in3.8 mm
07:11 AM 38.9°F3.8°C 36.0°F2.2°C 90% Calm Calm -- 29.88 in1011.9 mb 0.00 in0.0 mm 0.00 in0.0 mm 0.15 in3.8 mm
07:12 AM 38.9°F3.8°C 36.0°F2.2°C 90% Calm Calm -- 29.88 in1011.9 mb 0.00 in0.0 mm 0.00 in0.0 mm 0.15 in3.8 mm
07:13 AM 38.9°F3.8°C -1.0°F-18.3°C 90% - ENE ENE -- 29.88 in1011.9 mb 0.00 in0.0 mm 0.00 in0.0 mm 0.15 in3.8 mm
07:14 AM 38.9°F3.8°C 36.0°F2.2°C 89% Calm Calm -- 29.88 in1011.9 mb 0.00 in0.0 mm 0.00 in0.0 mm 0.15 in3.8 mm
07:15 AM 38.9°F3.8°C 36.0°F2.2°C 89% Calm Calm -- 29.88 in1011.9 mb 0.00 in0.0 mm 0.00 in0.0 mm 0.15 in3.8 mm
07:16 AM 39.0°F3.9°C 36.0°F2.2°C 90% Calm Calm -- 29.88 in1011.9 mb 0.00 in0.0 mm 0.00 in0.0 mm 0.15 in3.8 mm
07:17 AM 39.0°F3.9°C 36.0°F2.2°C 90% Calm Calm -- 29.88 in1011.9 mb 0.00 in0.0 mm 0.00 in0.0 mm 0.15 in3.8 mm
07:18 AM 39.0°F3.9°C 36.0°F2.2°C 90% Calm Calm -- 29.88 in1011.9 mb 0.00 in0.0 mm 0.00 in0.0 mm 0.15 in3.8 mm
07:19 AM 39.0°F3.9°C 36.0°F2.2°C 90% Calm Calm -- 29.88 in1011.9 mb 0.00 in0.0 mm 0.00 in0.0 mm 0.15 in3.8 mm
07:20 AM 39.0°F3.9°C 36.0°F2.2°C 90% Calm Calm -- 29.89 in1012.2 mb 0.00 in0.0 mm 0.00 in0.0 mm 0.15 in3.8 mm
07:21 AM 39.1°F3.9°C 37.0°F2.8°C 90% Calm Calm -- 29.89 in1012.2 mb 0.00 in0.0 mm 0.00 in0.0 mm 0.15 in3.8 mm
07:22 AM 39.1°F3.9°C 37.0°F2.8°C 90% Calm Calm -- 29.89 in1012.2 mb 0.00 in0.0 mm 0.00 in0.0 mm 0.15 in3.8 mm
07:23 AM 39.0°F3.9°C 36.0°F2.2°C 89% Calm Calm -- 29.89 in1012.2 mb 0.00 in0.0 mm 0.00 in0.0 mm 0.15 in3.8 mm
07:24 AM 39.0°F3.9°C 36.0°F2.2°C 89% Calm Calm -- 29.89 in1012.2 mb 0.00 in0.0 mm 0.00 in0.0 mm 0.15 in3.8 mm
07:25 AM 39.1°F3.9°C 37.0°F2.8°C 90% Calm Calm 1.0 mph1.6 kmh 29.89 in1012.2 mb 0.00 in0.0 mm 0.00 in0.0 mm 0.15 in3.8 mm
07:26 AM 39.1°F3.9°C 36.0°F2.2°C 89% 0.1 mph NE0.2 kmh NE 2.0 mph3.2 kmh 29.89 in1012.2 mb 0.00 in0.0 mm 0.00 in0.0 mm 0.15 in3.8 mm
07:27 AM 39.1°F3.9°C 36.0°F2.2°C 89% 0.3 mph NE0.5 kmh NE 3.0 mph4.8 kmh 29.89 in1012.2 mb 0.00 in0.0 mm 0.00 in0.0 mm 0.15 in3.8 mm
07:28 AM 39.1°F3.9°C 36.0°F2.2°C 89% 0.5 mph NE0.8 kmh NE 3.0 mph4.8 kmh 29.89 in1012.2 mb 0.00 in0.0 mm 0.00 in0.0 mm 0.15 in3.8 mm
07:29 AM 39.1°F3.9°C 36.0°F2.2°C 89% 0.7 mph NE1.1 kmh NE 3.0 mph4.8 kmh 29.90 in1012.5 mb 0.00 in0.0 mm 0.00 in0.0 mm 0.15 in3.8 mm
07:30 AM 39.1°F3.9°C 36.0°F2.2°C 89% 0.8 mph NNE1.3 kmh NNE 3.0 mph4.8 kmh 29.90 in1012.5 mb 0.00 in0.0 mm 0.00 in0.0 mm 0.15 in3.8 mm
07:31 AM 39.1°F3.9°C 36.0°F2.2°C 89% 0.9 mph NNE1.4 kmh NNE 3.0 mph4.8 kmh 29.90 in1012.5 mb 0.00 in0.0 mm 0.00 in0.0 mm 0.15 in3.8 mm
07:32 AM 39.2°F4.0°C 36.0°F2.2°C 89% 1.0 mph NE1.6 kmh NE 3.0 mph4.8 kmh 29.90 in1012.5 mb 0.00 in0.0 mm 0.00 in0.0 mm 0.15 in3.8 mm
07:33 AM 39.2°F4.0°C 36.0°F2.2°C 89% 1.1 mph ENE1.8 kmh ENE 3.0 mph4.8 kmh 29.90 in1012.5 mb 0.00 in0.0 mm 0.00 in0.0 mm 0.15 in3.8 mm
07:34 AM 39.2°F4.0°C 36.0°F2.2°C 89% 1.1 mph ENE1.8 kmh ENE 3.0 mph4.8 kmh 29.90 in1012.5 mb 0.00 in0.0 mm 0.00 in0.0 mm 0.15 in3.8 mm
07:35 AM 39.3°F4.1°C 37.0°F2.8°C 90% 1.2 mph ENE1.9 kmh ENE 3.0 mph4.8 kmh 29.90 in1012.5 mb 0.00 in0.0 mm 0.00 in0.0 mm 0.15 in3.8 mm
07:36 AM 39.2°F4.0°C 36.0°F2.2°C 89% 1.1 mph ENE1.8 kmh ENE 3.0 mph4.8 kmh 29.90 in1012.5 mb 0.00 in0.0 mm 0.00 in0.0 mm 0.15 in3.8 mm
07:37 AM 39.2°F4.0°C 36.0°F2.2°C 89% 0.9 mph ENE1.4 kmh ENE 3.0 mph4.8 kmh 29.90 in1012.5 mb 0.00 in0.0 mm 0.00 in0.0 mm 0.15 in3.8 mm
07:38 AM 39.3°F4.1°C 36.0°F2.2°C 89% 0.7 mph ENE1.1 kmh ENE 3.0 mph4.8 kmh 29.90 in1012.5 mb 0.00 in0.0 mm 0.00 in0.0 mm 0.15 in3.8 mm
07:39 AM 39.3°F4.1°C 36.0°F2.2°C 89% 0.5 mph ENE0.8 kmh ENE 3.0 mph4.8 kmh 29.90 in1012.5 mb 0.00 in0.0 mm 0.00 in0.0 mm 0.15 in3.8 mm
07:40 AM 39.2°F4.0°C 36.0°F2.2°C 89% 0.4 mph ENE0.6 kmh ENE 3.0 mph4.8 kmh 29.91 in1012.9 mb 0.00 in0.0 mm 0.00 in0.0 mm 0.15 in3.8 mm
07:41 AM 39.3°F4.1°C 36.0°F2.2°C 89% 0.3 mph ENE0.5 kmh ENE 3.0 mph4.8 kmh 29.91 in1012.9 mb 0.00 in0.0 mm 0.00 in0.0 mm 0.15 in3.8 mm
07:42 AM 39.2°F4.0°C 36.0°F2.2°C 89% 0.2 mph ENE0.3 kmh ENE 2.0 mph3.2 kmh 29.90 in1012.5 mb 0.00 in0.0 mm 0.00 in0.0 mm 0.15 in3.8 mm
07:43 AM 39.3°F4.1°C 36.0°F2.2°C 89% 0.2 mph ENE0.3 kmh ENE 2.0 mph3.2 kmh 29.90 in1012.5 mb 0.00 in0.0 mm 0.00 in0.0 mm 0.15 in3.8 mm
07:44 AM 39.3°F4.1°C 36.0°F2.2°C 89% 0.1 mph ENE0.2 kmh ENE 1.0 mph1.6 kmh 29.91 in1012.9 mb 0.00 in0.0 mm 0.00 in0.0 mm 0.15 in3.8 mm
07:45 AM 39.2°F4.0°C 37.0°F2.8°C 90% 0.1 mph ENE0.2 kmh ENE 1.0 mph1.6 kmh 29.91 in1012.9 mb 0.00 in0.0 mm 0.00 in0.0 mm 0.15 in3.8 mm
07:46 AM 39.3°F4.1°C 37.0°F2.8°C 90% Calm Calm 1.0 mph1.6 kmh 29.91 in1012.9 mb 0.00 in0.0 mm 0.00 in0.0 mm 0.15 in3.8 mm
07:47 AM 39.3°F4.1°C 37.0°F2.8°C 90% 0.1 mph ENE0.2 kmh ENE 1.0 mph1.6 kmh 29.91 in1012.9 mb 0.00 in0.0 mm 0.00 in0.0 mm 0.15 in3.8 mm
07:48 AM 39.3°F4.1°C 37.0°F2.8°C 90% 0.2 mph SW0.3 kmh SW 1.0 mph1.6 kmh 29.91 in1012.9 mb 0.00 in0.0 mm 0.00 in0.0 mm 0.15 in3.8 mm
07:49 AM 39.3°F4.1°C 37.0°F2.8°C 90% 0.3 mph WSW0.5 kmh WSW 1.0 mph1.6 kmh 29.91 in1012.9 mb 0.00 in0.0 mm 0.00 in0.0 mm 0.15 in3.8 mm
07:50 AM 39.3°F4.1°C 37.0°F2.8°C 90% 0.4 mph SW0.6 kmh SW 2.0 mph3.2 kmh 29.91 in1012.9 mb 0.00 in0.0 mm 0.00 in0.0 mm 0.15 in3.8 mm
07:51 AM 39.4°F4.1°C 37.0°F2.8°C 90% 0.6 mph SW1.0 kmh SW 2.0 mph3.2 kmh 29.91 in1012.9 mb 0.00 in0.0 mm 0.00 in0.0 mm 0.15 in3.8 mm
07:52 AM 39.4°F4.1°C 37.0°F2.8°C 90% 0.7 mph WSW1.1 kmh WSW 2.0 mph3.2 kmh 29.91 in1012.9 mb 0.00 in0.0 mm 0.00 in0.0 mm 0.15 in3.8 mm
07:53 AM 39.4°F4.1°C 37.0°F2.8°C 90% 0.9 mph WSW1.4 kmh WSW 2.0 mph3.2 kmh 29.91 in1012.9 mb 0.00 in0.0 mm 0.00 in0.0 mm 0.15 in3.8 mm
07:54 AM 39.4°F4.1°C 37.0°F2.8°C 90% 1.1 mph WSW1.8 kmh WSW 3.0 mph4.8 kmh 29.91 in1012.9 mb 0.00 in0.0 mm 0.00 in0.0 mm 0.15 in3.8 mm
07:55 AM 39.4°F4.1°C 37.0°F2.8°C 90% 1.4 mph WSW2.3 kmh WSW 4.0 mph6.4 kmh 29.91 in1012.9 mb 0.00 in0.0 mm 0.00 in0.0 mm 0.15 in3.8 mm
07:56 AM 39.5°F4.2°C 37.0°F2.8°C 90% 1.7 mph W2.7 kmh W 4.0 mph6.4 kmh 29.91 in1012.9 mb 0.00 in0.0 mm 0.00 in0.0 mm 0.15 in3.8 mm
07:57 AM 39.6°F4.2°C 37.0°F2.8°C 90% 1.9 mph W3.1 kmh W 5.0 mph8.0 kmh 29.91 in1012.9 mb 0.00 in0.0 mm 0.00 in0.0 mm 0.15 in3.8 mm
07:58 AM 39.6°F4.2°C 37.0°F2.8°C 89% 2.1 mph W3.4 kmh W 5.0 mph8.0 kmh 29.91 in1012.9 mb 0.00 in0.0 mm 0.00 in0.0 mm 0.15 in3.8 mm
07:59 AM 39.7°F4.3°C 37.0°F2.8°C 88% 2.3 mph WNW3.7 kmh WNW 5.0 mph8.0 kmh 29.91 in1012.9 mb 0.00 in0.0 mm 0.00 in0.0 mm 0.15 in3.8 mm
08:00 AM 39.9°F4.4°C 36.0°F2.2°C 87% 2.6 mph W4.2 kmh W 6.0 mph9.7 kmh 29.91 in1012.9 mb 0.00 in0.0 mm 0.00 in0.0 mm 0.15 in3.8 mm
08:01 AM 40.0°F4.4°C 36.0°F2.2°C 85% 2.8 mph W4.5 kmh W 6.0 mph9.7 kmh 29.91 in1012.9 mb 0.00 in0.0 mm 0.00 in0.0 mm 0.15 in3.8 mm
08:02 AM 40.2°F4.6°C 36.0°F2.2°C 84% 3.2 mph W5.1 kmh W 7.0 mph11.3 kmh 29.91 in1012.9 mb 0.00 in0.0 mm 0.00 in0.0 mm 0.15 in3.8 mm
08:03 AM 40.3°F4.6°C 36.0°F2.2°C 83% 3.3 mph WSW5.3 kmh WSW 7.0 mph11.3 kmh 29.91 in1012.9 mb 0.00 in0.0 mm 0.00 in0.0 mm 0.15 in3.8 mm
08:04 AM 40.5°F4.7°C 36.0°F2.2°C 83% 3.6 mph W5.8 kmh W 8.0 mph12.9 kmh 29.91 in1012.9 mb 0.00 in0.0 mm 0.00 in0.0 mm 0.15 in3.8 mm
08:05 AM 40.6°F4.8°C 36.0°F2.2°C 82% 3.6 mph W5.8 kmh W 8.0 mph12.9 kmh 29.91 in1012.9 mb 0.00 in0.0 mm 0.00 in0.0 mm 0.15 in3.8 mm
08:06 AM 40.6°F4.8°C 36.0°F2.2°C 82% 3.5 mph W5.6 kmh W 8.0 mph12.9 kmh 29.91 in1012.9 mb 0.00 in0.0 mm 0.00 in0.0 mm 0.15 in3.8 mm
08:07 AM 40.7°F4.8°C 36.0°F2.2°C 82% 3.3 mph NW5.3 kmh NW 8.0 mph12.9 kmh 29.91 in1012.9 mb 0.00 in0.0 mm 0.00 in0.0 mm 0.15 in3.8 mm
08:08 AM 40.7°F4.8°C 36.0°F2.2°C 82% 3.1 mph WNW5.0 kmh WNW 8.0 mph12.9 kmh 29.91 in1012.9 mb 0.00 in0.0 mm 0.00 in0.0 mm 0.15 in3.8 mm
08:09 AM 40.7°F4.8°C 36.0°F2.2°C 82% 3.0 mph WNW4.8 kmh WNW 8.0 mph12.9 kmh 29.91 in1012.9 mb 0.00 in0.0 mm 0.00 in0.0 mm 0.15 in3.8 mm
08:10 AM 40.7°F4.8°C 35.0°F1.7°C 81% 2.9 mph NW4.7 kmh NW 8.0 mph12.9 kmh 29.91 in1012.9 mb 0.00 in0.0 mm 0.00 in0.0 mm 0.15 in3.8 mm
08:11 AM 40.8°F4.9°C 35.0°F1.7°C 81% 2.8 mph NW4.5 kmh NW 8.0 mph12.9 kmh 29.91 in1012.9 mb 0.00 in0.0 mm 0.00 in0.0 mm 0.15 in3.8 mm
08:12 AM 40.9°F4.9°C 36.0°F2.2°C 81% 2.7 mph W4.3 kmh W 8.0 mph12.9 kmh 29.91 in1012.9 mb 0.00 in0.0 mm 0.00 in0.0 mm 0.15 in3.8 mm
08:13 AM 40.9°F4.9°C 36.0°F2.2°C 81% 2.5 mph NW4.0 kmh NW 6.0 mph9.7 kmh 29.91 in1012.9 mb 0.00 in0.0 mm 0.00 in0.0 mm 0.15 in3.8 mm
08:15 AM 40.9°F4.9°C 36.0°F2.2°C 81% 2.2 mph WNW3.5 kmh WNW 6.0 mph9.7 kmh 29.91 in1012.9 mb 0.00 in0.0 mm 0.00 in0.0 mm 0.15 in3.8 mm
08:16 AM 41.0°F5.0°C 35.0°F1.7°C 80% 2.4 mph WNW3.9 kmh WNW 7.0 mph11.3 kmh 29.91 in1012.9 mb 0.00 in0.0 mm 0.00 in0.0 mm 0.15 in3.8 mm
08:17 AM 41.1°F5.1°C 35.0°F1.7°C 80% 2.5 mph N4.0 kmh N 7.0 mph11.3 kmh 29.91 in1012.9 mb 0.00 in0.0 mm 0.00 in0.0 mm 0.15 in3.8 mm
08:18 AM 41.0°F5.0°C 35.0°F1.7°C 80% 2.7 mph NW4.3 kmh NW 7.0 mph11.3 kmh 29.92 in1013.2 mb 0.00 in0.0 mm 0.00 in0.0 mm 0.15 in3.8 mm
08:19 AM 41.0°F5.0°C 35.0°F1.7°C 80% 2.8 mph WSW4.5 kmh WSW 7.0 mph11.3 kmh 29.92 in1013.2 mb 0.00 in0.0 mm 0.00 in0.0 mm 0.15 in3.8 mm
08:20 AM 41.1°F5.1°C 35.0°F1.7°C 80% 2.8 mph W4.5 kmh W 7.0 mph11.3 kmh 29.92 in1013.2 mb 0.00 in0.0 mm 0.00 in0.0 mm 0.15 in3.8 mm
08:21 AM 41.0°F5.0°C 35.0°F1.7°C 80% 2.9 mph W4.7 kmh W 7.0 mph11.3 kmh 29.92 in1013.2 mb 0.00 in0.0 mm 0.00 in0.0 mm 0.15 in3.8 mm
08:22 AM 41.1°F5.1°C 35.0°F1.7°C 80% 3.0 mph WNW4.8 kmh WNW 7.0 mph11.3 kmh 29.92 in1013.2 mb 0.00 in0.0 mm 0.00 in0.0 mm 0.15 in3.8 mm
08:23 AM 41.1°F5.1°C 35.0°F1.7°C 79% 3.3 mph W5.3 kmh W 7.0 mph11.3 kmh 29.92 in1013.2 mb 0.00 in0.0 mm 0.00 in0.0 mm 0.15 in3.8 mm
08:24 AM 41.1°F5.1°C 35.0°F1.7°C 79% 3.4 mph NW5.5 kmh NW 7.0 mph11.3 kmh 29.92 in1013.2 mb 0.00 in0.0 mm 0.00 in0.0 mm 0.15 in3.8 mm
08:25 AM 41.2°F5.1°C 35.0°F1.7°C 79% 3.4 mph WNW5.5 kmh WNW 7.0 mph11.3 kmh 29.92 in1013.2 mb 0.00 in0.0 mm 0.00 in0.0 mm 0.15 in3.8 mm
08:26 AM 41.2°F5.1°C 35.0°F1.7°C 79% 3.4 mph WNW5.5 kmh WNW 7.0 mph11.3 kmh 29.92 in1013.2 mb 0.00 in0.0 mm 0.00 in0.0 mm 0.15 in3.8 mm
08:27 AM 41.2°F5.1°C 35.0°F1.7°C 79% 3.5 mph WNW5.6 kmh WNW 7.0 mph11.3 kmh 29.92 in1013.2 mb 0.00 in0.0 mm 0.00 in0.0 mm 0.15 in3.8 mm
08:28 AM 41.2°F5.1°C 35.0°F1.7°C 79% 3.3 mph WNW5.3 kmh WNW 7.0 mph11.3 kmh 29.92 in1013.2 mb 0.00 in0.0 mm 0.00 in0.0 mm 0.15 in3.8 mm
08:29 AM 41.2°F5.1°C 36.0°F2.2°C 80% 3.5 mph NW5.6 kmh NW 7.0 mph11.3 kmh 29.92 in1013.2 mb 0.00 in0.0 mm 0.00 in0.0 mm 0.15 in3.8 mm
08:30 AM 41.1°F5.1°C 35.0°F1.7°C 79% 3.7 mph W6.0 kmh W 7.0 mph11.3 kmh 29.92 in1013.2 mb 0.00 in0.0 mm 0.00 in0.0 mm 0.15 in3.8 mm
08:31 AM 41.1°F5.1°C 35.0°F1.7°C 79% 3.8 mph WNW6.1 kmh WNW 7.0 mph11.3 kmh 29.92 in1013.2 mb 0.00 in0.0 mm 0.00 in0.0 mm 0.15 in3.8 mm
08:32 AM 41.1°F5.1°C 35.0°F1.7°C 79% 3.5 mph WNW5.6 kmh WNW 7.0 mph11.3 kmh 29.93 in1013.5 mb 0.00 in0.0 mm 0.00 in0.0 mm 0.15 in3.8 mm
08:33 AM 41.1°F5.1°C 35.0°F1.7°C 80% 3.3 mph WNW5.3 kmh WNW 7.0 mph11.3 kmh 29.93 in1013.5 mb 0.00 in0.0 mm 0.00 in0.0 mm 0.15 in3.8 mm
08:34 AM 41.1°F5.1°C 35.0°F1.7°C 80% 3.3 mph WSW5.3 kmh WSW 7.0 mph11.3 kmh 29.93 in1013.5 mb 0.00 in0.0 mm 0.00 in0.0 mm 0.15 in3.8 mm
08:35 AM 41.0°F5.0°C 35.0°F1.7°C 80% 3.2 mph WSW5.1 kmh WSW 7.0 mph11.3 kmh 29.93 in1013.5 mb 0.00 in0.0 mm 0.00 in0.0 mm 0.15 in3.8 mm
08:36 AM 41.0°F5.0°C 35.0°F1.7°C 80% 3.2 mph NW5.1 kmh NW 7.0 mph11.3 kmh 29.93 in1013.5 mb 0.00 in0.0 mm 0.00 in0.0 mm 0.15 in3.8 mm
08:37 AM 41.0°F5.0°C 35.0°F1.7°C 80% 3.2 mph NW5.1 kmh NW 7.0 mph11.3 kmh 29.93 in1013.5 mb 0.00 in0.0 mm 0.00 in0.0 mm 0.15 in3.8 mm
08:38 AM 41.0°F5.0°C 35.0°F1.7°C 80% 3.3 mph W5.3 kmh W 7.0 mph11.3 kmh 29.93 in1013.5 mb 0.00 in0.0 mm 0.00 in0.0 mm 0.15 in3.8 mm
08:39 AM 41.0°F5.0°C 35.0°F1.7°C 80% 3.1 mph W5.0 kmh W 7.0 mph11.3 kmh 29.93 in1013.5 mb 0.00 in0.0 mm 0.00 in0.0 mm 0.15 in3.8 mm
08:40 AM 41.0°F5.0°C 35.0°F1.7°C 80% 2.8 mph W4.5 kmh W 7.0 mph11.3 kmh 29.93 in1013.5 mb 0.00 in0.0 mm 0.00 in0.0 mm 0.15 in3.8 mm
08:41 AM 41.1°F5.1°C 35.0°F1.7°C 80% 2.6 mph WSW4.2 kmh WSW 7.0 mph11.3 kmh 29.93 in1013.5 mb 0.00 in0.0 mm 0.00 in0.0 mm 0.15 in3.8 mm
08:42 AM 41.1°F5.1°C 35.0°F1.7°C 80% 2.7 mph WNW4.3 kmh WNW 7.0 mph11.3 kmh 29.93 in1013.5 mb 0.00 in0.0 mm 0.00 in0.0 mm 0.15 in3.8 mm
08:43 AM 41.2°F5.1°C 36.0°F2.2°C 80% 2.7 mph WSW4.3 kmh WSW 7.0 mph11.3 kmh 29.93 in1013.5 mb 0.00 in0.0 mm 0.00 in0.0 mm 0.15 in3.8 mm
08:44 AM 41.3°F5.2°C 36.0°F2.2°C 80% 2.6 mph W4.2 kmh W 7.0 mph11.3 kmh 29.93 in1013.5 mb 0.00 in0.0 mm 0.00 in0.0 mm 0.15 in3.8 mm
08:45 AM 41.4°F5.2°C 36.0°F2.2°C 80% 2.7 mph WSW4.3 kmh WSW 7.0 mph11.3 kmh 29.93 in1013.5 mb 0.00 in0.0 mm 0.00 in0.0 mm 0.15 in3.8 mm
08:46 AM 41.5°F5.3°C 36.0°F2.2°C 80% 2.6 mph W4.2 kmh W 5.0 mph8.0 kmh 29.93 in1013.5 mb 0.00 in0.0 mm 0.00 in0.0 mm 0.15 in3.8 mm
08:47 AM 41.6°F5.3°C 36.0°F2.2°C 80% 2.6 mph WNW4.2 kmh WNW 5.0 mph8.0 kmh 29.93 in1013.5 mb 0.00 in0.0 mm 0.00 in0.0 mm 0.15 in3.8 mm
08:48 AM 41.6°F5.3°C 36.0°F2.2°C 80% 2.7 mph WNW4.3 kmh WNW 5.0 mph8.0 kmh 29.93 in1013.5 mb 0.00 in0.0 mm 0.00 in0.0 mm 0.15 in3.8 mm
08:49 AM 41.8°F5.4°C 36.0°F2.2°C 80% 2.7 mph W4.3 kmh W 5.0 mph8.0 kmh 29.93 in1013.5 mb 0.00 in0.0 mm 0.00 in0.0 mm 0.15 in3.8 mm
08:50 AM 41.9°F5.5°C 36.0°F2.2°C 80% 2.9 mph NW4.7 kmh NW 7.0 mph11.3 kmh 29.93 in1013.5 mb 0.00 in0.0 mm 0.00 in0.0 mm 0.15 in3.8 mm
08:51 AM 42.0°F5.6°C 36.0°F2.2°C 80% 3.0 mph WSW4.8 kmh WSW 7.0 mph11.3 kmh 29.93 in1013.5 mb 0.00 in0.0 mm 0.00 in0.0 mm 0.15 in3.8 mm
08:52 AM 42.1°F5.6°C 36.0°F2.2°C 79% 3.1 mph WSW5.0 kmh WSW 7.0 mph11.3 kmh 29.93 in1013.5 mb 0.00 in0.0 mm 0.00 in0.0 mm 0.15 in3.8 mm
08:53 AM 42.2°F5.7°C 36.0°F2.2°C 79% 3.2 mph WSW5.1 kmh WSW 7.0 mph11.3 kmh 29.93 in1013.5 mb 0.00 in0.0 mm 0.00 in0.0 mm 0.15 in3.8 mm
08:54 AM 42.3°F5.7°C 36.0°F2.2°C 79% 3.5 mph W5.6 kmh W 8.0 mph12.9 kmh 29.93 in1013.5 mb 0.00 in0.0 mm 0.00 in0.0 mm 0.15 in3.8 mm
08:55 AM 42.4°F5.8°C 36.0°F2.2°C 78% 3.8 mph W6.1 kmh W 8.0 mph12.9 kmh 29.93 in1013.5 mb 0.00 in0.0 mm 0.00 in0.0 mm 0.15 in3.8 mm
08:56 AM 42.4°F5.8°C 36.0°F2.2°C 77% 4.0 mph WSW6.4 kmh WSW 8.0 mph12.9 kmh 29.93 in1013.5 mb 0.00 in0.0 mm 0.00 in0.0 mm 0.15 in3.8 mm
08:57 AM 42.5°F5.8°C 36.0°F2.2°C 78% 4.2 mph WNW6.8 kmh WNW 9.0 mph14.5 kmh 29.93 in1013.5 mb 0.00 in0.0 mm 0.00 in0.0 mm 0.15 in3.8 mm
08:58 AM 42.6°F5.9°C 36.0°F2.2°C 77% 4.5 mph WNW7.2 kmh WNW 10.0 mph16.1 kmh 29.93 in1013.5 mb 0.00 in0.0 mm 0.00 in0.0 mm 0.15 in3.8 mm
08:59 AM 42.7°F5.9°C 36.0°F2.2°C 77% 4.8 mph SW7.7 kmh SW 10.0 mph16.1 kmh 29.93 in1013.5 mb 0.00 in0.0 mm 0.00 in0.0 mm 0.15 in3.8 mm
09:00 AM 42.7°F5.9°C 36.0°F2.2°C 77% 4.9 mph W7.9 kmh W 10.0 mph16.1 kmh 29.93 in1013.5 mb 0.00 in0.0 mm 0.00 in0.0 mm 0.15 in3.8 mm
09:01 AM 42.8°F6.0°C 36.0°F2.2°C 77% 5.2 mph WSW8.4 kmh WSW 11.0 mph17.7 kmh 29.93 in1013.5 mb 0.00 in0.0 mm 0.00 in0.0 mm 0.15 in3.8 mm
09:02 AM 42.8°F6.0°C 36.0°F2.2°C 76% 5.5 mph SSW8.9 kmh SSW 11.0 mph17.7 kmh 29.93 in1013.5 mb 0.00 in0.0 mm 0.00 in0.0 mm 0.15 in3.8 mm
09:03 AM 42.9°F6.1°C 36.0°F2.2°C 76% 6.0 mph WNW9.7 kmh WNW 11.0 mph17.7 kmh 29.93 in1013.5 mb 0.00 in0.0 mm 0.00 in0.0 mm 0.15 in3.8 mm
09:04 AM 42.9°F6.1°C 36.0°F2.2°C 76% 6.1 mph WSW9.8 kmh WSW 11.0 mph17.7 kmh 29.93 in1013.5 mb 0.00 in0.0 mm 0.00 in0.0 mm 0.15 in3.8 mm
09:05 AM 43.1°F6.2°C 36.0°F2.2°C 77% 6.0 mph W9.7 kmh W 11.0 mph17.7 kmh 29.93 in1013.5 mb 0.00 in0.0 mm 0.00 in0.0 mm 0.15 in3.8 mm
09:06 AM 43.1°F6.2°C 36.0°F2.2°C 76% 6.2 mph SW10.0 kmh SW 11.0 mph17.7 kmh 29.93 in1013.5 mb 0.00 in0.0 mm 0.00 in0.0 mm 0.15 in3.8 mm
09:07 AM 43.2°F6.2°C 36.0°F2.2°C 77% 6.4 mph WNW10.3 kmh WNW 11.0 mph17.7 kmh 29.93 in1013.5 mb 0.00 in0.0 mm 0.00 in0.0 mm 0.15 in3.8 mm
09:08 AM 43.3°F6.3°C 36.0°F2.2°C 76% 6.6 mph WSW10.6 kmh WSW 11.0 mph17.7 kmh 29.93 in1013.5 mb 0.00 in0.0 mm 0.00 in0.0 mm 0.15 in3.8 mm
09:09 AM 43.4°F6.3°C 36.0°F2.2°C 75% 6.5 mph WSW10.5 kmh WSW 11.0 mph17.7 kmh 29.93 in1013.5 mb 0.00 in0.0 mm 0.00 in0.0 mm 0.15 in3.8 mm
09:10 AM 43.4°F6.3°C 37.0°F2.8°C 77% 6.6 mph WSW10.6 kmh WSW 11.0 mph17.7 kmh 29.93 in1013.5 mb 0.00 in0.0 mm 0.00 in0.0 mm 0.15 in3.8 mm
09:11 AM 43.5°F6.4°C 36.0°F2.2°C 76% 6.6 mph WNW10.6 kmh WNW 11.0 mph17.7 kmh 29.93 in1013.5 mb 0.00 in0.0 mm 0.00 in0.0 mm 0.15 in3.8 mm
09:12 AM 43.6°F6.4°C 37.0°F2.8°C 76% 6.4 mph W10.3 kmh W 11.0 mph17.7 kmh 29.93 in1013.5 mb 0.00 in0.0 mm 0.00 in0.0 mm 0.15 in3.8 mm
09:13 AM 43.7°F6.5°C 37.0°F2.8°C 76% 6.2 mph WSW10.0 kmh WSW 12.0 mph19.3 kmh 29.93 in1013.5 mb 0.00 in0.0 mm 0.00 in0.0 mm 0.15 in3.8 mm
09:14 AM 43.8°F6.6°C 36.0°F2.2°C 74% 6.2 mph W10.0 kmh W 12.0 mph19.3 kmh 29.93 in1013.5 mb 0.00 in0.0 mm 0.00 in0.0 mm 0.15 in3.8 mm
09:15 AM 43.9°F6.6°C 36.0°F2.2°C 73% 6.5 mph WNW10.5 kmh WNW 12.0 mph19.3 kmh 29.93 in1013.5 mb 0.00 in0.0 mm 0.00 in0.0 mm 0.15 in3.8 mm
09:16 AM 43.9°F6.6°C 35.0°F1.7°C 72% 6.4 mph W10.3 kmh W 12.0 mph19.3 kmh 29.93 in1013.5 mb 0.00 in0.0 mm 0.00 in0.0 mm 0.15 in3.8 mm
09:17 AM 44.0°F6.7°C 35.0°F1.7°C 71% 6.7 mph WNW10.8 kmh WNW 12.0 mph19.3 kmh 29.93 in1013.5 mb 0.00 in0.0 mm 0.00 in0.0 mm 0.15 in3.8 mm
09:18 AM 44.0°F6.7°C 35.0°F1.7°C 71% 6.7 mph W10.8 kmh W 12.0 mph19.3 kmh 29.93 in1013.5 mb 0.00 in0.0 mm 0.00 in0.0 mm 0.15 in3.8 mm
09:19 AM 44.1°F6.7°C 36.0°F2.2°C 72% 6.7 mph NW10.8 kmh NW 12.0 mph19.3 kmh 29.94 in1013.9 mb 0.00 in0.0 mm 0.00 in0.0 mm 0.15 in3.8 mm
09:20 AM 44.2°F6.8°C 36.0°F2.2°C 72% 6.5 mph WSW10.5 kmh WSW 12.0 mph19.3 kmh 29.94 in1013.9 mb 0.00 in0.0 mm 0.00 in0.0 mm 0.15 in3.8 mm
09:21 AM 44.3°F6.8°C 36.0°F2.2°C 73% 6.1 mph W9.8 kmh W 12.0 mph19.3 kmh 29.94 in1013.9 mb 0.00 in0.0 mm 0.00 in0.0 mm 0.15 in3.8 mm
09:22 AM 44.4°F6.9°C 36.0°F2.2°C 73% 6.2 mph WSW10.0 kmh WSW 12.0 mph19.3 kmh 29.94 in1013.9 mb 0.00 in0.0 mm 0.00 in0.0 mm 0.15 in3.8 mm
09:23 AM 44.5°F6.9°C 36.0°F2.2°C 73% 6.1 mph WSW9.8 kmh WSW 12.0 mph19.3 kmh 29.94 in1013.9 mb 0.00 in0.0 mm 0.00 in0.0 mm 0.15 in3.8 mm
09:24 AM 44.5°F6.9°C 37.0°F2.8°C 74% 5.7 mph WNW9.2 kmh WNW 12.0 mph19.3 kmh 29.94 in1013.9 mb 0.00 in0.0 mm 0.00 in0.0 mm 0.15 in3.8 mm
09:25 AM 44.7°F7.1°C 37.0°F2.8°C 73% 5.8 mph WSW9.3 kmh WSW 12.0 mph19.3 kmh 29.94 in1013.9 mb 0.00 in0.0 mm 0.00 in0.0 mm 0.15 in3.8 mm
09:26 AM 44.6°F7.0°C 36.0°F2.2°C 72% 6.0 mph W9.7 kmh W 12.0 mph19.3 kmh 29.94 in1013.9 mb 0.00 in0.0 mm 0.00 in0.0 mm 0.15 in3.8 mm
09:27 AM 44.5°F6.9°C 35.0°F1.7°C 70% 5.7 mph WSW9.2 kmh WSW 11.0 mph17.7 kmh 29.94 in1013.9 mb 0.00 in0.0 mm 0.00 in0.0 mm 0.15 in3.8 mm
09:28 AM 44.5°F6.9°C 36.0°F2.2°C 71% 5.9 mph NW9.5 kmh NW 14.0 mph22.5 kmh 29.94 in1013.9 mb 0.00 in0.0 mm 0.00 in0.0 mm 0.15 in3.8 mm
09:29 AM 44.5°F6.9°C 35.0°F1.7°C 70% 6.2 mph WNW10.0 kmh WNW 14.0 mph22.5 kmh 29.94 in1013.9 mb 0.00 in0.0 mm 0.00 in0.0 mm 0.15 in3.8 mm
09:30 AM 44.5°F6.9°C 36.0°F2.2°C 71% 6.5 mph WNW10.5 kmh WNW 14.0 mph22.5 kmh 29.94 in1013.9 mb 0.00 in0.0 mm 0.00 in0.0 mm 0.15 in3.8 mm
09:31 AM 44.5°F6.9°C 35.0°F1.7°C 70% 7.0 mph WSW11.3 kmh WSW 14.0 mph22.5 kmh 29.94 in1013.9 mb 0.00 in0.0 mm 0.00 in0.0 mm 0.15 in3.8 mm
09:32 AM 44.6°F7.0°C 35.0°F1.7°C 70% 7.2 mph W11.6 kmh W 14.0 mph22.5 kmh 29.94 in1013.9 mb 0.00 in0.0 mm 0.00 in0.0 mm 0.15 in3.8 mm
09:33 AM 44.5°F6.9°C 35.0°F1.7°C 69% 7.5 mph WNW12.1 kmh WNW 14.0 mph22.5 kmh 29.94 in1013.9 mb 0.00 in0.0 mm 0.00 in0.0 mm 0.15 in3.8 mm
09:34 AM 44.6°F7.0°C 35.0°F1.7°C 70% 7.7 mph W12.4 kmh W 14.0 mph22.5 kmh 29.94 in1013.9 mb 0.00 in0.0 mm 0.00 in0.0 mm 0.15 in3.8 mm
09:35 AM 44.7°F7.1°C 35.0°F1.7°C 70% 7.4 mph W11.9 kmh W 14.0 mph22.5 kmh 29.94 in1013.9 mb 0.00 in0.0 mm 0.00 in0.0 mm 0.15 in3.8 mm
09:36 AM 44.7°F7.1°C 36.0°F2.2°C 71% 7.0 mph W11.3 kmh W 14.0 mph22.5 kmh 29.95 in1014.2 mb 0.00 in0.0 mm 0.00 in0.0 mm 0.15 in3.8 mm
09:37 AM 44.7°F7.1°C 34.0°F1.1°C 67% 7.2 mph NW11.6 kmh NW 14.0 mph22.5 kmh 29.95 in1014.2 mb 0.00 in0.0 mm 0.00 in0.0 mm 0.15 in3.8 mm
09:38 AM 44.8°F7.1°C 34.0°F1.1°C 67% 6.9 mph WNW11.1 kmh WNW 14.0 mph22.5 kmh 29.94 in1013.9 mb 0.00 in0.0 mm 0.00 in0.0 mm 0.15 in3.8 mm
09:39 AM 44.9°F7.2°C 34.0°F1.1°C 67% 6.9 mph NW11.1 kmh NW 14.0 mph22.5 kmh 29.95 in1014.2 mb 0.00 in0.0 mm 0.00 in0.0 mm 0.15 in3.8 mm
09:40 AM 44.9°F7.2°C 34.0°F1.1°C 66% 6.8 mph W10.9 kmh W 14.0 mph22.5 kmh 29.95 in1014.2 mb 0.00 in0.0 mm 0.00 in0.0 mm 0.15 in3.8 mm
09:41 AM 44.9°F7.2°C 34.0°F1.1°C 66% 6.9 mph W11.1 kmh W 13.0 mph20.9 kmh 29.95 in1014.2 mb 0.00 in0.0 mm 0.00 in0.0 mm 0.15 in3.8 mm
09:42 AM 44.9°F7.2°C 34.0°F1.1°C 67% 6.7 mph WSW10.8 kmh WSW 13.0 mph20.9 kmh 29.95 in1014.2 mb 0.00 in0.0 mm 0.00 in0.0 mm 0.15 in3.8 mm
09:43 AM 45.0°F7.2°C 35.0°F1.7°C 67% 6.4 mph NW10.3 kmh NW 13.0 mph20.9 kmh 29.95 in1014.2 mb 0.00 in0.0 mm 0.00 in0.0 mm 0.15 in3.8 mm
09:44 AM 45.2°F7.3°C 35.0°F1.7°C 68% 6.3 mph NW10.1 kmh NW 13.0 mph20.9 kmh 29.95 in1014.2 mb 0.00 in0.0 mm 0.00 in0.0 mm 0.15 in3.8 mm
09:45 AM 45.3°F7.4°C 35.0°F1.7°C 67% 6.4 mph NW10.3 kmh NW 12.0 mph19.3 kmh 29.95 in1014.2 mb 0.00 in0.0 mm 0.00 in0.0 mm 0.15 in3.8 mm
09:46 AM 45.3°F7.4°C 35.0°F1.7°C 68% 6.3 mph NW10.1 kmh NW 12.0 mph19.3 kmh 29.95 in1014.2 mb 0.00 in0.0 mm 0.00 in0.0 mm 0.15 in3.8 mm
09:47 AM 45.4°F7.4°C 36.0°F2.2°C 69% 6.3 mph N10.1 kmh N 12.0 mph19.3 kmh 29.95 in1014.2 mb 0.00 in0.0 mm 0.00 in0.0 mm 0.15 in3.8 mm
09:48 AM 45.4°F7.4°C 35.0°F1.7°C 68% 5.4 mph NNW8.7 kmh NNW 12.0 mph19.3 kmh 29.95 in1014.2 mb 0.00 in0.0 mm 0.00 in0.0 mm 0.15 in3.8 mm
09:49 AM 45.5°F7.5°C 35.0°F1.7°C 67% 5.0 mph WNW8.0 kmh WNW 12.0 mph19.3 kmh 29.95 in1014.2 mb 0.00 in0.0 mm 0.00 in0.0 mm 0.15 in3.8 mm
09:50 AM 45.5°F7.5°C 35.0°F1.7°C 66% 5.2 mph SSE8.4 kmh SSE 12.0 mph19.3 kmh 29.95 in1014.2 mb 0.00 in0.0 mm 0.00 in0.0 mm 0.15 in3.8 mm
09:51 AM 45.4°F7.4°C 35.0°F1.7°C 67% 4.8 mph WSW7.7 kmh WSW 11.0 mph17.7 kmh 29.95 in1014.2 mb 0.00 in0.0 mm 0.00 in0.0 mm 0.15 in3.8 mm
09:52 AM 45.4°F7.4°C 35.0°F1.7°C 67% 4.8 mph NW7.7 kmh NW 11.0 mph17.7 kmh 29.95 in1014.2 mb 0.00 in0.0 mm 0.00 in0.0 mm 0.15 in3.8 mm
09:53 AM 45.4°F7.4°C 35.0°F1.7°C 67% 4.9 mph N7.9 kmh N 11.0 mph17.7 kmh 29.95 in1014.2 mb 0.00 in0.0 mm 0.00 in0.0 mm 0.15 in3.8 mm
09:54 AM 45.4°F7.4°C 35.0°F1.7°C 68% 4.7 mph N7.6 kmh N 11.0 mph17.7 kmh 29.95 in1014.2 mb 0.00 in0.0 mm 0.00 in0.0 mm 0.15 in3.8 mm
09:55 AM 45.4°F7.4°C 35.0°F1.7°C 68% 4.8 mph W7.7 kmh W 11.0 mph17.7 kmh 29.95 in1014.2 mb 0.00 in0.0 mm 0.00 in0.0 mm 0.15 in3.8 mm
09:56 AM 45.4°F7.4°C 35.0°F1.7°C 68% 4.8 mph N7.7 kmh N 11.0 mph17.7 kmh 29.95 in1014.2 mb 0.00 in0.0 mm 0.00 in0.0 mm 0.15 in3.8 mm
09:57 AM 45.5°F7.5°C 35.0°F1.7°C 68% 4.9 mph NW7.9 kmh NW 11.0 mph17.7 kmh 29.96 in1014.6 mb 0.00 in0.0 mm 0.00 in0.0 mm 0.15 in3.8 mm
09:58 AM 45.6°F7.6°C 36.0°F2.2°C 69% 4.9 mph WNW7.9 kmh WNW 11.0 mph17.7 kmh 29.96 in1014.6 mb 0.00 in0.0 mm 0.00 in0.0 mm 0.15 in3.8 mm
09:59 AM 45.7°F7.6°C 36.0°F2.2°C 68% 4.9 mph WNW7.9 kmh WNW 10.0 mph16.1 kmh 29.96 in1014.6 mb 0.00 in0.0 mm 0.00 in0.0 mm 0.15 in3.8 mm
10:00 AM 45.8°F7.7°C 36.0°F2.2°C 69% 4.5 mph N7.2 kmh N 10.0 mph16.1 kmh 29.96 in1014.6 mb 0.00 in0.0 mm 0.00 in0.0 mm 0.15 in3.8 mm
10:01 AM 45.7°F7.6°C 36.0°F2.2°C 69% 4.9 mph WNW7.9 kmh WNW 13.0 mph20.9 kmh 29.96 in1014.6 mb 0.00 in0.0 mm 0.00 in0.0 mm 0.15 in3.8 mm
10:02 AM 45.7°F7.6°C 36.0°F2.2°C 68% 4.8 mph NNE7.7 kmh NNE 13.0 mph20.9 kmh 29.96 in1014.6 mb 0.00 in0.0 mm 0.00 in0.0 mm 0.15 in3.8 mm
10:03 AM 45.7°F7.6°C 36.0°F2.2°C 68% 4.6 mph NNE7.4 kmh NNE 13.0 mph20.9 kmh 29.96 in1014.6 mb 0.00 in0.0 mm 0.00 in0.0 mm 0.15 in3.8 mm
10:04 AM 45.7°F7.6°C 36.0°F2.2°C 69% 4.7 mph NNW7.6 kmh NNW 13.0 mph20.9 kmh 29.96 in1014.6 mb 0.00 in0.0 mm 0.00 in0.0 mm 0.15 in3.8 mm
10:05 AM 45.8°F7.7°C 36.0°F2.2°C 68% 4.6 mph WNW7.4 kmh WNW 13.0 mph20.9 kmh 29.96 in1014.6 mb 0.00 in0.0 mm 0.00 in0.0 mm 0.15 in3.8 mm
10:06 AM 45.9°F7.7°C 36.0°F2.2°C 69% 4.7 mph WSW7.6 kmh WSW 13.0 mph20.9 kmh 29.96 in1014.6 mb 0.00 in0.0 mm 0.00 in0.0 mm 0.15 in3.8 mm
10:07 AM 46.0°F7.8°C 36.0°F2.2°C 69% 4.8 mph NW7.7 kmh NW 13.0 mph20.9 kmh 29.96 in1014.6 mb 0.00 in0.0 mm 0.00 in0.0 mm 0.15 in3.8 mm
10:08 AM 46.0°F7.8°C 36.0°F2.2°C 68% 4.6 mph NW7.4 kmh NW 13.0 mph20.9 kmh 29.96 in1014.6 mb 0.00 in0.0 mm 0.00 in0.0 mm 0.15 in3.8 mm
10:09 AM 46.0°F7.8°C 36.0°F2.2°C 69% 4.6 mph N7.4 kmh N 13.0 mph20.9 kmh 29.96 in1014.6 mb 0.00 in0.0 mm 0.00 in0.0 mm 0.15 in3.8 mm
10:10 AM 46.1°F7.8°C 36.0°F2.2°C 67% 4.7 mph NNW7.6 kmh NNW 8.0 mph12.9 kmh 29.96 in1014.6 mb 0.00 in0.0 mm 0.00 in0.0 mm 0.15 in3.8 mm
10:11 AM 46.0°F7.8°C 35.0°F1.7°C 66% 4.5 mph W7.2 kmh W 12.0 mph19.3 kmh 29.96 in1014.6 mb 0.00 in0.0 mm 0.00 in0.0 mm 0.15 in3.8 mm
10:12 AM 46.0°F7.8°C 35.0°F1.7°C 66% 4.9 mph NNW7.9 kmh NNW 13.0 mph20.9 kmh 29.96 in1014.6 mb 0.00 in0.0 mm 0.00 in0.0 mm 0.15 in3.8 mm
10:13 AM 45.9°F7.7°C 35.0°F1.7°C 67% 5.2 mph W8.4 kmh W 13.0 mph20.9 kmh 29.96 in1014.6 mb 0.00 in0.0 mm 0.00 in0.0 mm 0.15 in3.8 mm
10:14 AM 45.8°F7.7°C 35.0°F1.7°C 67% 5.5 mph SW8.9 kmh SW 13.0 mph20.9 kmh 29.96 in1014.6 mb 0.00 in0.0 mm 0.00 in0.0 mm 0.15 in3.8 mm
10:15 AM 45.9°F7.7°C 36.0°F2.2°C 68% 5.6 mph W9.0 kmh W 13.0 mph20.9 kmh 29.96 in1014.6 mb 0.00 in0.0 mm 0.00 in0.0 mm 0.15 in3.8 mm
10:16 AM 45.9°F7.7°C 35.0°F1.7°C 66% 6.0 mph N9.7 kmh N 13.0 mph20.9 kmh 29.96 in1014.6 mb 0.00 in0.0 mm 0.00 in0.0 mm 0.15 in3.8 mm
10:17 AM 45.9°F7.7°C 35.0°F1.7°C 67% 5.9 mph W9.5 kmh W 13.0 mph20.9 kmh 29.96 in1014.6 mb 0.00 in0.0 mm 0.00 in0.0 mm 0.15 in3.8 mm
10:18 AM 46.0°F7.8°C 36.0°F2.2°C 68% 6.1 mph W9.8 kmh W 13.0 mph20.9 kmh 29.96 in1014.6 mb 0.00 in0.0 mm 0.00 in0.0 mm 0.15 in3.8 mm
10:19 AM 46.0°F7.8°C 36.0°F2.2°C 68% 6.5 mph WNW10.5 kmh WNW 13.0 mph20.9 kmh 29.96 in1014.6 mb 0.00 in0.0 mm 0.00 in0.0 mm 0.15 in3.8 mm
10:20 AM 46.1°F7.8°C 36.0°F2.2°C 67% 6.7 mph W10.8 kmh W 13.0 mph20.9 kmh 29.96 in1014.6 mb 0.00 in0.0 mm 0.00 in0.0 mm 0.15 in3.8 mm
10:21 AM 46.1°F7.8°C 36.0°F2.2°C 67% 7.0 mph W11.3 kmh W 15.0 mph24.1 kmh 29.96 in1014.6 mb 0.00 in0.0 mm 0.00 in0.0 mm 0.15 in3.8 mm
10:22 AM 46.2°F7.9°C 35.0°F1.7°C 66% 6.9 mph WNW11.1 kmh WNW 15.0 mph24.1 kmh 29.96 in1014.6 mb 0.00 in0.0 mm 0.00 in0.0 mm 0.15 in3.8 mm
10:24 AM 46.3°F7.9°C 35.0°F1.7°C 66% 7.3 mph W11.7 kmh W 15.0 mph24.1 kmh 29.96 in1014.6 mb 0.00 in0.0 mm 0.00 in0.0 mm 0.15 in3.8 mm
10:25 AM 46.3°F7.9°C 35.0°F1.7°C 64% 7.5 mph WSW12.1 kmh WSW 15.0 mph24.1 kmh 29.96 in1014.6 mb 0.00 in0.0 mm 0.00 in0.0 mm 0.15 in3.8 mm
10:26 AM 46.3°F7.9°C 35.0°F1.7°C 66% 7.1 mph W11.4 kmh W 15.0 mph24.1 kmh 29.97 in1014.9 mb 0.00 in0.0 mm 0.00 in0.0 mm 0.15 in3.8 mm
10:27 AM 46.4°F8.0°C 35.0°F1.7°C 64% 7.3 mph N11.7 kmh N 15.0 mph24.1 kmh 29.97 in1014.9 mb 0.00 in0.0 mm 0.00 in0.0 mm 0.15 in3.8 mm
10:28 AM 46.4°F8.0°C 35.0°F1.7°C 65% 7.5 mph WSW12.1 kmh WSW 15.0 mph24.1 kmh 29.97 in1014.9 mb 0.00 in0.0 mm 0.00 in0.0 mm 0.15 in3.8 mm
10:29 AM 46.5°F8.1°C 35.0°F1.7°C 64% 7.6 mph SW12.2 kmh SW 15.0 mph24.1 kmh 29.97 in1014.9 mb 0.00 in0.0 mm 0.00 in0.0 mm 0.15 in3.8 mm
10:30 AM 46.5°F8.1°C 35.0°F1.7°C 64% 8.0 mph WNW12.9 kmh WNW 17.0 mph27.4 kmh 29.97 in1014.9 mb 0.00 in0.0 mm 0.00 in0.0 mm 0.15 in3.8 mm
10:31 AM 46.5°F8.1°C 34.0°F1.1°C 62% 7.9 mph NW12.7 kmh NW 17.0 mph27.4 kmh 29.97 in1014.9 mb 0.00 in0.0 mm 0.00 in0.0 mm 0.15 in3.8 mm
10:32 AM 46.5°F8.1°C 34.0°F1.1°C 63% 7.9 mph W12.7 kmh W 17.0 mph27.4 kmh 29.97 in1014.9 mb 0.00 in0.0 mm 0.00 in0.0 mm 0.15 in3.8 mm
10:33 AM 46.5°F8.1°C 34.0°F1.1°C 63% 7.6 mph WNW12.2 kmh WNW 17.0 mph27.4 kmh 29.97 in1014.9 mb 0.00 in0.0 mm 0.00 in0.0 mm 0.15 in3.8 mm
10:34 AM 46.6°F8.1°C 34.0°F1.1°C 62% 7.6 mph WNW12.2 kmh WNW 17.0 mph27.4 kmh 29.97 in1014.9 mb 0.00 in0.0 mm 0.00 in0.0 mm 0.15 in3.8 mm
10:35 AM 46.6°F8.1°C 34.0°F1.1°C 62% 7.7 mph W12.4 kmh W 17.0 mph27.4 kmh 29.97 in1014.9 mb 0.00 in0.0 mm 0.00 in0.0 mm 0.15 in3.8 mm
10:36 AM 46.6°F8.1°C 34.0°F1.1°C 61% 8.1 mph WNW13.0 kmh WNW 17.0 mph27.4 kmh 29.97 in1014.9 mb 0.00 in0.0 mm 0.00 in0.0 mm 0.15 in3.8 mm
10:37 AM 46.5°F8.1°C 34.0°F1.1°C 62% 7.9 mph WNW12.7 kmh WNW 17.0 mph27.4 kmh 29.97 in1014.9 mb 0.00 in0.0 mm 0.00 in0.0 mm 0.15 in3.8 mm
10:38 AM 46.7°F8.2°C 35.0°F1.7°C 63% 7.8 mph W12.6 kmh W 17.0 mph27.4 kmh 29.97 in1014.9 mb 0.00 in0.0 mm 0.00 in0.0 mm 0.15 in3.8 mm
10:39 AM 46.8°F8.2°C 35.0°F1.7°C 64% 7.4 mph WNW11.9 kmh WNW 17.0 mph27.4 kmh 29.97 in1014.9 mb 0.00 in0.0 mm 0.00 in0.0 mm 0.15 in3.8 mm
10:40 AM 46.9°F8.3°C 34.0°F1.1°C 62% 7.3 mph NW11.7 kmh NW 17.0 mph27.4 kmh 29.97 in1014.9 mb 0.00 in0.0 mm 0.00 in0.0 mm 0.15 in3.8 mm
10:41 AM 46.9°F8.3°C 34.0°F1.1°C 61% 7.2 mph WSW11.6 kmh WSW 15.0 mph24.1 kmh 29.97 in1014.9 mb 0.00 in0.0 mm 0.00 in0.0 mm 0.15 in3.8 mm
10:42 AM 46.8°F8.2°C 34.0°F1.1°C 61% 7.4 mph WSW11.9 kmh WSW 15.0 mph24.1 kmh 29.97 in1014.9 mb 0.00 in0.0 mm 0.00 in0.0 mm 0.15 in3.8 mm
10:43 AM 46.7°F8.2°C 34.0°F1.1°C 61% 7.7 mph NW12.4 kmh NW 15.0 mph24.1 kmh 29.97 in1014.9 mb 0.00 in0.0 mm 0.00 in0.0 mm 0.15 in3.8 mm
10:44 AM 46.7°F8.2°C 34.0°F1.1°C 61% 7.5 mph NW12.1 kmh NW 15.0 mph24.1 kmh 29.97 in1014.9 mb 0.00 in0.0 mm 0.00 in0.0 mm 0.15 in3.8 mm
10:45 AM 46.8°F8.2°C 34.0°F1.1°C 62% 7.2 mph NNW11.6 kmh NNW 15.0 mph24.1 kmh 29.97 in1014.9 mb 0.00 in0.0 mm 0.00 in0.0 mm 0.15 in3.8 mm
10:46 AM 46.9°F8.3°C 34.0°F1.1°C 62% 6.7 mph NW10.8 kmh NW 15.0 mph24.1 kmh 29.97 in1014.9 mb 0.00 in0.0 mm 0.00 in0.0 mm 0.15 in3.8 mm
10:47 AM 47.0°F8.3°C 34.0°F1.1°C 60% 7.2 mph WNW11.6 kmh WNW 15.0 mph24.1 kmh 29.97 in1014.9 mb 0.00 in0.0 mm 0.00 in0.0 mm 0.15 in3.8 mm
10:48 AM 47.0°F8.3°C 34.0°F1.1°C 62% 7.2 mph N11.6 kmh N 15.0 mph24.1 kmh 29.97 in1014.9 mb 0.00 in0.0 mm 0.00 in0.0 mm 0.15 in3.8 mm
10:49 AM 47.1°F8.4°C 35.0°F1.7°C 62% 7.7 mph NW12.4 kmh NW 15.0 mph24.1 kmh 29.97 in1014.9 mb 0.00 in0.0 mm 0.00 in0.0 mm 0.15 in3.8 mm
10:50 AM 47.2°F8.4°C 34.0°F1.1°C 60% 7.3 mph W11.7 kmh W 15.0 mph24.1 kmh 29.97 in1014.9 mb 0.00 in0.0 mm 0.00 in0.0 mm 0.15 in3.8 mm
10:51 AM 47.2°F8.4°C 33.0°F0.6°C 59% 7.2 mph WSW11.6 kmh WSW 15.0 mph24.1 kmh 29.97 in1014.9 mb 0.00 in0.0 mm 0.00 in0.0 mm 0.15 in3.8 mm
10:52 AM 47.2°F8.4°C 33.0°F0.6°C 59% 7.2 mph NNW11.6 kmh NNW 15.0 mph24.1 kmh 29.97 in1014.9 mb 0.00 in0.0 mm 0.00 in0.0 mm 0.15 in3.8 mm
10:53 AM 47.0°F8.3°C 33.0°F0.6°C 58% 7.4 mph WSW11.9 kmh WSW 17.0 mph27.4 kmh 29.97 in1014.9 mb 0.00 in0.0 mm 0.00 in0.0 mm 0.15 in3.8 mm
10:54 AM 47.1°F8.4°C 34.0°F1.1°C 60% 7.5 mph WNW12.1 kmh WNW 17.0 mph27.4 kmh 29.97 in1014.9 mb 0.00 in0.0 mm 0.00 in0.0 mm 0.15 in3.8 mm
10:55 AM 47.2°F8.4°C 34.0°F1.1°C 61% 7.5 mph NW12.1 kmh NW 17.0 mph27.4 kmh 29.97 in1014.9 mb 0.00 in0.0 mm 0.00 in0.0 mm 0.15 in3.8 mm
10:56 AM 47.3°F8.5°C 34.0°F1.1°C 60% 7.5 mph WNW12.1 kmh WNW 17.0 mph27.4 kmh 29.97 in1014.9 mb 0.00 in0.0 mm 0.00 in0.0 mm 0.15 in3.8 mm
10:57 AM 47.3°F8.5°C 34.0°F1.1°C 60% 8.2 mph W13.2 kmh W 18.0 mph29.0 kmh 29.97 in1014.9 mb 0.00 in0.0 mm 0.00 in0.0 mm 0.15 in3.8 mm
10:58 AM 47.2°F8.4°C 33.0°F0.6°C 58% 8.7 mph WNW14.0 kmh WNW 18.0 mph29.0 kmh 29.97 in1014.9 mb 0.00 in0.0 mm 0.00 in0.0 mm 0.15 in3.8 mm
10:59 AM 47.2°F8.4°C 33.0°F0.6°C 59% 8.8 mph W14.2 kmh W 18.0 mph29.0 kmh 29.97 in1014.9 mb 0.00 in0.0 mm 0.00 in0.0 mm 0.15 in3.8 mm
11:00 AM 47.3°F8.5°C 33.0°F0.6°C 59% 9.0 mph SW14.5 kmh SW 18.0 mph29.0 kmh 29.97 in1014.9 mb 0.00 in0.0 mm 0.00 in0.0 mm 0.15 in3.8 mm
11:01 AM 47.4°F8.6°C 34.0°F1.1°C 60% 9.4 mph WNW15.1 kmh WNW 18.0 mph29.0 kmh 29.97 in1014.9 mb 0.00 in0.0 mm 0.00 in0.0 mm 0.15 in3.8 mm
11:02 AM 47.4°F8.6°C 33.0°F0.6°C 58% 9.6 mph WSW15.4 kmh WSW 18.0 mph29.0 kmh 29.97 in1014.9 mb 0.00 in0.0 mm 0.00 in0.0 mm 0.15 in3.8 mm
11:03 AM 47.4°F8.6°C 33.0°F0.6°C 58% 9.1 mph NW14.6 kmh NW 18.0 mph29.0 kmh 29.97 in1014.9 mb 0.00 in0.0 mm 0.00 in0.0 mm 0.15 in3.8 mm
11:04 AM 47.5°F8.6°C 34.0°F1.1°C 59% 9.1 mph SW14.6 kmh SW 18.0 mph29.0 kmh 29.97 in1014.9 mb 0.00 in0.0 mm 0.00 in0.0 mm 0.15 in3.8 mm
11:05 AM 47.6°F8.7°C 33.0°F0.6°C 58% 9.1 mph NW14.6 kmh NW 18.0 mph29.0 kmh 29.97 in1014.9 mb 0.00 in0.0 mm 0.00 in0.0 mm 0.15 in3.8 mm
11:06 AM 47.7°F8.7°C 34.0°F1.1°C 59% 8.8 mph NW14.2 kmh NW 18.0 mph29.0 kmh 29.97 in1014.9 mb 0.00 in0.0 mm 0.00 in0.0 mm 0.15 in3.8 mm
11:07 AM 47.8°F8.8°C 33.0°F0.6°C 58% 8.2 mph WNW13.2 kmh WNW 16.0 mph25.7 kmh 29.97 in1014.9 mb 0.00 in0.0 mm 0.00 in0.0 mm 0.15 in3.8 mm
11:08 AM 47.9°F8.8°C 34.0°F1.1°C 58% 7.7 mph W12.4 kmh W 16.0 mph25.7 kmh 29.97 in1014.9 mb 0.00 in0.0 mm 0.00 in0.0 mm 0.15 in3.8 mm
11:09 AM 48.0°F8.9°C 34.0°F1.1°C 59% 7.1 mph NW11.4 kmh NW 16.0 mph25.7 kmh 29.97 in1014.9 mb 0.00 in0.0 mm 0.00 in0.0 mm 0.15 in3.8 mm
11:10 AM 48.0°F8.9°C 34.0°F1.1°C 59% 6.8 mph NW10.9 kmh NW 16.0 mph25.7 kmh 29.97 in1014.9 mb 0.00 in0.0 mm 0.00 in0.0 mm 0.15 in3.8 mm
11:11 AM 48.1°F8.9°C 34.0°F1.1°C 59% 6.8 mph WSW10.9 kmh WSW 15.0 mph24.1 kmh 29.97 in1014.9 mb 0.00 in0.0 mm 0.00 in0.0 mm 0.15 in3.8 mm
11:12 AM 48.2°F9.0°C 34.0°F1.1°C 59% 6.2 mph WNW10.0 kmh WNW 15.0 mph24.1 kmh 29.97 in1014.9 mb 0.00 in0.0 mm 0.00 in0.0 mm 0.15 in3.8 mm
11:13 AM 48.1°F8.9°C 34.0°F1.1°C 58% 5.9 mph WNW9.5 kmh WNW 15.0 mph24.1 kmh 29.97 in1014.9 mb 0.00 in0.0 mm 0.00 in0.0 mm 0.15 in3.8 mm
11:14 AM 47.9°F8.8°C 34.0°F1.1°C 59% 6.3 mph SW10.1 kmh SW 15.0 mph24.1 kmh 29.97 in1014.9 mb 0.00 in0.0 mm 0.00 in0.0 mm 0.15 in3.8 mm
11:15 AM 48.0°F8.9°C 34.0°F1.1°C 58% 6.5 mph W10.5 kmh W 15.0 mph24.1 kmh 29.98 in1015.2 mb 0.00 in0.0 mm 0.00 in0.0 mm 0.15 in3.8 mm
11:16 AM 47.9°F8.8°C 34.0°F1.1°C 58% 6.9 mph N11.1 kmh N 15.0 mph24.1 kmh 29.98 in1015.2 mb 0.00 in0.0 mm 0.00 in0.0 mm 0.15 in3.8 mm
11:17 AM 47.8°F8.8°C 34.0°F1.1°C 59% 7.5 mph W12.1 kmh W 16.0 mph25.7 kmh 29.98 in1015.2 mb 0.00 in0.0 mm 0.00 in0.0 mm 0.15 in3.8 mm
11:18 AM 47.7°F8.7°C 34.0°F1.1°C 59% 7.8 mph W12.6 kmh W 16.0 mph25.7 kmh 29.98 in1015.2 mb 0.00 in0.0 mm 0.00 in0.0 mm 0.15 in3.8 mm
11:19 AM 47.8°F8.8°C 34.0°F1.1°C 59% 8.1 mph W13.0 kmh W 16.0 mph25.7 kmh 29.97 in1014.9 mb 0.00 in0.0 mm 0.00 in0.0 mm 0.15 in3.8 mm
11:20 AM 47.9°F8.8°C 34.0°F1.1°C 58% 8.5 mph WSW13.7 kmh WSW 16.0 mph25.7 kmh 29.98 in1015.2 mb 0.00 in0.0 mm 0.00 in0.0 mm 0.15 in3.8 mm
11:21 AM 47.9°F8.8°C 33.0°F0.6°C 57% 8.8 mph WNW14.2 kmh WNW 16.0 mph25.7 kmh 29.98 in1015.2 mb 0.00 in0.0 mm 0.00 in0.0 mm 0.15 in3.8 mm
11:22 AM 47.9°F8.8°C 33.0°F0.6°C 57% 8.7 mph W14.0 kmh W 16.0 mph25.7 kmh 29.98 in1015.2 mb 0.00 in0.0 mm 0.00 in0.0 mm 0.15 in3.8 mm
11:23 AM 47.9°F8.8°C 33.0°F0.6°C 57% 8.7 mph W14.0 kmh W 16.0 mph25.7 kmh 29.98 in1015.2 mb 0.00 in0.0 mm 0.00 in0.0 mm 0.15 in3.8 mm
11:24 AM 47.9°F8.8°C 34.0°F1.1°C 58% 8.3 mph WNW13.4 kmh WNW 16.0 mph25.7 kmh 29.98 in1015.2 mb 0.00 in0.0 mm 0.00 in0.0 mm 0.15 in3.8 mm
11:25 AM 48.0°F8.9°C 34.0°F1.1°C 58% 8.1 mph WNW13.0 kmh WNW 13.0 mph20.9 kmh 29.98 in1015.2 mb 0.00 in0.0 mm 0.00 in0.0 mm 0.15 in3.8 mm
11:26 AM 48.1°F8.9°C 34.0°F1.1°C 58% 8.1 mph W13.0 kmh W 14.0 mph22.5 kmh 29.98 in1015.2 mb 0.00 in0.0 mm 0.00 in0.0 mm 0.15 in3.8 mm
11:27 AM 48.1°F8.9°C 34.0°F1.1°C 59% 7.6 mph WNW12.2 kmh WNW 14.0 mph22.5 kmh 29.98 in1015.2 mb 0.00 in0.0 mm 0.00 in0.0 mm 0.15 in3.8 mm
11:28 AM 48.2°F9.0°C 33.0°F0.6°C 57% 7.7 mph W12.4 kmh W 15.0 mph24.1 kmh 29.98 in1015.2 mb 0.00 in0.0 mm 0.00 in0.0 mm 0.15 in3.8 mm
11:29 AM 48.2°F9.0°C 34.0°F1.1°C 58% 7.7 mph W12.4 kmh W 15.0 mph24.1 kmh 29.98 in1015.2 mb 0.00 in0.0 mm 0.00 in0.0 mm 0.15 in3.8 mm
11:30 AM 48.2°F9.0°C 33.0°F0.6°C 56% 7.5 mph NW12.1 kmh NW 15.0 mph24.1 kmh 29.98 in1015.2 mb 0.00 in0.0 mm 0.00 in0.0 mm 0.15 in3.8 mm
11:31 AM 48.2°F9.0°C 34.0°F1.1°C 58% 7.4 mph NW11.9 kmh NW 15.0 mph24.1 kmh 29.98 in1015.2 mb 0.00 in0.0 mm 0.00 in0.0 mm 0.15 in3.8 mm
11:32 AM 48.2°F9.0°C 33.0°F0.6°C 57% 7.5 mph W12.1 kmh W 15.0 mph24.1 kmh 29.98 in1015.2 mb 0.00 in0.0 mm 0.00 in0.0 mm 0.15 in3.8 mm
11:33 AM 48.2°F9.0°C 34.0°F1.1°C 58% 7.5 mph W12.1 kmh W 15.0 mph24.1 kmh 29.98 in1015.2 mb 0.00 in0.0 mm 0.00 in0.0 mm 0.15 in3.8 mm
11:34 AM 48.4°F9.1°C 34.0°F1.1°C 58% 7.5 mph N12.1 kmh N 15.0 mph24.1 kmh 29.98 in1015.2 mb 0.00 in0.0 mm 0.00 in0.0 mm 0.15 in3.8 mm
11:35 AM 48.4°F9.1°C 34.0°F1.1°C 57% 7.5 mph WNW12.1 kmh WNW 15.0 mph24.1 kmh 29.98 in1015.2 mb 0.00 in0.0 mm 0.00 in0.0 mm 0.15 in3.8 mm
11:36 AM 48.4°F9.1°C 33.0°F0.6°C 56% 7.3 mph N11.7 kmh N 15.0 mph24.1 kmh 29.98 in1015.2 mb 0.00 in0.0 mm 0.00 in0.0 mm 0.15 in3.8 mm
11:37 AM 48.4°F9.1°C 33.0°F0.6°C 56% 7.6 mph W12.2 kmh W 15.0 mph24.1 kmh 29.98 in1015.2 mb 0.00 in0.0 mm 0.00 in0.0 mm 0.15 in3.8 mm
11:38 AM 48.3°F9.1°C 33.0°F0.6°C 56% 7.7 mph W12.4 kmh W 15.0 mph24.1 kmh 29.98 in1015.2 mb 0.00 in0.0 mm 0.00 in0.0 mm 0.15 in3.8 mm
11:39 AM 48.3°F9.1°C 33.0°F0.6°C 55% 7.9 mph WNW12.7 kmh WNW 15.0 mph24.1 kmh 29.98 in1015.2 mb 0.00 in0.0 mm 0.00 in0.0 mm 0.15 in3.8 mm
11:40 AM 48.2°F9.0°C 33.0°F0.6°C 55% 8.3 mph NW13.4 kmh NW 17.0 mph27.4 kmh 29.98 in1015.2 mb 0.00 in0.0 mm 0.00 in0.0 mm 0.15 in3.8 mm
11:41 AM 48.1°F8.9°C 33.0°F0.6°C 56% 8.7 mph NW14.0 kmh NW 17.0 mph27.4 kmh 29.98 in1015.2 mb 0.00 in0.0 mm 0.00 in0.0 mm 0.15 in3.8 mm
11:42 AM 48.1°F8.9°C 33.0°F0.6°C 56% 8.8 mph W14.2 kmh W 17.0 mph27.4 kmh 29.98 in1015.2 mb 0.00 in0.0 mm 0.00 in0.0 mm 0.15 in3.8 mm
11:43 AM 48.1°F8.9°C 32.0°F0.0°C 55% 9.1 mph NW14.6 kmh NW 17.0 mph27.4 kmh 29.98 in1015.2 mb 0.00 in0.0 mm 0.00 in0.0 mm 0.15 in3.8 mm
11:44 AM 48.0°F8.9°C 33.0°F0.6°C 56% 9.5 mph W15.3 kmh W 17.0 mph27.4 kmh 29.98 in1015.2 mb 0.00 in0.0 mm 0.00 in0.0 mm 0.15 in3.8 mm
11:45 AM 48.1°F8.9°C 33.0°F0.6°C 56% 9.7 mph WNW15.6 kmh WNW 17.0 mph27.4 kmh 29.98 in1015.2 mb 0.00 in0.0 mm 0.00 in0.0 mm 0.15 in3.8 mm
11:46 AM 48.2°F9.0°C 33.0°F0.6°C 55% 9.9 mph WSW15.9 kmh WSW 17.0 mph27.4 kmh 29.98 in1015.2 mb 0.00 in0.0 mm 0.00 in0.0 mm 0.15 in3.8 mm
11:47 AM 48.2°F9.0°C 33.0°F0.6°C 55% 10.0 mph WNW16.1 kmh WNW 17.0 mph27.4 kmh 29.98 in1015.2 mb 0.00 in0.0 mm 0.00 in0.0 mm 0.15 in3.8 mm
11:48 AM 48.3°F9.1°C 33.0°F0.6°C 55% 10.0 mph WNW16.1 kmh WNW 17.0 mph27.4 kmh 29.98 in1015.2 mb 0.00 in0.0 mm 0.00 in0.0 mm 0.15 in3.8 mm
11:49 AM 48.3°F9.1°C 32.0°F0.0°C 54% 10.0 mph W16.1 kmh W 17.0 mph27.4 kmh 29.98 in1015.2 mb 0.00 in0.0 mm 0.00 in0.0 mm 0.15 in3.8 mm
11:50 AM 48.3°F9.1°C 33.0°F0.6°C 55% 9.7 mph NNW15.6 kmh NNW 17.0 mph27.4 kmh 29.98 in1015.2 mb 0.00 in0.0 mm 0.00 in0.0 mm 0.15 in3.8 mm
11:51 AM 48.4°F9.1°C 33.0°F0.6°C 56% 9.1 mph WNW14.6 kmh WNW 17.0 mph27.4 kmh 29.98 in1015.2 mb 0.00 in0.0 mm 0.00 in0.0 mm 0.15 in3.8 mm
11:52 AM 48.6°F9.2°C 33.0°F0.6°C 56% 8.9 mph NW14.3 kmh NW 17.0 mph27.4 kmh 29.98 in1015.2 mb 0.00 in0.0 mm 0.00 in0.0 mm 0.15 in3.8 mm
11:53 AM 48.6°F9.2°C 33.0°F0.6°C 55% 8.5 mph NNE13.7 kmh NNE 17.0 mph27.4 kmh 29.98 in1015.2 mb 0.00 in0.0 mm 0.00 in0.0 mm 0.15 in3.8 mm
11:54 AM 48.7°F9.3°C 33.0°F0.6°C 55% 8.0 mph W12.9 kmh W 17.0 mph27.4 kmh 29.98 in1015.2 mb 0.00 in0.0 mm 0.00 in0.0 mm 0.15 in3.8 mm
11:55 AM 48.9°F9.4°C 34.0°F1.1°C 56% 7.6 mph N12.2 kmh N 16.0 mph25.7 kmh 29.98 in1015.2 mb 0.00 in0.0 mm 0.00 in0.0 mm 0.15 in3.8 mm
11:56 AM 49.0°F9.4°C 34.0°F1.1°C 56% 7.2 mph WNW11.6 kmh WNW 16.0 mph25.7 kmh 29.98 in1015.2 mb 0.00 in0.0 mm 0.00 in0.0 mm 0.15 in3.8 mm
11:57 AM 49.2°F9.6°C 34.0°F1.1°C 56% 6.7 mph W10.8 kmh W 16.0 mph25.7 kmh 29.98 in1015.2 mb 0.00 in0.0 mm 0.00 in0.0 mm 0.15 in3.8 mm
11:58 AM 49.2°F9.6°C 34.0°F1.1°C 56% 6.2 mph W10.0 kmh W 13.0 mph20.9 kmh 29.98 in1015.2 mb 0.00 in0.0 mm 0.00 in0.0 mm 0.15 in3.8 mm
11:59 AM 49.3°F9.6°C 34.0°F1.1°C 56% 5.6 mph NW9.0 kmh NW 13.0 mph20.9 kmh 29.98 in1015.2 mb 0.00 in0.0 mm 0.00 in0.0 mm 0.15 in3.8 mm
12:00 PM 49.4°F9.7°C 34.0°F1.1°C 56% 5.4 mph W8.7 kmh W 13.0 mph20.9 kmh 29.98 in1015.2 mb 0.00 in0.0 mm 0.00 in0.0 mm 0.15 in3.8 mm
12:01 PM 49.3°F9.6°C 33.0°F0.6°C 54% 5.9 mph WNW9.5 kmh WNW 18.0 mph29.0 kmh 29.98 in1015.2 mb 0.00 in0.0 mm 0.00 in0.0 mm 0.15 in3.8 mm
12:02 PM 49.2°F9.6°C 33.0°F0.6°C 55% 6.0 mph W9.7 kmh W 18.0 mph29.0 kmh 29.98 in1015.2 mb 0.00 in0.0 mm 0.00 in0.0 mm 0.15 in3.8 mm
12:03 PM 49.0°F9.4°C 33.0°F0.6°C 55% 6.1 mph NW9.8 kmh NW 18.0 mph29.0 kmh 29.98 in1015.2 mb 0.00 in0.0 mm 0.00 in0.0 mm 0.15 in3.8 mm
12:04 PM 48.9°F9.4°C 33.0°F0.6°C 55% 6.5 mph W10.5 kmh W 18.0 mph29.0 kmh 29.98 in1015.2 mb 0.00 in0.0 mm 0.00 in0.0 mm 0.15 in3.8 mm
12:05 PM 48.9°F9.4°C 33.0°F0.6°C 54% 7.0 mph W11.3 kmh W 18.0 mph29.0 kmh 29.98 in1015.2 mb 0.00 in0.0 mm 0.00 in0.0 mm 0.15 in3.8 mm
12:07 PM 48.9°F9.4°C 34.0°F1.1°C 56% 7.4 mph WNW11.9 kmh WNW 18.0 mph29.0 kmh 29.98 in1015.2 mb 0.00 in0.0 mm 0.00 in0.0 mm 0.15 in3.8 mm
12:08 PM 49.0°F9.4°C 34.0°F1.1°C 56% 7.4 mph NW11.9 kmh NW 18.0 mph29.0 kmh 29.98 in1015.2 mb 0.00 in0.0 mm 0.00 in0.0 mm 0.15 in3.8 mm
12:09 PM 49.1°F9.5°C 34.0°F1.1°C 57% 7.3 mph NW11.7 kmh NW 18.0 mph29.0 kmh 29.98 in1015.2 mb 0.00 in0.0 mm 0.00 in0.0 mm 0.15 in3.8 mm
12:10 PM 49.2°F9.6°C 34.0°F1.1°C 56% 7.3 mph NW11.7 kmh NW 18.0 mph29.0 kmh 29.98 in1015.2 mb 0.00 in0.0 mm 0.00 in0.0 mm 0.15 in3.8 mm
12:11 PM 49.1°F9.5°C 34.0°F1.1°C 56% 7.0 mph WNW11.3 kmh WNW 17.0 mph27.4 kmh 29.98 in1015.2 mb 0.00 in0.0 mm 0.00 in0.0 mm 0.15 in3.8 mm
12:12 PM 49.0°F9.4°C 33.0°F0.6°C 55% 6.5 mph WNW10.5 kmh WNW 15.0 mph24.1 kmh 29.98 in1015.2 mb 0.00 in0.0 mm 0.00 in0.0 mm 0.15 in3.8 mm
12:13 PM 49.1°F9.5°C 34.0°F1.1°C 57% 6.4 mph WNW10.3 kmh WNW 15.0 mph24.1 kmh 29.98 in1015.2 mb 0.00 in0.0 mm 0.00 in0.0 mm 0.15 in3.8 mm
12:14 PM 49.0°F9.4°C 34.0°F1.1°C 57% 6.2 mph WNW10.0 kmh WNW 15.0 mph24.1 kmh 29.98 in1015.2 mb 0.00 in0.0 mm 0.00 in0.0 mm 0.15 in3.8 mm
12:15 PM 49.0°F9.4°C 35.0°F1.7°C 58% 5.9 mph W9.5 kmh W 15.0 mph24.1 kmh 29.98 in1015.2 mb 0.00 in0.0 mm 0.00 in0.0 mm 0.15 in3.8 mm
12:16 PM 49.2°F9.6°C 35.0°F1.7°C 58% 5.8 mph WSW9.3 kmh WSW 15.0 mph24.1 kmh 29.98 in1015.2 mb 0.00 in0.0 mm 0.00 in0.0 mm 0.15 in3.8 mm
12:17 PM 49.2°F9.6°C 34.0°F1.1°C 56% 6.5 mph WSW10.5 kmh WSW 15.0 mph24.1 kmh 29.98 in1015.2 mb 0.00 in0.0 mm 0.00 in0.0 mm 0.15 in3.8 mm
12:18 PM 49.2°F9.6°C 34.0°F1.1°C 57% 7.0 mph W11.3 kmh W 15.0 mph24.1 kmh 29.98 in1015.2 mb 0.00 in0.0 mm 0.00 in0.0 mm 0.15 in3.8 mm
12:19 PM 49.1°F9.5°C 33.0°F0.6°C 55% 7.9 mph WNW12.7 kmh WNW 16.0 mph25.7 kmh 29.98 in1015.2 mb 0.00 in0.0 mm 0.00 in0.0 mm 0.15 in3.8 mm
12:20 PM 49.1°F9.5°C 33.0°F0.6°C 55% 8.3 mph WNW13.4 kmh WNW 17.0 mph27.4 kmh 29.98 in1015.2 mb 0.00 in0.0 mm 0.00 in0.0 mm 0.15 in3.8 mm
12:21 PM 49.2°F9.6°C 33.0°F0.6°C 55% 8.6 mph W13.8 kmh W 17.0 mph27.4 kmh 29.98 in1015.2 mb 0.00 in0.0 mm 0.00 in0.0 mm 0.15 in3.8 mm
12:22 PM 49.1°F9.5°C 33.0°F0.6°C 54% 9.2 mph W14.8 kmh W 17.0 mph27.4 kmh 29.98 in1015.2 mb 0.00 in0.0 mm 0.00 in0.0 mm 0.15 in3.8 mm
12:23 PM 49.3°F9.6°C 34.0°F1.1°C 55% 9.3 mph WSW15.0 kmh WSW 17.0 mph27.4 kmh 29.97 in1014.9 mb 0.00 in0.0 mm 0.00 in0.0 mm 0.15 in3.8 mm
12:24 PM 49.5°F9.7°C 34.0°F1.1°C 55% 9.5 mph W15.3 kmh W 17.0 mph27.4 kmh 29.97 in1014.9 mb 0.00 in0.0 mm 0.00 in0.0 mm 0.15 in3.8 mm
12:25 PM 49.7°F9.8°C 34.0°F1.1°C 56% 9.3 mph WNW15.0 kmh WNW 17.0 mph27.4 kmh 29.98 in1015.2 mb 0.00 in0.0 mm 0.00 in0.0 mm 0.15 in3.8 mm
12:26 PM 49.9°F9.9°C 34.0°F1.1°C 55% 9.2 mph WNW14.8 kmh WNW 17.0 mph27.4 kmh 29.98 in1015.2 mb 0.00 in0.0 mm 0.00 in0.0 mm 0.15 in3.8 mm
12:27 PM 49.9°F9.9°C 34.0°F1.1°C 54% 8.8 mph WNW14.2 kmh WNW 17.0 mph27.4 kmh 29.98 in1015.2 mb 0.00 in0.0 mm 0.00 in0.0 mm 0.15 in3.8 mm
12:28 PM 49.8°F9.9°C 34.0°F1.1°C 54% 8.5 mph WNW13.7 kmh WNW 17.0 mph27.4 kmh 29.98 in1015.2 mb 0.00 in0.0 mm 0.00 in0.0 mm 0.15 in3.8 mm
12:29 PM 49.7°F9.8°C 33.0°F0.6°C 54% 8.2 mph W13.2 kmh W 14.0 mph22.5 kmh 29.98 in1015.2 mb 0.00 in0.0 mm 0.00 in0.0 mm 0.15 in3.8 mm
12:30 PM 49.6°F9.8°C 34.0°F1.1°C 55% 8.0 mph W12.9 kmh W 14.0 mph22.5 kmh 29.98 in1015.2 mb 0.00 in0.0 mm 0.00 in0.0 mm 0.15 in3.8 mm
12:31 PM 49.6°F9.8°C 34.0°F1.1°C 56% 7.6 mph WSW12.2 kmh WSW 14.0 mph22.5 kmh 29.98 in1015.2 mb 0.00 in0.0 mm 0.00 in0.0 mm 0.15 in3.8 mm
12:32 PM 49.7°F9.8°C 34.0°F1.1°C 56% 7.5 mph W12.1 kmh W 14.0 mph22.5 kmh 29.98 in1015.2 mb 0.00 in0.0 mm 0.00 in0.0 mm 0.15 in3.8 mm
12:33 PM 49.7°F9.8°C 34.0°F1.1°C 56% 7.4 mph NW11.9 kmh NW 13.0 mph20.9 kmh 29.98 in1015.2 mb 0.00 in0.0 mm 0.00 in0.0 mm 0.15 in3.8 mm
12:34 PM 49.9°F9.9°C 35.0°F1.7°C 56% 6.9 mph WNW11.1 kmh WNW 13.0 mph20.9 kmh 29.97 in1014.9 mb 0.00 in0.0 mm 0.00 in0.0 mm 0.15 in3.8 mm
12:35 PM 50.1°F10.1°C 35.0°F1.7°C 56% 7.4 mph NW11.9 kmh NW 15.0 mph24.1 kmh 29.98 in1015.2 mb 0.00 in0.0 mm 0.00 in0.0 mm 0.15 in3.8 mm
12:36 PM 50.1°F10.1°C 34.0°F1.1°C 54% 7.6 mph W12.2 kmh W 15.0 mph24.1 kmh 29.98 in1015.2 mb 0.00 in0.0 mm 0.00 in0.0 mm 0.15 in3.8 mm
12:37 PM 50.0°F10.0°C 34.0°F1.1°C 55% 7.4 mph WSW11.9 kmh WSW 15.0 mph24.1 kmh 29.98 in1015.2 mb 0.00 in0.0 mm 0.00 in0.0 mm 0.15 in3.8 mm
12:38 PM 50.0°F10.0°C 34.0°F1.1°C 54% 7.7 mph WSW12.4 kmh WSW 16.0 mph25.7 kmh 29.98 in1015.2 mb 0.00 in0.0 mm 0.00 in0.0 mm 0.15 in3.8 mm
12:39 PM 49.8°F9.9°C 34.0°F1.1°C 54% 7.9 mph WNW12.7 kmh WNW 16.0 mph25.7 kmh 29.98 in1015.2 mb 0.00 in0.0 mm 0.00 in0.0 mm 0.15 in3.8 mm
12:40 PM 49.7°F9.8°C 33.0°F0.6°C 54% 8.2 mph W13.2 kmh W 16.0 mph25.7 kmh 29.98 in1015.2 mb 0.00 in0.0 mm 0.00 in0.0 mm 0.15 in3.8 mm
12:41 PM 49.6°F9.8°C 34.0°F1.1°C 55% 8.3 mph NW13.4 kmh NW 16.0 mph25.7 kmh 29.98 in1015.2 mb 0.00 in0.0 mm 0.00 in0.0 mm 0.15 in3.8 mm
12:42 PM 49.8°F9.9°C 34.0°F1.1°C 55% 8.0 mph NW12.9 kmh NW 16.0 mph25.7 kmh 29.98 in1015.2 mb 0.00 in0.0 mm 0.00 in0.0 mm 0.15 in3.8 mm
12:43 PM 49.8°F9.9°C 34.0°F1.1°C 56% 7.9 mph NW12.7 kmh NW 16.0 mph25.7 kmh 29.98 in1015.2 mb 0.00 in0.0 mm 0.00 in0.0 mm 0.15 in3.8 mm
12:44 PM 50.0°F10.0°C 35.0°F1.7°C 56% 8.1 mph WSW13.0 kmh WSW 16.0 mph25.7 kmh 29.98 in1015.2 mb 0.00 in0.0 mm 0.00 in0.0 mm 0.15 in3.8 mm
12:45 PM 50.2°F10.1°C 35.0°F1.7°C 56% 7.9 mph NW12.7 kmh NW 16.0 mph25.7 kmh 29.98 in1015.2 mb 0.00 in0.0 mm 0.00 in0.0 mm 0.15 in3.8 mm
12:46 PM 50.2°F10.1°C 34.0°F1.1°C 54% 7.5 mph NNW12.1 kmh NNW 16.0 mph25.7 kmh 29.98 in1015.2 mb 0.00 in0.0 mm 0.00 in0.0 mm 0.15 in3.8 mm
12:47 PM 50.1°F10.1°C 34.0°F1.1°C 54% 7.5 mph NNW12.1 kmh NNW 15.0 mph24.1 kmh 29.98 in1015.2 mb 0.00 in0.0 mm 0.00 in0.0 mm 0.15 in3.8 mm
12:48 PM 50.1°F10.1°C 34.0°F1.1°C 55% 6.9 mph W11.1 kmh W 15.0 mph24.1 kmh 29.98 in1015.2 mb 0.00 in0.0 mm 0.00 in0.0 mm 0.15 in3.8 mm
12:49 PM 50.1°F10.1°C 34.0°F1.1°C 54% 6.7 mph WNW10.8 kmh WNW 16.0 mph25.7 kmh 29.98 in1015.2 mb 0.00 in0.0 mm 0.00 in0.0 mm 0.15 in3.8 mm
12:50 PM 50.2°F10.1°C 34.0°F1.1°C 55% 6.4 mph W10.3 kmh W 16.0 mph25.7 kmh 29.98 in1015.2 mb 0.00 in0.0 mm 0.00 in0.0 mm 0.15 in3.8 mm
12:51 PM 50.1°F10.1°C 34.0°F1.1°C 54% 6.5 mph W10.5 kmh W 16.0 mph25.7 kmh 29.98 in1015.2 mb 0.00 in0.0 mm 0.00 in0.0 mm 0.15 in3.8 mm
12:52 PM 50.1°F10.1°C 34.0°F1.1°C 55% 6.7 mph W10.8 kmh W 16.0 mph25.7 kmh 29.98 in1015.2 mb 0.00 in0.0 mm 0.00 in0.0 mm 0.15 in3.8 mm
12:53 PM 50.1°F10.1°C 34.0°F1.1°C 55% 6.7 mph W10.8 kmh W 17.0 mph27.4 kmh 29.98 in1015.2 mb 0.00 in0.0 mm 0.00 in0.0 mm 0.15 in3.8 mm
12:54 PM 50.0°F10.0°C 33.0°F0.6°C 53% 7.8 mph W12.6 kmh W 18.0 mph29.0 kmh 29.98 in1015.2 mb 0.00 in0.0 mm 0.00 in0.0 mm 0.15 in3.8 mm
12:55 PM 50.0°F10.0°C 34.0°F1.1°C 54% 7.8 mph W12.6 kmh W 18.0 mph29.0 kmh 29.98 in1015.2 mb 0.00 in0.0 mm 0.00 in0.0 mm 0.15 in3.8 mm
12:56 PM 50.2°F10.1°C 34.0°F1.1°C 55% 7.6 mph NW12.2 kmh NW 18.0 mph29.0 kmh 29.98 in1015.2 mb 0.00 in0.0 mm 0.00 in0.0 mm 0.15 in3.8 mm
12:57 PM 50.3°F10.2°C 34.0°F1.1°C 54% 7.8 mph W12.6 kmh W 18.0 mph29.0 kmh 29.98 in1015.2 mb 0.00 in0.0 mm 0.00 in0.0 mm 0.15 in3.8 mm
12:58 PM 50.4°F10.2°C 34.0°F1.1°C 54% 8.1 mph NW13.0 kmh NW 18.0 mph29.0 kmh 29.98 in1015.2 mb 0.00 in0.0 mm 0.00 in0.0 mm 0.15 in3.8 mm
12:59 PM 50.5°F10.3°C 34.0°F1.1°C 54% 7.8 mph WNW12.6 kmh WNW 18.0 mph29.0 kmh 29.98 in1015.2 mb 0.00 in0.0 mm 0.00 in0.0 mm 0.15 in3.8 mm
01:00 PM 50.3°F10.2°C 34.0°F1.1°C 54% 8.0 mph NW12.9 kmh NW 18.0 mph29.0 kmh 29.98 in1015.2 mb 0.00 in0.0 mm 0.00 in0.0 mm 0.15 in3.8 mm
01:01 PM 50.3°F10.2°C 34.0°F1.1°C 54% 8.1 mph NNW13.0 kmh NNW 18.0 mph29.0 kmh 29.98 in1015.2 mb 0.00 in0.0 mm 0.00 in0.0 mm 0.15 in3.8 mm
01:02 PM 50.2°F10.1°C 34.0°F1.1°C 55% 7.8 mph N12.6 kmh N 18.0 mph29.0 kmh 29.98 in1015.2 mb 0.00 in0.0 mm 0.00 in0.0 mm 0.15 in3.8 mm
01:03 PM 50.3°F10.2°C 34.0°F1.1°C 55% 7.1 mph NNW11.4 kmh NNW 17.0 mph27.4 kmh 29.98 in1015.2 mb 0.00 in0.0 mm 0.00 in0.0 mm 0.15 in3.8 mm
01:04 PM 50.4°F10.2°C 35.0°F1.7°C 55% 6.4 mph WNW10.3 kmh WNW 18.0 mph29.0 kmh 29.98 in1015.2 mb 0.00 in0.0 mm 0.00 in0.0 mm 0.15 in3.8 mm
01:05 PM 50.3°F10.2°C 34.0°F1.1°C 55% 6.7 mph N10.8 kmh N 18.0 mph29.0 kmh 29.98 in1015.2 mb 0.00 in0.0 mm 0.00 in0.0 mm 0.15 in3.8 mm
01:06 PM 50.4°F10.2°C 35.0°F1.7°C 55% 6.8 mph W10.9 kmh W 18.0 mph29.0 kmh 29.98 in1015.2 mb 0.00 in0.0 mm 0.00 in0.0 mm 0.15 in3.8 mm
01:07 PM 50.4°F10.2°C 35.0°F1.7°C 55% 7.0 mph N11.3 kmh N 18.0 mph29.0 kmh 29.98 in1015.2 mb 0.00 in0.0 mm 0.00 in0.0 mm 0.15 in3.8 mm
01:08 PM 50.3°F10.2°C 34.0°F1.1°C 55% 6.8 mph NNW10.9 kmh NNW 18.0 mph29.0 kmh 29.98 in1015.2 mb 0.00 in0.0 mm 0.00 in0.0 mm 0.15 in3.8 mm
01:09 PM 50.3°F10.2°C 34.0°F1.1°C 55% 7.1 mph WSW11.4 kmh WSW 18.0 mph29.0 kmh 29.98 in1015.2 mb 0.00 in0.0 mm 0.00 in0.0 mm 0.15 in3.8 mm
01:10 PM 50.2°F10.1°C 34.0°F1.1°C 55% 6.8 mph NNW10.9 kmh NNW 18.0 mph29.0 kmh 29.98 in1015.2 mb 0.00 in0.0 mm 0.00 in0.0 mm 0.15 in3.8 mm
01:11 PM 50.2°F10.1°C 34.0°F1.1°C 54% 6.8 mph W10.9 kmh W 18.0 mph29.0 kmh 29.98 in1015.2 mb 0.00 in0.0 mm 0.00 in0.0 mm 0.15 in3.8 mm
01:12 PM 50.2°F10.1°C 34.0°F1.1°C 55% 7.1 mph NNW11.4 kmh NNW 18.0 mph29.0 kmh 29.98 in1015.2 mb 0.00 in0.0 mm 0.00 in0.0 mm 0.15 in3.8 mm
01:13 PM 50.2°F10.1°C 34.0°F1.1°C 55% 7.8 mph SW12.6 kmh SW 18.0 mph29.0 kmh 29.98 in1015.2 mb 0.00 in0.0 mm 0.00 in0.0 mm 0.15 in3.8 mm
01:14 PM 50.2°F10.1°C 34.0°F1.1°C 55% 8.3 mph NW13.4 kmh NW 18.0 mph29.0 kmh 29.98 in1015.2 mb 0.00 in0.0 mm 0.00 in0.0 mm 0.15 in3.8 mm
01:15 PM 50.2°F10.1°C 35.0°F1.7°C 56% 7.8 mph WNW12.6 kmh WNW 18.0 mph29.0 kmh 29.98 in1015.2 mb 0.00 in0.0 mm 0.00 in0.0 mm 0.15 in3.8 mm
01:16 PM 50.2°F10.1°C 35.0°F1.7°C 56% 8.1 mph NW13.0 kmh NW 18.0 mph29.0 kmh 29.98 in1015.2 mb 0.00 in0.0 mm 0.00 in0.0 mm 0.15 in3.8 mm
01:17 PM 50.2°F10.1°C 34.0°F1.1°C 55% 8.1 mph NW13.0 kmh NW 18.0 mph29.0 kmh 29.97 in1014.9 mb 0.00 in0.0 mm 0.00 in0.0 mm 0.15 in3.8 mm
01:18 PM 50.1°F10.1°C 34.0°F1.1°C 55% 8.8 mph WNW14.2 kmh WNW 18.0 mph29.0 kmh 29.97 in1014.9 mb 0.00 in0.0 mm 0.00 in0.0 mm 0.15 in3.8 mm
01:19 PM 50.0°F10.0°C 34.0°F1.1°C 55% 9.1 mph WNW14.6 kmh WNW 18.0 mph29.0 kmh 29.97 in1014.9 mb 0.00 in0.0 mm 0.00 in0.0 mm 0.15 in3.8 mm
01:20 PM 50.0°F10.0°C 35.0°F1.7°C 56% 9.3 mph WNW15.0 kmh WNW 18.0 mph29.0 kmh 29.97 in1014.9 mb 0.00 in0.0 mm 0.00 in0.0 mm 0.15 in3.8 mm
01:21 PM 50.0°F10.0°C 34.0°F1.1°C 55% 9.6 mph SW15.4 kmh SW 18.0 mph29.0 kmh 29.98 in1015.2 mb 0.00 in0.0 mm 0.00 in0.0 mm 0.15 in3.8 mm
01:22 PM 50.0°F10.0°C 35.0°F1.7°C 56% 9.8 mph W15.8 kmh W 18.0 mph29.0 kmh 29.98 in1015.2 mb 0.00 in0.0 mm 0.00 in0.0 mm 0.15 in3.8 mm
01:23 PM 50.0°F10.0°C 34.0°F1.1°C 55% 9.8 mph W15.8 kmh W 18.0 mph29.0 kmh 29.97 in1014.9 mb 0.00 in0.0 mm 0.00 in0.0 mm 0.15 in3.8 mm
01:24 PM 50.0°F10.0°C 35.0°F1.7°C 56% 9.4 mph W15.1 kmh W 18.0 mph29.0 kmh 29.97 in1014.9 mb 0.00 in0.0 mm 0.00 in0.0 mm 0.15 in3.8 mm
01:25 PM 50.2°F10.1°C 35.0°F1.7°C 57% 9.4 mph WNW15.1 kmh WNW 18.0 mph29.0 kmh 29.97 in1014.9 mb 0.00 in0.0 mm 0.00 in0.0 mm 0.15 in3.8 mm
01:26 PM 50.5°F10.3°C 36.0°F2.2°C 57% 9.1 mph W14.6 kmh W 18.0 mph29.0 kmh 29.98 in1015.2 mb 0.00 in0.0 mm 0.00 in0.0 mm 0.15 in3.8 mm
01:27 PM 50.6°F10.3°C 35.0°F1.7°C 56% 8.8 mph WSW14.2 kmh WSW 18.0 mph29.0 kmh 29.98 in1015.2 mb 0.00 in0.0 mm 0.00 in0.0 mm 0.15 in3.8 mm
01:28 PM 50.8°F10.4°C 36.0°F2.2°C 57% 8.4 mph W13.5 kmh W 18.0 mph29.0 kmh 29.97 in1014.9 mb 0.00 in0.0 mm 0.00 in0.0 mm 0.15 in3.8 mm
01:29 PM 50.8°F10.4°C 35.0°F1.7°C 56% 8.2 mph WNW13.2 kmh WNW 18.0 mph29.0 kmh 29.97 in1014.9 mb 0.00 in0.0 mm 0.00 in0.0 mm 0.15 in3.8 mm
01:30 PM 50.9°F10.5°C 35.0°F1.7°C 54% 8.3 mph W13.4 kmh W 13.0 mph20.9 kmh 29.98 in1015.2 mb 0.00 in0.0 mm 0.00 in0.0 mm 0.15 in3.8 mm
01:31 PM 50.8°F10.4°C 34.0°F1.1°C 54% 8.1 mph W13.0 kmh W 13.0 mph20.9 kmh 29.97 in1014.9 mb 0.00 in0.0 mm 0.00 in0.0 mm 0.15 in3.8 mm
01:32 PM 50.8°F10.4°C 35.0°F1.7°C 55% 8.1 mph NW13.0 kmh NW 13.0 mph20.9 kmh 29.98 in1015.2 mb 0.00 in0.0 mm 0.00 in0.0 mm 0.15 in3.8 mm
01:33 PM 51.0°F10.6°C 35.0°F1.7°C 54% 8.0 mph WSW12.9 kmh WSW 13.0 mph20.9 kmh 29.98 in1015.2 mb 0.00 in0.0 mm 0.00 in0.0 mm 0.15 in3.8 mm
01:34 PM 51.1°F10.6°C 35.0°F1.7°C 55% 7.9 mph W12.7 kmh W 13.0 mph20.9 kmh 29.98 in1015.2 mb 0.00 in0.0 mm 0.00 in0.0 mm 0.15 in3.8 mm
01:35 PM 51.1°F10.6°C 34.0°F1.1°C 53% 8.7 mph WSW14.0 kmh WSW 19.0 mph30.6 kmh 29.98 in1015.2 mb 0.00 in0.0 mm 0.00 in0.0 mm 0.15 in3.8 mm
01:36 PM 51.1°F10.6°C 34.0°F1.1°C 53% 8.9 mph W14.3 kmh W 19.0 mph30.6 kmh 29.98 in1015.2 mb 0.00 in0.0 mm 0.00 in0.0 mm 0.15 in3.8 mm
01:37 PM 51.1°F10.6°C 35.0°F1.7°C 54% 9.3 mph SW15.0 kmh SW 19.0 mph30.6 kmh 29.98 in1015.2 mb 0.00 in0.0 mm 0.00 in0.0 mm 0.15 in3.8 mm
01:38 PM 51.2°F10.7°C 35.0°F1.7°C 54% 9.5 mph WNW15.3 kmh WNW 19.0 mph30.6 kmh 29.98 in1015.2 mb 0.00 in0.0 mm 0.00 in0.0 mm 0.15 in3.8 mm
01:39 PM 51.2°F10.7°C 35.0°F1.7°C 54% 9.8 mph WNW15.8 kmh WNW 19.0 mph30.6 kmh 29.98 in1015.2 mb 0.00 in0.0 mm 0.00 in0.0 mm 0.15 in3.8 mm
01:40 PM 51.1°F10.6°C 34.0°F1.1°C 53% 9.8 mph WNW15.8 kmh WNW 19.0 mph30.6 kmh 29.98 in1015.2 mb 0.00 in0.0 mm 0.00 in0.0 mm 0.15 in3.8 mm
01:41 PM 51.0°F10.6°C 35.0°F1.7°C 54% 9.7 mph W15.6 kmh W 19.0 mph30.6 kmh 29.98 in1015.2 mb 0.00 in0.0 mm 0.00 in0.0 mm 0.15 in3.8 mm
01:42 PM 51.0°F10.6°C 35.0°F1.7°C 55% 9.3 mph W15.0 kmh W 19.0 mph30.6 kmh 29.98 in1015.2 mb 0.00 in0.0 mm 0.00 in0.0 mm 0.15 in3.8 mm
01:43 PM 51.1°F10.6°C 35.0°F1.7°C 54% 9.2 mph W14.8 kmh W 19.0 mph30.6 kmh 29.98 in1015.2 mb 0.00 in0.0 mm 0.00 in0.0 mm 0.15 in3.8 mm
01:44 PM 51.2°F10.7°C 35.0°F1.7°C 55% 9.2 mph WSW14.8 kmh WSW 17.0 mph27.4 kmh 29.98 in1015.2 mb 0.00 in0.0 mm 0.00 in0.0 mm 0.15 in3.8 mm
01:45 PM 51.5°F10.8°C 36.0°F2.2°C 55% 8.6 mph WNW13.8 kmh WNW 17.0 mph27.4 kmh 29.98 in1015.2 mb 0.00 in0.0 mm 0.00 in0.0 mm 0.15 in3.8 mm
01:46 PM 51.7°F10.9°C 36.0°F2.2°C 55% 8.3 mph WSW13.4 kmh WSW 17.0 mph27.4 kmh 29.98 in1015.2 mb 0.00 in0.0 mm 0.00 in0.0 mm 0.15 in3.8 mm
01:47 PM 51.8°F11.0°C 36.0°F2.2°C 55% 7.6 mph W12.2 kmh W 17.0 mph27.4 kmh 29.98 in1015.2 mb 0.00 in0.0 mm 0.00 in0.0 mm 0.15 in3.8 mm
01:48 PM 52.0°F11.1°C 37.0°F2.8°C 56% 7.2 mph WNW11.6 kmh WNW 14.0 mph22.5 kmh 29.98 in1015.2 mb 0.00 in0.0 mm 0.00 in0.0 mm 0.15 in3.8 mm
01:49 PM 52.0°F11.1°C 36.0°F2.2°C 55% 6.5 mph WNW10.5 kmh WNW 14.0 mph22.5 kmh 29.98 in1015.2 mb 0.00 in0.0 mm 0.00 in0.0 mm 0.15 in3.8 mm
01:50 PM 51.9°F11.1°C 36.0°F2.2°C 55% 6.5 mph WNW10.5 kmh WNW 18.0 mph29.0 kmh 29.98 in1015.2 mb 0.00 in0.0 mm 0.00 in0.0 mm 0.15 in3.8 mm
01:51 PM 51.9°F11.1°C 36.0°F2.2°C 54% 6.4 mph NW10.3 kmh NW 18.0 mph29.0 kmh 29.98 in1015.2 mb 0.00 in0.0 mm 0.00 in0.0 mm 0.15 in3.8 mm
01:52 PM 51.7°F10.9°C 35.0°F1.7°C 54% 6.6 mph WNW10.6 kmh WNW 18.0 mph29.0 kmh 29.98 in1015.2 mb 0.00 in0.0 mm 0.00 in0.0 mm 0.15 in3.8 mm
01:53 PM 51.6°F10.9°C 36.0°F2.2°C 55% 6.5 mph W10.5 kmh W 18.0 mph29.0 kmh 29.98 in1015.2 mb 0.00 in0.0 mm 0.00 in0.0 mm 0.15 in3.8 mm
01:54 PM 51.5°F10.8°C 36.0°F2.2°C 55% 6.8 mph SW10.9 kmh SW 18.0 mph29.0 kmh 29.98 in1015.2 mb 0.00 in0.0 mm 0.00 in0.0 mm 0.15 in3.8 mm
01:55 PM 51.5°F10.8°C 36.0°F2.2°C 55% 6.8 mph WSW10.9 kmh WSW 18.0 mph29.0 kmh 29.98 in1015.2 mb 0.00 in0.0 mm 0.00 in0.0 mm 0.15 in3.8 mm
01:56 PM 51.4°F10.8°C 36.0°F2.2°C 55% 7.4 mph WSW11.9 kmh WSW 18.0 mph29.0 kmh 29.98 in1015.2 mb 0.00 in0.0 mm 0.00 in0.0 mm 0.15 in3.8 mm
01:57 PM 51.2°F10.7°C 35.0°F1.7°C 54% 7.9 mph NW12.7 kmh NW 18.0 mph29.0 kmh 29.98 in1015.2 mb 0.00 in0.0 mm 0.00 in0.0 mm 0.15 in3.8 mm
01:58 PM 51.2°F10.7°C 35.0°F1.7°C 55% 8.0 mph W12.9 kmh W 18.0 mph29.0 kmh 29.98 in1015.2 mb 0.00 in0.0 mm 0.00 in0.0 mm 0.15 in3.8 mm
01:59 PM 51.4°F10.8°C 35.0°F1.7°C 54% 7.8 mph WSW12.6 kmh WSW 15.0 mph24.1 kmh 29.98 in1015.2 mb 0.00 in0.0 mm 0.00 in0.0 mm 0.15 in3.8 mm
02:00 PM 51.4°F10.8°C 35.0°F1.7°C 53% 7.7 mph WSW12.4 kmh WSW 15.0 mph24.1 kmh 29.98 in1015.2 mb 0.00 in0.0 mm 0.00 in0.0 mm 0.15 in3.8 mm
02:01 PM 51.5°F10.8°C 35.0°F1.7°C 53% 7.6 mph N12.2 kmh N 15.0 mph24.1 kmh 29.98 in1015.2 mb 0.00 in0.0 mm 0.00 in0.0 mm 0.15 in3.8 mm
02:02 PM 51.5°F10.8°C 35.0°F1.7°C 54% 7.4 mph NW11.9 kmh NW 15.0 mph24.1 kmh 29.98 in1015.2 mb 0.00 in0.0 mm 0.00 in0.0 mm 0.15 in3.8 mm
02:03 PM 51.6°F10.9°C 36.0°F2.2°C 55% 7.2 mph NNE11.6 kmh NNE 15.0 mph24.1 kmh 29.98 in1015.2 mb 0.00 in0.0 mm 0.00 in0.0 mm 0.15 in3.8 mm
02:04 PM 51.6°F10.9°C 36.0°F2.2°C 55% 6.7 mph NNW10.8 kmh NNW 15.0 mph24.1 kmh 29.98 in1015.2 mb 0.00 in0.0 mm 0.00 in0.0 mm 0.15 in3.8 mm
02:05 PM 51.6°F10.9°C 35.0°F1.7°C 54% 6.7 mph WNW10.8 kmh WNW 15.0 mph24.1 kmh 29.98 in1015.2 mb 0.00 in0.0 mm 0.00 in0.0 mm 0.15 in3.8 mm
02:06 PM 51.7°F10.9°C 35.0°F1.7°C 54% 6.2 mph WNW10.0 kmh WNW 15.0 mph24.1 kmh 29.98 in1015.2 mb 0.00 in0.0 mm 0.00 in0.0 mm 0.15 in3.8 mm
02:07 PM 51.8°F11.0°C 35.0°F1.7°C 53% 6.2 mph WSW10.0 kmh WSW 15.0 mph24.1 kmh 29.98 in1015.2 mb 0.00 in0.0 mm 0.00 in0.0 mm 0.15 in3.8 mm
02:08 PM 51.6°F10.9°C 34.0°F1.1°C 51% 6.9 mph WSW11.1 kmh WSW 21.0 mph33.8 kmh 29.98 in1015.2 mb 0.00 in0.0 mm 0.00 in0.0 mm 0.15 in3.8 mm
02:09 PM 51.5°F10.8°C 34.0°F1.1°C 52% 7.8 mph W12.6 kmh W 21.0 mph33.8 kmh 29.98 in1015.2 mb 0.00 in0.0 mm 0.00 in0.0 mm 0.15 in3.8 mm
02:10 PM 51.3°F10.7°C 34.0°F1.1°C 52% 8.1 mph W13.0 kmh W 21.0 mph33.8 kmh 29.98 in1015.2 mb 0.00 in0.0 mm 0.00 in0.0 mm 0.15 in3.8 mm
02:11 PM 51.1°F10.6°C 34.0°F1.1°C 53% 8.3 mph WNW13.4 kmh WNW 21.0 mph33.8 kmh 29.98 in1015.2 mb 0.00 in0.0 mm 0.00 in0.0 mm 0.15 in3.8 mm
02:12 PM 51.1°F10.6°C 34.0°F1.1°C 53% 8.7 mph W14.0 kmh W 21.0 mph33.8 kmh 29.98 in1015.2 mb 0.00 in0.0 mm 0.00 in0.0 mm 0.15 in3.8 mm
02:13 PM 51.2°F10.7°C 34.0°F1.1°C 53% 8.7 mph W14.0 kmh W 21.0 mph33.8 kmh 29.98 in1015.2 mb 0.00 in0.0 mm 0.00 in0.0 mm 0.15 in3.8 mm
02:14 PM 51.1°F10.6°C 34.0°F1.1°C 53% 9.2 mph WNW14.8 kmh WNW 21.0 mph33.8 kmh 29.98 in1015.2 mb 0.00 in0.0 mm 0.00 in0.0 mm 0.15 in3.8 mm
02:15 PM 51.1°F10.6°C 34.0°F1.1°C 53% 10.0 mph W16.1 kmh W 21.0 mph33.8 kmh 29.98 in1015.2 mb 0.00 in0.0 mm 0.00 in0.0 mm 0.15 in3.8 mm
02:16 PM 51.2°F10.7°C 34.0°F1.1°C 53% 10.3 mph WSW16.6 kmh WSW 21.0 mph33.8 kmh 29.98 in1015.2 mb 0.00 in0.0 mm 0.00 in0.0 mm 0.15 in3.8 mm
02:17 PM 51.2°F10.7°C 35.0°F1.7°C 54% 10.9 mph WSW17.5 kmh WSW 18.0 mph29.0 kmh 29.98 in1015.2 mb 0.00 in0.0 mm 0.00 in0.0 mm 0.15 in3.8 mm
02:18 PM 51.3°F10.7°C 35.0°F1.7°C 54% 11.0 mph NNW17.7 kmh NNW 18.0 mph29.0 kmh 29.98 in1015.2 mb 0.00 in0.0 mm 0.00 in0.0 mm 0.15 in3.8 mm
02:19 PM 51.4°F10.8°C 35.0°F1.7°C 54% 10.3 mph WNW16.6 kmh WNW 18.0 mph29.0 kmh 29.98 in1015.2 mb 0.00 in0.0 mm 0.00 in0.0 mm 0.15 in3.8 mm
02:20 PM 51.4°F10.8°C 35.0°F1.7°C 54% 9.8 mph W15.8 kmh W 18.0 mph29.0 kmh 29.98 in1015.2 mb 0.00 in0.0 mm 0.00 in0.0 mm 0.15 in3.8 mm
02:21 PM 51.3°F10.7°C 34.0°F1.1°C 53% 9.7 mph W15.6 kmh W 18.0 mph29.0 kmh 29.98 in1015.2 mb 0.00 in0.0 mm 0.00 in0.0 mm 0.15 in3.8 mm
02:22 PM 51.4°F10.8°C 35.0°F1.7°C 54% 9.3 mph NW15.0 kmh NW 18.0 mph29.0 kmh 29.98 in1015.2 mb 0.00 in0.0 mm 0.00 in0.0 mm 0.15 in3.8 mm
02:23 PM 51.5°F10.8°C 35.0°F1.7°C 54% 8.9 mph NW14.3 kmh NW 18.0 mph29.0 kmh 29.98 in1015.2 mb 0.00 in0.0 mm 0.00 in0.0 mm 0.15 in3.8 mm
02:24 PM 51.6°F10.9°C 35.0°F1.7°C 54% 8.4 mph WNW13.5 kmh WNW 18.0 mph29.0 kmh 29.98 in1015.2 mb 0.00 in0.0 mm 0.00 in0.0 mm 0.15 in3.8 mm
02:25 PM 51.6°F10.9°C 35.0°F1.7°C 54% 8.0 mph W12.9 kmh W 18.0 mph29.0 kmh 29.98 in1015.2 mb 0.00 in0.0 mm 0.00 in0.0 mm 0.15 in3.8 mm
02:26 PM 51.7°F10.9°C 36.0°F2.2°C 55% 7.3 mph NW11.7 kmh NW 18.0 mph29.0 kmh 29.99 in1015.6 mb 0.00 in0.0 mm 0.00 in0.0 mm 0.15 in3.8 mm
02:27 PM 51.8°F11.0°C 36.0°F2.2°C 56% 6.8 mph NW10.9 kmh NW 18.0 mph29.0 kmh 29.98 in1015.2 mb 0.00 in0.0 mm 0.00 in0.0 mm 0.15 in3.8 mm
02:28 PM 51.8°F11.0°C 35.0°F1.7°C 54% 6.9 mph WNW11.1 kmh WNW 18.0 mph29.0 kmh 29.99 in1015.6 mb 0.00 in0.0 mm 0.00 in0.0 mm 0.15 in3.8 mm
02:29 PM 51.7°F10.9°C 36.0°F2.2°C 55% 7.0 mph WNW11.3 kmh WNW 13.0 mph20.9 kmh 29.99 in1015.6 mb 0.00 in0.0 mm 0.00 in0.0 mm 0.15 in3.8 mm
02:30 PM 51.7°F10.9°C 36.0°F2.2°C 55% 6.2 mph W10.0 kmh W 13.0 mph20.9 kmh 29.99 in1015.6 mb 0.00 in0.0 mm 0.00 in0.0 mm 0.15 in3.8 mm
02:31 PM 51.7°F10.9°C 36.0°F2.2°C 55% 5.9 mph WNW9.5 kmh WNW 13.0 mph20.9 kmh 29.99 in1015.6 mb 0.00 in0.0 mm 0.00 in0.0 mm 0.15 in3.8 mm
02:32 PM 51.9°F11.1°C 36.0°F2.2°C 55% 5.7 mph SSW9.2 kmh SSW 13.0 mph20.9 kmh 29.99 in1015.6 mb 0.00 in0.0 mm 0.00 in0.0 mm 0.15 in3.8 mm
02:33 PM 52.1°F11.2°C 35.0°F1.7°C 53% 5.9 mph NW9.5 kmh NW 13.0 mph20.9 kmh 29.99 in1015.6 mb 0.00 in0.0 mm 0.00 in0.0 mm 0.15 in3.8 mm
02:34 PM 52.0°F11.1°C 35.0°F1.7°C 53% 6.0 mph N9.7 kmh N 13.0 mph20.9 kmh 29.99 in1015.6 mb 0.00 in0.0 mm 0.00 in0.0 mm 0.15 in3.8 mm
02:35 PM 51.8°F11.0°C 35.0°F1.7°C 53% 6.4 mph WNW10.3 kmh WNW 14.0 mph22.5 kmh 29.99 in1015.6 mb 0.00 in0.0 mm 0.00 in0.0 mm 0.15 in3.8 mm
02:36 PM 51.7°F10.9°C 35.0°F1.7°C 53% 6.7 mph WNW10.8 kmh WNW 14.0 mph22.5 kmh 29.99 in1015.6 mb 0.00 in0.0 mm 0.00 in0.0 mm 0.15 in3.8 mm
02:37 PM 51.5°F10.8°C 35.0°F1.7°C 54% 7.0 mph WNW11.3 kmh WNW 14.0 mph22.5 kmh 29.99 in1015.6 mb 0.00 in0.0 mm 0.00 in0.0 mm 0.15 in3.8 mm
02:38 PM 51.4°F10.8°C 36.0°F2.2°C 55% 7.1 mph WNW11.4 kmh WNW 14.0 mph22.5 kmh 29.99 in1015.6 mb 0.00 in0.0 mm 0.00 in0.0 mm 0.15 in3.8 mm
02:39 PM 51.4°F10.8°C 36.0°F2.2°C 55% 7.2 mph WNW11.6 kmh WNW 14.0 mph22.5 kmh 29.99 in1015.6 mb 0.00 in0.0 mm 0.00 in0.0 mm 0.15 in3.8 mm
02:40 PM 51.3°F10.7°C 35.0°F1.7°C 55% 7.5 mph WNW12.1 kmh WNW 14.0 mph22.5 kmh 29.99 in1015.6 mb 0.00 in0.0 mm 0.00 in0.0 mm 0.15 in3.8 mm
02:41 PM 51.2°F10.7°C 35.0°F1.7°C 55% 7.9 mph WSW12.7 kmh WSW 14.0 mph22.5 kmh 29.99 in1015.6 mb 0.00 in0.0 mm 0.00 in0.0 mm 0.15 in3.8 mm
02:42 PM 51.3°F10.7°C 35.0°F1.7°C 55% 8.0 mph WNW12.9 kmh WNW 14.0 mph22.5 kmh 29.99 in1015.6 mb 0.00 in0.0 mm 0.00 in0.0 mm 0.15 in3.8 mm
02:43 PM 51.3°F10.7°C 35.0°F1.7°C 55% 8.1 mph W13.0 kmh W 14.0 mph22.5 kmh 29.99 in1015.6 mb 0.00 in0.0 mm 0.00 in0.0 mm 0.15 in3.8 mm
02:44 PM 51.4°F10.8°C 35.0°F1.7°C 54% 8.1 mph NW13.0 kmh NW 14.0 mph22.5 kmh 30.00 in1015.9 mb 0.00 in0.0 mm 0.00 in0.0 mm 0.15 in3.8 mm
02:45 PM 51.5°F10.8°C 35.0°F1.7°C 53% 7.9 mph NNE12.7 kmh NNE 14.0 mph22.5 kmh 30.00 in1015.9 mb 0.00 in0.0 mm 0.00 in0.0 mm 0.15 in3.8 mm
02:46 PM 51.5°F10.8°C 35.0°F1.7°C 53% 7.7 mph N12.4 kmh N 14.0 mph22.5 kmh 29.99 in1015.6 mb 0.00 in0.0 mm 0.00 in0.0 mm 0.15 in3.8 mm
02:47 PM 51.6°F10.9°C 35.0°F1.7°C 53% 7.9 mph WSW12.7 kmh WSW 16.0 mph25.7 kmh 29.99 in1015.6 mb 0.00 in0.0 mm 0.00 in0.0 mm 0.15 in3.8 mm
02:48 PM 51.6°F10.9°C 35.0°F1.7°C 54% 7.8 mph W12.6 kmh W 16.0 mph25.7 kmh 30.00 in1015.9 mb 0.00 in0.0 mm 0.00 in0.0 mm 0.15 in3.8 mm
02:49 PM 51.7°F10.9°C 36.0°F2.2°C 55% 7.8 mph WNW12.6 kmh WNW 16.0 mph25.7 kmh 30.00 in1015.9 mb 0.00 in0.0 mm 0.00 in0.0 mm 0.15 in3.8 mm
02:50 PM 51.7°F10.9°C 35.0°F1.7°C 54% 7.9 mph W12.7 kmh W 16.0 mph25.7 kmh 30.00 in1015.9 mb 0.00 in0.0 mm 0.00 in0.0 mm 0.15 in3.8 mm
02:51 PM 51.6°F10.9°C 35.0°F1.7°C 53% 8.1 mph W13.0 kmh W 17.0 mph27.4 kmh 30.00 in1015.9 mb 0.00 in0.0 mm 0.00 in0.0 mm 0.15 in3.8 mm
02:52 PM 51.6°F10.9°C 35.0°F1.7°C 54% 8.7 mph WSW14.0 kmh WSW 17.0 mph27.4 kmh 30.00 in1015.9 mb 0.00 in0.0 mm 0.00 in0.0 mm 0.15 in3.8 mm
02:53 PM 51.5°F10.8°C 35.0°F1.7°C 54% 8.8 mph W14.2 kmh W 17.0 mph27.4 kmh 30.00 in1015.9 mb 0.00 in0.0 mm 0.00 in0.0 mm 0.15 in3.8 mm
02:54 PM 51.6°F10.9°C 36.0°F2.2°C 55% 8.8 mph WSW14.2 kmh WSW 17.0 mph27.4 kmh 30.00 in1015.9 mb 0.00 in0.0 mm 0.00 in0.0 mm 0.15 in3.8 mm
02:55 PM 51.7°F10.9°C 36.0°F2.2°C 55% 8.9 mph W14.3 kmh W 17.0 mph27.4 kmh 30.00 in1015.9 mb 0.00 in0.0 mm 0.00 in0.0 mm 0.15 in3.8 mm
02:56 PM 51.6°F10.9°C 35.0°F1.7°C 54% 9.3 mph WSW15.0 kmh WSW 17.0 mph27.4 kmh 30.00 in1015.9 mb 0.00 in0.0 mm 0.00 in0.0 mm 0.15 in3.8 mm
02:57 PM 51.6°F10.9°C 35.0°F1.7°C 54% 9.2 mph W14.8 kmh W 17.0 mph27.4 kmh 30.00 in1015.9 mb 0.00 in0.0 mm 0.00 in0.0 mm 0.15 in3.8 mm
02:58 PM 51.6°F10.9°C 35.0°F1.7°C 53% 9.5 mph W15.3 kmh W 17.0 mph27.4 kmh 30.00 in1015.9 mb 0.00 in0.0 mm 0.00 in0.0 mm 0.15 in3.8 mm
02:59 PM 51.8°F11.0°C 35.0°F1.7°C 54% 9.1 mph N14.6 kmh N 17.0 mph27.4 kmh 30.00 in1015.9 mb 0.00 in0.0 mm 0.00 in0.0 mm 0.15 in3.8 mm
03:00 PM 51.9°F11.1°C 36.0°F2.2°C 54% 8.8 mph WNW14.2 kmh WNW 17.0 mph27.4 kmh 30.00 in1015.9 mb 0.00 in0.0 mm 0.00 in0.0 mm 0.15 in3.8 mm
03:01 PM 51.8°F11.0°C 34.0°F1.1°C 51% 8.4 mph NNE13.5 kmh NNE 16.0 mph25.7 kmh 30.00 in1015.9 mb 0.00 in0.0 mm 0.00 in0.0 mm 0.15 in3.8 mm
03:02 PM 51.8°F11.0°C 34.0°F1.1°C 52% 7.8 mph W12.6 kmh W 15.0 mph24.1 kmh 30.00 in1015.9 mb 0.00 in0.0 mm 0.00 in0.0 mm 0.15 in3.8 mm
03:03 PM 51.8°F11.0°C 34.0°F1.1°C 52% 7.8 mph WNW12.6 kmh WNW 16.0 mph25.7 kmh 30.00 in1015.9 mb 0.00 in0.0 mm 0.00 in0.0 mm 0.15 in3.8 mm
03:04 PM 51.8°F11.0°C 35.0°F1.7°C 53% 7.7 mph WSW12.4 kmh WSW 16.0 mph25.7 kmh 30.00 in1015.9 mb 0.00 in0.0 mm 0.00 in0.0 mm 0.15 in3.8 mm
03:05 PM 51.7°F10.9°C 35.0°F1.7°C 53% 7.7 mph W12.4 kmh W 16.0 mph25.7 kmh 30.00 in1015.9 mb 0.00 in0.0 mm 0.00 in0.0 mm 0.15 in3.8 mm
03:06 PM 51.7°F10.9°C 34.0°F1.1°C 52% 7.4 mph WNW11.9 kmh WNW 16.0 mph25.7 kmh 30.00 in1015.9 mb 0.00 in0.0 mm 0.00 in0.0 mm 0.15 in3.8 mm
03:07 PM 51.7°F10.9°C 35.0°F1.7°C 53% 7.4 mph WNW11.9 kmh WNW 16.0 mph25.7 kmh 30.00 in1015.9 mb 0.00 in0.0 mm 0.00 in0.0 mm 0.15 in3.8 mm
03:08 PM 51.7°F10.9°C 35.0°F1.7°C 54% 7.3 mph WSW11.7 kmh WSW 17.0 mph27.4 kmh 30.00 in1015.9 mb 0.00 in0.0 mm 0.00 in0.0 mm 0.15 in3.8 mm
03:09 PM 51.7°F10.9°C 35.0°F1.7°C 54% 7.7 mph SW12.4 kmh SW 17.0 mph27.4 kmh 30.00 in1015.9 mb 0.00 in0.0 mm 0.00 in0.0 mm 0.15 in3.8 mm
03:10 PM 51.7°F10.9°C 35.0°F1.7°C 53% 8.3 mph W13.4 kmh W 17.0 mph27.4 kmh 30.00 in1015.9 mb 0.00 in0.0 mm 0.00 in0.0 mm 0.15 in3.8 mm
03:11 PM 51.6°F10.9°C 35.0°F1.7°C 53% 8.7 mph WSW14.0 kmh WSW 17.0 mph27.4 kmh 30.00 in1015.9 mb 0.00 in0.0 mm 0.00 in0.0 mm 0.15 in3.8 mm
03:12 PM 51.6°F10.9°C 35.0°F1.7°C 53% 9.0 mph WNW14.5 kmh WNW 17.0 mph27.4 kmh 30.00 in1015.9 mb 0.00 in0.0 mm 0.00 in0.0 mm 0.15 in3.8 mm
03:13 PM 51.6°F10.9°C 34.0°F1.1°C 52% 8.9 mph NW14.3 kmh NW 17.0 mph27.4 kmh 30.00 in1015.9 mb 0.00 in0.0 mm 0.00 in0.0 mm 0.15 in3.8 mm
03:14 PM 51.6°F10.9°C 34.0°F1.1°C 51% 9.1 mph W14.6 kmh W 18.0 mph29.0 kmh 30.00 in1015.9 mb 0.00 in0.0 mm 0.00 in0.0 mm 0.15 in3.8 mm
03:15 PM 51.5°F10.8°C 34.0°F1.1°C 51% 9.4 mph WSW15.1 kmh WSW 18.0 mph29.0 kmh 30.00 in1015.9 mb 0.00 in0.0 mm 0.00 in0.0 mm 0.15 in3.8 mm
03:16 PM 51.5°F10.8°C 34.0°F1.1°C 52% 9.8 mph W15.8 kmh W 18.0 mph29.0 kmh 30.00 in1015.9 mb 0.00 in0.0 mm 0.00 in0.0 mm 0.15 in3.8 mm
03:17 PM 51.5°F10.8°C 34.0°F1.1°C 52% 10.0 mph W16.1 kmh W 18.0 mph29.0 kmh 30.00 in1015.9 mb 0.00 in0.0 mm 0.00 in0.0 mm 0.15 in3.8 mm
03:18 PM 51.7°F10.9°C 34.0°F1.1°C 52% 10.0 mph NW16.1 kmh NW 18.0 mph29.0 kmh 30.00 in1015.9 mb 0.00 in0.0 mm 0.00 in0.0 mm 0.15 in3.8 mm
03:19 PM 51.7°F10.9°C 34.0°F1.1°C 52% 9.9 mph WSW15.9 kmh WSW 18.0 mph29.0 kmh 30.00 in1015.9 mb 0.00 in0.0 mm 0.00 in0.0 mm 0.15 in3.8 mm
03:20 PM 51.6°F10.9°C 34.0°F1.1°C 51% 9.6 mph W15.4 kmh W 18.0 mph29.0 kmh 30.01 in1016.3 mb 0.00 in0.0 mm 0.00 in0.0 mm 0.15 in3.8 mm
03:21 PM 51.5°F10.8°C 34.0°F1.1°C 52% 9.2 mph WNW14.8 kmh WNW 18.0 mph29.0 kmh 30.00 in1015.9 mb 0.00 in0.0 mm 0.00 in0.0 mm 0.15 in3.8 mm
03:22 PM 51.6°F10.9°C 35.0°F1.7°C 53% 8.8 mph E14.2 kmh E 18.0 mph29.0 kmh 30.00 in1015.9 mb 0.00 in0.0 mm 0.00 in0.0 mm 0.15 in3.8 mm
03:23 PM 51.7°F10.9°C 35.0°F1.7°C 53% 8.5 mph W13.7 kmh W 15.0 mph24.1 kmh 30.00 in1015.9 mb 0.00 in0.0 mm 0.00 in0.0 mm 0.15 in3.8 mm
03:24 PM 51.8°F11.0°C 35.0°F1.7°C 53% 8.4 mph W13.5 kmh W 15.0 mph24.1 kmh 30.00 in1015.9 mb 0.00 in0.0 mm 0.00 in0.0 mm 0.15 in3.8 mm
03:25 PM 51.7°F10.9°C 35.0°F1.7°C 53% 8.7 mph WSW14.0 kmh WSW 18.0 mph29.0 kmh 30.00 in1015.9 mb 0.00 in0.0 mm 0.00 in0.0 mm 0.15 in3.8 mm
03:26 PM 51.6°F10.9°C 34.0°F1.1°C 52% 8.4 mph WNW13.5 kmh WNW 18.0 mph29.0 kmh 30.01 in1016.3 mb 0.00 in0.0 mm 0.00 in0.0 mm 0.15 in3.8 mm
03:27 PM 51.5°F10.8°C 34.0°F1.1°C 52% 8.1 mph WSW13.0 kmh WSW 18.0 mph29.0 kmh 30.01 in1016.3 mb 0.00 in0.0 mm 0.00 in0.0 mm 0.15 in3.8 mm
03:28 PM 51.6°F10.9°C 35.0°F1.7°C 53% 7.7 mph W12.4 kmh W 18.0 mph29.0 kmh 30.01 in1016.3 mb 0.00 in0.0 mm 0.00 in0.0 mm 0.15 in3.8 mm
03:29 PM 51.5°F10.8°C 34.0°F1.1°C 52% 7.8 mph W12.6 kmh W 18.0 mph29.0 kmh 30.01 in1016.3 mb 0.00 in0.0 mm 0.00 in0.0 mm 0.15 in3.8 mm
03:30 PM 51.5°F10.8°C 34.0°F1.1°C 52% 7.8 mph W12.6 kmh W 18.0 mph29.0 kmh 30.01 in1016.3 mb 0.00 in0.0 mm 0.00 in0.0 mm 0.15 in3.8 mm
03:31 PM 51.4°F10.8°C 34.0°F1.1°C 52% 7.6 mph N12.2 kmh N 18.0 mph29.0 kmh 30.01 in1016.3 mb 0.00 in0.0 mm 0.00 in0.0 mm 0.15 in3.8 mm
03:32 PM 51.5°F10.8°C 35.0°F1.7°C 54% 7.7 mph W12.4 kmh W 18.0 mph29.0 kmh 30.01 in1016.3 mb 0.00 in0.0 mm 0.00 in0.0 mm 0.15 in3.8 mm
03:33 PM 51.6°F10.9°C 35.0°F1.7°C 54% 7.8 mph NW12.6 kmh NW 18.0 mph29.0 kmh 30.01 in1016.3 mb 0.00 in0.0 mm 0.00 in0.0 mm 0.15 in3.8 mm
03:34 PM 51.7°F10.9°C 35.0°F1.7°C 54% 7.7 mph WSW12.4 kmh WSW 13.0 mph20.9 kmh 30.01 in1016.3 mb 0.00 in0.0 mm 0.00 in0.0 mm 0.15 in3.8 mm
03:35 PM 51.7°F10.9°C 35.0°F1.7°C 54% 7.4 mph WSW11.9 kmh WSW 21.0 mph33.8 kmh 30.01 in1016.3 mb 0.00 in0.0 mm 0.00 in0.0 mm 0.15 in3.8 mm
03:37 PM 51.7°F10.9°C 34.0°F1.1°C 52% 7.7 mph WNW12.4 kmh WNW 21.0 mph33.8 kmh 30.01 in1016.3 mb 0.00 in0.0 mm 0.00 in0.0 mm 0.15 in3.8 mm
03:38 PM 51.6°F10.9°C 35.0°F1.7°C 53% 7.8 mph WNW12.6 kmh WNW 21.0 mph33.8 kmh 30.01 in1016.3 mb 0.00 in0.0 mm 0.00 in0.0 mm 0.15 in3.8 mm
03:39 PM 51.7°F10.9°C 35.0°F1.7°C 53% 7.8 mph WNW12.6 kmh WNW 21.0 mph33.8 kmh 30.01 in1016.3 mb 0.00 in0.0 mm 0.00 in0.0 mm 0.15 in3.8 mm
03:40 PM 51.5°F10.8°C 35.0°F1.7°C 53% 7.9 mph W12.7 kmh W 21.0 mph33.8 kmh 30.01 in1016.3 mb 0.00 in0.0 mm 0.00 in0.0 mm 0.15 in3.8 mm
03:41 PM 51.5°F10.8°C 35.0°F1.7°C 53% 8.7 mph WNW14.0 kmh WNW 21.0 mph33.8 kmh 30.01 in1016.3 mb 0.00 in0.0 mm 0.00 in0.0 mm 0.15 in3.8 mm
03:42 PM 51.4°F10.8°C 35.0°F1.7°C 53% 9.1 mph WNW14.6 kmh WNW 21.0 mph33.8 kmh 30.01 in1016.3 mb 0.00 in0.0 mm 0.00 in0.0 mm 0.15 in3.8 mm
03:43 PM 51.3°F10.7°C 34.0°F1.1°C 53% 9.2 mph W14.8 kmh W 17.0 mph27.4 kmh 30.01 in1016.3 mb 0.00 in0.0 mm 0.00 in0.0 mm 0.15 in3.8 mm
03:44 PM 51.3°F10.7°C 35.0°F1.7°C 54% 8.9 mph WSW14.3 kmh WSW 17.0 mph27.4 kmh 30.01 in1016.3 mb 0.00 in0.0 mm 0.00 in0.0 mm 0.15 in3.8 mm
03:45 PM 51.4°F10.8°C 35.0°F1.7°C 54% 8.3 mph W13.4 kmh W 17.0 mph27.4 kmh 30.01 in1016.3 mb 0.00 in0.0 mm 0.00 in0.0 mm 0.15 in3.8 mm
03:46 PM 51.5°F10.8°C 36.0°F2.2°C 55% 7.6 mph W12.2 kmh W 17.0 mph27.4 kmh 30.01 in1016.3 mb 0.00 in0.0 mm 0.00 in0.0 mm 0.15 in3.8 mm
03:47 PM 51.6°F10.9°C 35.0°F1.7°C 54% 7.2 mph NNW11.6 kmh NNW 17.0 mph27.4 kmh 30.01 in1016.3 mb 0.00 in0.0 mm 0.00 in0.0 mm 0.15 in3.8 mm
03:48 PM 51.7°F10.9°C 35.0°F1.7°C 53% 7.1 mph WNW11.4 kmh WNW 17.0 mph27.4 kmh 30.01 in1016.3 mb 0.00 in0.0 mm 0.00 in0.0 mm 0.15 in3.8 mm
03:49 PM 51.6°F10.9°C 35.0°F1.7°C 54% 6.8 mph NW10.9 kmh NW 16.0 mph25.7 kmh 30.01 in1016.3 mb 0.00 in0.0 mm 0.00 in0.0 mm 0.15 in3.8 mm
03:50 PM 51.6°F10.9°C 36.0°F2.2°C 55% 6.3 mph W10.1 kmh W 12.0 mph19.3 kmh 30.01 in1016.3 mb 0.00 in0.0 mm 0.00 in0.0 mm 0.15 in3.8 mm
03:51 PM 51.6°F10.9°C 36.0°F2.2°C 55% 5.3 mph NW8.5 kmh NW 11.0 mph17.7 kmh 30.01 in1016.3 mb 0.00 in0.0 mm 0.00 in0.0 mm 0.15 in3.8 mm
03:52 PM 51.7°F10.9°C 36.0°F2.2°C 55% 5.2 mph WSW8.4 kmh WSW 11.0 mph17.7 kmh 30.01 in1016.3 mb 0.00 in0.0 mm 0.00 in0.0 mm 0.15 in3.8 mm
03:53 PM 51.7°F10.9°C 36.0°F2.2°C 55% 5.1 mph W8.2 kmh W 11.0 mph17.7 kmh 30.01 in1016.3 mb 0.00 in0.0 mm 0.00 in0.0 mm 0.15 in3.8 mm
03:54 PM 51.6°F10.9°C 36.0°F2.2°C 55% 5.5 mph WNW8.9 kmh WNW 11.0 mph17.7 kmh 30.01 in1016.3 mb 0.00 in0.0 mm 0.00 in0.0 mm 0.15 in3.8 mm
03:55 PM 51.4°F10.8°C 36.0°F2.2°C 55% 6.0 mph W9.7 kmh W 14.0 mph22.5 kmh 30.01 in1016.3 mb 0.00 in0.0 mm 0.00 in0.0 mm 0.15 in3.8 mm
03:56 PM 51.4°F10.8°C 36.0°F2.2°C 56% 6.5 mph WSW10.5 kmh WSW 14.0 mph22.5 kmh 30.01 in1016.3 mb 0.00 in0.0 mm 0.00 in0.0 mm 0.15 in3.8 mm
03:57 PM 51.4°F10.8°C 36.0°F2.2°C 55% 6.9 mph W11.1 kmh W 14.0 mph22.5 kmh 30.01 in1016.3 mb 0.00 in0.0 mm 0.00 in0.0 mm 0.15 in3.8 mm
03:58 PM 51.3°F10.7°C 35.0°F1.7°C 55% 7.2 mph WSW11.6 kmh WSW 14.0 mph22.5 kmh 30.01 in1016.3 mb 0.00 in0.0 mm 0.00 in0.0 mm 0.15 in3.8 mm
03:59 PM 51.3°F10.7°C 36.0°F2.2°C 56% 7.5 mph W12.1 kmh W 14.0 mph22.5 kmh 30.02 in1016.6 mb 0.00 in0.0 mm 0.00 in0.0 mm 0.15 in3.8 mm
04:00 PM 51.2°F10.7°C 36.0°F2.2°C 56% 7.7 mph WNW12.4 kmh WNW 14.0 mph22.5 kmh 30.01 in1016.3 mb 0.00 in0.0 mm 0.00 in0.0 mm 0.15 in3.8 mm
04:01 PM 51.2°F10.7°C 36.0°F2.2°C 57% 8.0 mph W12.9 kmh W 14.0 mph22.5 kmh 30.01 in1016.3 mb 0.00 in0.0 mm 0.00 in0.0 mm 0.15 in3.8 mm
04:02 PM 51.3°F10.7°C 36.0°F2.2°C 56% 7.8 mph WNW12.6 kmh WNW 14.0 mph22.5 kmh 30.02 in1016.6 mb 0.00 in0.0 mm 0.00 in0.0 mm 0.15 in3.8 mm
04:03 PM 51.4°F10.8°C 36.0°F2.2°C 56% 7.7 mph W12.4 kmh W 14.0 mph22.5 kmh 30.02 in1016.6 mb 0.00 in0.0 mm 0.00 in0.0 mm 0.15 in3.8 mm
04:04 PM 51.6°F10.9°C 36.0°F2.2°C 56% 7.4 mph WNW11.9 kmh WNW 12.0 mph19.3 kmh 30.02 in1016.6 mb 0.00 in0.0 mm 0.00 in0.0 mm 0.15 in3.8 mm
04:05 PM 51.5°F10.8°C 36.0°F2.2°C 55% 7.0 mph W11.3 kmh W 12.0 mph19.3 kmh 30.02 in1016.6 mb 0.00 in0.0 mm 0.00 in0.0 mm 0.15 in3.8 mm
04:06 PM 51.6°F10.9°C 36.0°F2.2°C 55% 6.9 mph W11.1 kmh W 12.0 mph19.3 kmh 30.02 in1016.6 mb 0.00 in0.0 mm 0.00 in0.0 mm 0.15 in3.8 mm
04:07 PM 51.5°F10.8°C 36.0°F2.2°C 55% 6.5 mph W10.5 kmh W 11.0 mph17.7 kmh 30.02 in1016.6 mb 0.00 in0.0 mm 0.00 in0.0 mm 0.15 in3.8 mm
04:08 PM 51.6°F10.9°C 36.0°F2.2°C 55% 6.0 mph WSW9.7 kmh WSW 11.0 mph17.7 kmh 30.02 in1016.6 mb 0.00 in0.0 mm 0.00 in0.0 mm 0.15 in3.8 mm
04:09 PM 51.7°F10.9°C 36.0°F2.2°C 56% 5.5 mph E8.9 kmh E 9.0 mph14.5 kmh 30.02 in1016.6 mb 0.00 in0.0 mm 0.00 in0.0 mm 0.15 in3.8 mm
04:10 PM 51.8°F11.0°C 36.0°F2.2°C 56% 4.9 mph WSW7.9 kmh WSW 9.0 mph14.5 kmh 30.02 in1016.6 mb 0.00 in0.0 mm 0.00 in0.0 mm 0.15 in3.8 mm
04:11 PM 52.0°F11.1°C 36.0°F2.2°C 55% 4.8 mph W7.7 kmh W 9.0 mph14.5 kmh 30.02 in1016.6 mb 0.00 in0.0 mm 0.00 in0.0 mm 0.15 in3.8 mm
04:12 PM 52.1°F11.2°C 36.0°F2.2°C 54% 4.6 mph WSW7.4 kmh WSW 9.0 mph14.5 kmh 30.02 in1016.6 mb 0.00 in0.0 mm 0.00 in0.0 mm 0.15 in3.8 mm
04:13 PM 52.2°F11.2°C 36.0°F2.2°C 54% 4.6 mph WSW7.4 kmh WSW 9.0 mph14.5 kmh 30.02 in1016.6 mb 0.00 in0.0 mm 0.00 in0.0 mm 0.15 in3.8 mm
04:14 PM 52.2°F11.2°C 36.0°F2.2°C 54% 4.6 mph WSW7.4 kmh WSW 9.0 mph14.5 kmh 30.02 in1016.6 mb 0.00 in0.0 mm 0.00 in0.0 mm 0.15 in3.8 mm
04:15 PM 52.1°F11.2°C 36.0°F2.2°C 54% 4.6 mph WSW7.4 kmh WSW 9.0 mph14.5 kmh 30.02 in1016.6 mb 0.00 in0.0 mm 0.00 in0.0 mm 0.15 in3.8 mm
04:16 PM 52.1°F11.2°C 36.0°F2.2°C 54% 4.7 mph WSW7.6 kmh WSW 9.0 mph14.5 kmh 30.02 in1016.6 mb 0.00 in0.0 mm 0.00 in0.0 mm 0.15 in3.8 mm
04:17 PM 51.9°F11.1°C 36.0°F2.2°C 54% 4.9 mph WSW7.9 kmh WSW 9.0 mph14.5 kmh 30.02 in1016.6 mb 0.00 in0.0 mm 0.00 in0.0 mm 0.15 in3.8 mm
04:18 PM 51.8°F11.0°C 36.0°F2.2°C 55% 5.3 mph W8.5 kmh W 13.0 mph20.9 kmh 30.02 in1016.6 mb 0.00 in0.0 mm 0.00 in0.0 mm 0.15 in3.8 mm
04:19 PM 51.8°F11.0°C 36.0°F2.2°C 55% 5.4 mph WNW8.7 kmh WNW 13.0 mph20.9 kmh 30.02 in1016.6 mb 0.00 in0.0 mm 0.00 in0.0 mm 0.15 in3.8 mm
04:20 PM 51.8°F11.0°C 36.0°F2.2°C 55% 5.7 mph W9.2 kmh W 13.0 mph20.9 kmh 30.02 in1016.6 mb 0.00 in0.0 mm 0.00 in0.0 mm 0.15 in3.8 mm
04:21 PM 51.8°F11.0°C 35.0°F1.7°C 54% 6.0 mph W9.7 kmh W 13.0 mph20.9 kmh 30.02 in1016.6 mb 0.00 in0.0 mm 0.00 in0.0 mm 0.15 in3.8 mm
04:22 PM 51.7°F10.9°C 36.0°F2.2°C 55% 6.4 mph W10.3 kmh W 13.0 mph20.9 kmh 30.02 in1016.6 mb 0.00 in0.0 mm 0.00 in0.0 mm 0.15 in3.8 mm
04:23 PM 51.5°F10.8°C 36.0°F2.2°C 55% 6.4 mph WNW10.3 kmh WNW 13.0 mph20.9 kmh 30.02 in1016.6 mb 0.00 in0.0 mm 0.00 in0.0 mm 0.15 in3.8 mm
04:24 PM 51.6°F10.9°C 36.0°F2.2°C 55% 6.4 mph NW10.3 kmh NW 13.0 mph20.9 kmh 30.02 in1016.6 mb 0.00 in0.0 mm 0.00 in0.0 mm 0.15 in3.8 mm
04:25 PM 51.5°F10.8°C 35.0°F1.7°C 54% 6.6 mph NW10.6 kmh NW 13.0 mph20.9 kmh 30.02 in1016.6 mb 0.00 in0.0 mm 0.00 in0.0 mm 0.15 in3.8 mm
04:26 PM 51.5°F10.8°C 36.0°F2.2°C 55% 6.6 mph SW10.6 kmh SW 13.0 mph20.9 kmh 30.02 in1016.6 mb 0.00 in0.0 mm 0.00 in0.0 mm 0.15 in3.8 mm
04:27 PM 51.5°F10.8°C 36.0°F2.2°C 55% 6.8 mph W10.9 kmh W 13.0 mph20.9 kmh 30.02 in1016.6 mb 0.00 in0.0 mm 0.00 in0.0 mm 0.15 in3.8 mm
04:28 PM 51.5°F10.8°C 36.0°F2.2°C 55% 6.8 mph W10.9 kmh W 14.0 mph22.5 kmh 30.02 in1016.6 mb 0.00 in0.0 mm 0.00 in0.0 mm 0.15 in3.8 mm
04:29 PM 51.5°F10.8°C 36.0°F2.2°C 55% 7.0 mph WNW11.3 kmh WNW 14.0 mph22.5 kmh 30.02 in1016.6 mb 0.00 in0.0 mm 0.00 in0.0 mm 0.15 in3.8 mm
04:30 PM 51.4°F10.8°C 36.0°F2.2°C 55% 7.4 mph W11.9 kmh W 14.0 mph22.5 kmh 30.02 in1016.6 mb 0.00 in0.0 mm 0.00 in0.0 mm 0.15 in3.8 mm
04:31 PM 51.4°F10.8°C 36.0°F2.2°C 55% 7.2 mph WNW11.6 kmh WNW 14.0 mph22.5 kmh 30.02 in1016.6 mb 0.00 in0.0 mm 0.00 in0.0 mm 0.15 in3.8 mm
04:32 PM 51.4°F10.8°C 36.0°F2.2°C 55% 6.9 mph WNW11.1 kmh WNW 14.0 mph22.5 kmh 30.02 in1016.6 mb 0.00 in0.0 mm 0.00 in0.0 mm 0.15 in3.8 mm
04:33 PM 51.5°F10.8°C 36.0°F2.2°C 56% 6.8 mph NNW10.9 kmh NNW 14.0 mph22.5 kmh 30.02 in1016.6 mb 0.00 in0.0 mm 0.00 in0.0 mm 0.15 in3.8 mm
04:34 PM 51.5°F10.8°C 36.0°F2.2°C 56% 6.7 mph WNW10.8 kmh WNW 14.0 mph22.5 kmh 30.02 in1016.6 mb 0.00 in0.0 mm 0.00 in0.0 mm 0.15 in3.8 mm
04:35 PM 51.5°F10.8°C 36.0°F2.2°C 56% 6.5 mph WNW10.5 kmh WNW 14.0 mph22.5 kmh 30.02 in1016.6 mb 0.00 in0.0 mm 0.00 in0.0 mm 0.15 in3.8 mm
04:36 PM 51.4°F10.8°C 36.0°F2.2°C 55% 6.5 mph WNW10.5 kmh WNW 14.0 mph22.5 kmh 30.02 in1016.6 mb 0.00 in0.0 mm 0.00 in0.0 mm 0.15 in3.8 mm
04:37 PM 51.4°F10.8°C 36.0°F2.2°C 56% 6.1 mph WSW9.8 kmh WSW 13.0 mph20.9 kmh 30.02 in1016.6 mb 0.00 in0.0 mm 0.00 in0.0 mm 0.15 in3.8 mm
04:38 PM 51.4°F10.8°C 36.0°F2.2°C 56% 5.8 mph WSW9.3 kmh WSW 13.0 mph20.9 kmh 30.02 in1016.6 mb 0.00 in0.0 mm 0.00 in0.0 mm 0.15 in3.8 mm
04:39 PM 51.4°F10.8°C 36.0°F2.2°C 56% 5.7 mph WSW9.2 kmh WSW 11.0 mph17.7 kmh 30.02 in1016.6 mb 0.00 in0.0 mm 0.00 in0.0 mm 0.15 in3.8 mm
04:40 PM 51.5°F10.8°C 36.0°F2.2°C 56% 5.2 mph W8.4 kmh W 10.0 mph16.1 kmh 30.02 in1016.6 mb 0.00 in0.0 mm 0.00 in0.0 mm 0.15 in3.8 mm
04:41 PM 51.5°F10.8°C 36.0°F2.2°C 56% 5.0 mph W8.0 kmh W 10.0 mph16.1 kmh 30.02 in1016.6 mb 0.00 in0.0 mm 0.00 in0.0 mm 0.15 in3.8 mm
04:42 PM 51.6°F10.9°C 36.0°F2.2°C 55% 5.0 mph W8.0 kmh W 10.0 mph16.1 kmh 30.02 in1016.6 mb 0.00 in0.0 mm 0.00 in0.0 mm 0.15 in3.8 mm
04:43 PM 51.5°F10.8°C 36.0°F2.2°C 55% 5.0 mph WSW8.0 kmh WSW 10.0 mph16.1 kmh 30.02 in1016.6 mb 0.00 in0.0 mm 0.00 in0.0 mm 0.15 in3.8 mm
04:44 PM 51.5°F10.8°C 36.0°F2.2°C 55% 5.2 mph WSW8.4 kmh WSW 10.0 mph16.1 kmh 30.02 in1016.6 mb 0.00 in0.0 mm 0.00 in0.0 mm 0.15 in3.8 mm
04:45 PM 51.5°F10.8°C 36.0°F2.2°C 55% 5.4 mph WNW8.7 kmh WNW 12.0 mph19.3 kmh 30.02 in1016.6 mb 0.00 in0.0 mm 0.00 in0.0 mm 0.15 in3.8 mm
04:46 PM 51.4°F10.8°C 36.0°F2.2°C 56% 5.4 mph NW8.7 kmh NW 12.0 mph19.3 kmh 30.02 in1016.6 mb 0.00 in0.0 mm 0.00 in0.0 mm 0.15 in3.8 mm
04:47 PM 51.3°F10.7°C 35.0°F1.7°C 55% 5.5 mph W8.9 kmh W 12.0 mph19.3 kmh 30.02 in1016.6 mb 0.00 in0.0 mm 0.00 in0.0 mm 0.15 in3.8 mm
04:48 PM 51.2°F10.7°C 36.0°F2.2°C 56% 5.4 mph WSW8.7 kmh WSW 12.0 mph19.3 kmh 30.03 in1016.9 mb 0.00 in0.0 mm 0.00 in0.0 mm 0.15 in3.8 mm
04:49 PM 51.2°F10.7°C 35.0°F1.7°C 55% 5.7 mph NW9.2 kmh NW 12.0 mph19.3 kmh 30.02 in1016.6 mb 0.00 in0.0 mm 0.00 in0.0 mm 0.15 in3.8 mm
04:50 PM 51.1°F10.6°C 35.0°F1.7°C 55% 6.3 mph W10.1 kmh W 14.0 mph22.5 kmh 30.03 in1016.9 mb 0.00 in0.0 mm 0.00 in0.0 mm 0.15 in3.8 mm
04:51 PM 51.0°F10.6°C 35.0°F1.7°C 55% 6.6 mph W10.6 kmh W 14.0 mph22.5 kmh 30.03 in1016.9 mb 0.00 in0.0 mm 0.00 in0.0 mm 0.15 in3.8 mm
04:52 PM 51.0°F10.6°C 36.0°F2.2°C 56% 6.7 mph WSW10.8 kmh WSW 14.0 mph22.5 kmh 30.03 in1016.9 mb 0.00 in0.0 mm 0.00 in0.0 mm 0.15 in3.8 mm
04:53 PM 51.0°F10.6°C 35.0°F1.7°C 55% 6.8 mph W10.9 kmh W 14.0 mph22.5 kmh 30.02 in1016.6 mb 0.00 in0.0 mm 0.00 in0.0 mm 0.15 in3.8 mm
04:54 PM 51.0°F10.6°C 35.0°F1.7°C 55% 6.9 mph WNW11.1 kmh WNW 14.0 mph22.5 kmh 30.03 in1016.9 mb 0.00 in0.0 mm 0.00 in0.0 mm 0.15 in3.8 mm
04:55 PM 50.9°F10.5°C 35.0°F1.7°C 55% 6.8 mph WSW10.9 kmh WSW 14.0 mph22.5 kmh 30.03 in1016.9 mb 0.00 in0.0 mm 0.00 in0.0 mm 0.15 in3.8 mm
04:56 PM 50.8°F10.4°C 35.0°F1.7°C 55% 7.0 mph WSW11.3 kmh WSW 14.0 mph22.5 kmh 30.03 in1016.9 mb 0.00 in0.0 mm 0.00 in0.0 mm 0.15 in3.8 mm
04:57 PM 50.8°F10.4°C 35.0°F1.7°C 55% 7.3 mph WNW11.7 kmh WNW 14.0 mph22.5 kmh 30.03 in1016.9 mb 0.00 in0.0 mm 0.00 in0.0 mm 0.15 in3.8 mm
04:58 PM 50.7°F10.4°C 35.0°F1.7°C 55% 7.4 mph NW11.9 kmh NW 14.0 mph22.5 kmh 30.03 in1016.9 mb 0.00 in0.0 mm 0.00 in0.0 mm 0.15 in3.8 mm
04:59 PM 50.6°F10.3°C 35.0°F1.7°C 55% 7.1 mph WSW11.4 kmh WSW 12.0 mph19.3 kmh 30.03 in1016.9 mb 0.00 in0.0 mm 0.00 in0.0 mm 0.15 in3.8 mm
05:00 PM 50.6°F10.3°C 35.0°F1.7°C 56% 6.8 mph W10.9 kmh W 12.0 mph19.3 kmh 30.03 in1016.9 mb 0.00 in0.0 mm 0.00 in0.0 mm 0.15 in3.8 mm
05:01 PM 50.5°F10.3°C 35.0°F1.7°C 56% 6.5 mph W10.5 kmh W 12.0 mph19.3 kmh 30.03 in1016.9 mb 0.00 in0.0 mm 0.00 in0.0 mm 0.15 in3.8 mm
05:02 PM 50.6°F10.3°C 35.0°F1.7°C 56% 6.5 mph WNW10.5 kmh WNW 12.0 mph19.3 kmh 30.03 in1016.9 mb 0.00 in0.0 mm 0.00 in0.0 mm 0.15 in3.8 mm
05:03 PM 50.6°F10.3°C 35.0°F1.7°C 56% 6.6 mph W10.6 kmh W 12.0 mph19.3 kmh 30.03 in1016.9 mb 0.00 in0.0 mm 0.00 in0.0 mm 0.15 in3.8 mm
05:04 PM 50.6°F10.3°C 35.0°F1.7°C 56% 6.4 mph W10.3 kmh W 11.0 mph17.7 kmh 30.03 in1016.9 mb 0.00 in0.0 mm 0.00 in0.0 mm 0.15 in3.8 mm
05:05 PM 50.6°F10.3°C 35.0°F1.7°C 56% 6.1 mph WSW9.8 kmh WSW 11.0 mph17.7 kmh 30.03 in1016.9 mb 0.00 in0.0 mm 0.00 in0.0 mm 0.15 in3.8 mm
05:06 PM 50.7°F10.4°C 35.0°F1.7°C 56% 5.7 mph W9.2 kmh W 8.0 mph12.9 kmh 30.03 in1016.9 mb 0.00 in0.0 mm 0.00 in0.0 mm 0.15 in3.8 mm
05:07 PM 50.6°F10.3°C 36.0°F2.2°C 57% 5.2 mph W8.4 kmh W 8.0 mph12.9 kmh 30.03 in1016.9 mb 0.00 in0.0 mm 0.00 in0.0 mm 0.15 in3.8 mm
05:08 PM 50.7°F10.4°C 35.0°F1.7°C 56% 5.1 mph W8.2 kmh W 8.0 mph12.9 kmh 30.03 in1016.9 mb 0.00 in0.0 mm 0.00 in0.0 mm 0.15 in3.8 mm
05:09 PM 50.6°F10.3°C 35.0°F1.7°C 56% 5.1 mph W8.2 kmh W 9.0 mph14.5 kmh 30.03 in1016.9 mb 0.00 in0.0 mm 0.00 in0.0 mm 0.15 in3.8 mm
05:10 PM 50.6°F10.3°C 36.0°F2.2°C 57% 4.9 mph WSW7.9 kmh WSW 9.0 mph14.5 kmh 30.03 in1016.9 mb 0.00 in0.0 mm 0.00 in0.0 mm 0.15 in3.8 mm
05:11 PM 50.6°F10.3°C 35.0°F1.7°C 56% 5.0 mph W8.0 kmh W 9.0 mph14.5 kmh 30.03 in1016.9 mb 0.00 in0.0 mm 0.00 in0.0 mm 0.15 in3.8 mm
05:12 PM 50.6°F10.3°C 35.0°F1.7°C 56% 4.8 mph NW7.7 kmh NW 9.0 mph14.5 kmh 30.03 in1016.9 mb 0.00 in0.0 mm 0.00 in0.0 mm 0.15 in3.8 mm
05:13 PM 50.5°F10.3°C 35.0°F1.7°C 56% 4.6 mph W7.4 kmh W 9.0 mph14.5 kmh 30.03 in1016.9 mb 0.00 in0.0 mm 0.00 in0.0 mm 0.15 in3.8 mm
05:14 PM 50.5°F10.3°C 35.0°F1.7°C 56% 4.4 mph WSW7.1 kmh WSW 9.0 mph14.5 kmh 30.03 in1016.9 mb 0.00 in0.0 mm 0.00 in0.0 mm 0.15 in3.8 mm
05:15 PM 50.5°F10.3°C 36.0°F2.2°C 57% 4.4 mph WSW7.1 kmh WSW 9.0 mph14.5 kmh 30.03 in1016.9 mb 0.00 in0.0 mm 0.00 in0.0 mm 0.15 in3.8 mm
05:16 PM 50.4°F10.2°C 35.0°F1.7°C 57% 4.4 mph SSW7.1 kmh SSW 9.0 mph14.5 kmh 30.03 in1016.9 mb 0.00 in0.0 mm 0.00 in0.0 mm 0.15 in3.8 mm
05:17 PM 50.3°F10.2°C 35.0°F1.7°C 57% 4.5 mph WSW7.2 kmh WSW 9.0 mph14.5 kmh 30.03 in1016.9 mb 0.00 in0.0 mm 0.00 in0.0 mm 0.15 in3.8 mm
05:18 PM 50.3°F10.2°C 35.0°F1.7°C 57% 4.4 mph WNW7.1 kmh WNW 9.0 mph14.5 kmh 30.03 in1016.9 mb 0.00 in0.0 mm 0.00 in0.0 mm 0.15 in3.8 mm
05:19 PM 50.2°F10.1°C 35.0°F1.7°C 57% 4.3 mph WSW6.9 kmh WSW 9.0 mph14.5 kmh 30.03 in1016.9 mb 0.00 in0.0 mm 0.00 in0.0 mm 0.15 in3.8 mm
05:20 PM 50.2°F10.1°C 35.0°F1.7°C 57% 4.5 mph SW7.2 kmh SW 9.0 mph14.5 kmh 30.03 in1016.9 mb 0.00 in0.0 mm 0.00 in0.0 mm 0.15 in3.8 mm
05:21 PM 50.2°F10.1°C 35.0°F1.7°C 57% 4.5 mph WSW7.2 kmh WSW 9.0 mph14.5 kmh 30.03 in1016.9 mb 0.00 in0.0 mm 0.00 in0.0 mm 0.15 in3.8 mm
05:22 PM 50.2°F10.1°C 35.0°F1.7°C 57% 4.5 mph WSW7.2 kmh WSW 9.0 mph14.5 kmh 30.03 in1016.9 mb 0.00 in0.0 mm 0.00 in0.0 mm 0.15 in3.8 mm
05:23 PM 50.2°F10.1°C 35.0°F1.7°C 57% 4.4 mph WSW7.1 kmh WSW 9.0 mph14.5 kmh 30.03 in1016.9 mb 0.00 in0.0 mm 0.00 in0.0 mm 0.15 in3.8 mm
05:24 PM 50.2°F10.1°C 35.0°F1.7°C 57% 4.6 mph WSW7.4 kmh WSW 9.0 mph14.5 kmh 30.03 in1016.9 mb 0.00 in0.0 mm 0.00 in0.0 mm 0.15 in3.8 mm
05:25 PM 50.1°F10.1°C 35.0°F1.7°C 57% 4.4 mph WSW7.1 kmh WSW 9.0 mph14.5 kmh 30.03 in1016.9 mb 0.00 in0.0 mm 0.00 in0.0 mm 0.15 in3.8 mm
05:26 PM 50.1°F10.1°C 35.0°F1.7°C 57% 4.4 mph WNW7.1 kmh WNW 9.0 mph14.5 kmh 30.03 in1016.9 mb 0.00 in0.0 mm 0.00 in0.0 mm 0.15 in3.8 mm
05:27 PM 50.1°F10.1°C 35.0°F1.7°C 57% 4.5 mph W7.2 kmh W 9.0 mph14.5 kmh 30.03 in1016.9 mb 0.00 in0.0 mm 0.00 in0.0 mm 0.15 in3.8 mm
05:28 PM 50.1°F10.1°C 35.0°F1.7°C 56% 4.6 mph W7.4 kmh W 9.0 mph14.5 kmh 30.03 in1016.9 mb 0.00 in0.0 mm 0.00 in0.0 mm 0.15 in3.8 mm
05:29 PM 50.0°F10.0°C 35.0°F1.7°C 57% 4.6 mph W7.4 kmh W 7.0 mph11.3 kmh 30.04 in1017.3 mb 0.00 in0.0 mm 0.00 in0.0 mm 0.15 in3.8 mm
05:30 PM 50.0°F10.0°C 35.0°F1.7°C 57% 4.4 mph W7.1 kmh W 7.0 mph11.3 kmh 30.04 in1017.3 mb 0.00 in0.0 mm 0.00 in0.0 mm 0.15 in3.8 mm
05:31 PM 50.0°F10.0°C 35.0°F1.7°C 57% 4.2 mph W6.8 kmh W 7.0 mph11.3 kmh 30.04 in1017.3 mb 0.00 in0.0 mm 0.00 in0.0 mm 0.15 in3.8 mm
05:32 PM 49.8°F9.9°C 35.0°F1.7°C 58% 4.1 mph W6.6 kmh W 7.0 mph11.3 kmh 30.04 in1017.3 mb 0.00 in0.0 mm 0.00 in0.0 mm 0.15 in3.8 mm
05:33 PM 49.7°F9.8°C 35.0°F1.7°C 57% 4.2 mph W6.8 kmh W 7.0 mph11.3 kmh 30.04 in1017.3 mb 0.00 in0.0 mm 0.00 in0.0 mm 0.15 in3.8 mm
05:34 PM 49.7°F9.8°C 35.0°F1.7°C 57% 4.2 mph WNW6.8 kmh WNW 7.0 mph11.3 kmh 30.04 in1017.3 mb 0.00 in0.0 mm 0.00 in0.0 mm 0.15 in3.8 mm
05:35 PM 49.7°F9.8°C 35.0°F1.7°C 58% 4.4 mph WSW7.1 kmh WSW 7.0 mph11.3 kmh 30.04 in1017.3 mb 0.00 in0.0 mm 0.00 in0.0 mm 0.15 in3.8 mm
05:36 PM 49.6°F9.8°C 35.0°F1.7°C 58% 4.4 mph W7.1 kmh W 7.0 mph11.3 kmh 30.04 in1017.3 mb 0.00 in0.0 mm 0.00 in0.0 mm 0.15 in3.8 mm
05:37 PM 49.5°F9.7°C 35.0°F1.7°C 58% 4.2 mph W6.8 kmh W 6.0 mph9.7 kmh 30.04 in1017.3 mb 0.00 in0.0 mm 0.00 in0.0 mm 0.15 in3.8 mm
05:38 PM 49.5°F9.7°C 35.0°F1.7°C 58% 4.1 mph W6.6 kmh W 6.0 mph9.7 kmh 30.04 in1017.3 mb 0.00 in0.0 mm 0.00 in0.0 mm 0.15 in3.8 mm
05:39 PM 49.4°F9.7°C 35.0°F1.7°C 58% 4.0 mph W6.4 kmh W 6.0 mph9.7 kmh 30.04 in1017.3 mb 0.00 in0.0 mm 0.00 in0.0 mm 0.15 in3.8 mm
05:40 PM 49.4°F9.7°C 35.0°F1.7°C 58% 3.9 mph WNW6.3 kmh WNW 6.0 mph9.7 kmh 30.04 in1017.3 mb 0.00 in0.0 mm 0.00 in0.0 mm 0.15 in3.8 mm
05:41 PM 49.3°F9.6°C 35.0°F1.7°C 58% 4.0 mph WSW6.4 kmh WSW 6.0 mph9.7 kmh 30.04 in1017.3 mb 0.00 in0.0 mm 0.00 in0.0 mm 0.15 in3.8 mm
05:42 PM 49.3°F9.6°C 35.0°F1.7°C 58% 4.0 mph WSW6.4 kmh WSW 6.0 mph9.7 kmh 30.04 in1017.3 mb 0.00 in0.0 mm 0.00 in0.0 mm 0.15 in3.8 mm
05:43 PM 49.2°F9.6°C 35.0°F1.7°C 59% 3.8 mph W6.1 kmh W 6.0 mph9.7 kmh 30.04 in1017.3 mb 0.00 in0.0 mm 0.00 in0.0 mm 0.15 in3.8 mm
05:44 PM 49.1°F9.5°C 35.0°F1.7°C 59% 3.5 mph WSW5.6 kmh WSW 6.0 mph9.7 kmh 30.04 in1017.3 mb 0.00 in0.0 mm 0.00 in0.0 mm 0.15 in3.8 mm
05:45 PM 49.1°F9.5°C 35.0°F1.7°C 59% 3.3 mph WNW5.3 kmh WNW 6.0 mph9.7 kmh 30.04 in1017.3 mb 0.00 in0.0 mm 0.00 in0.0 mm 0.15 in3.8 mm
05:46 PM 49.1°F9.5°C 35.0°F1.7°C 59% 3.0 mph W4.8 kmh W 6.0 mph9.7 kmh 30.04 in1017.3 mb 0.00 in0.0 mm 0.00 in0.0 mm 0.15 in3.8 mm
05:47 PM 49.0°F9.4°C 35.0°F1.7°C 59% 2.8 mph WSW4.5 kmh WSW 6.0 mph9.7 kmh 30.04 in1017.3 mb 0.00 in0.0 mm 0.00 in0.0 mm 0.15 in3.8 mm
05:48 PM 49.0°F9.4°C 35.0°F1.7°C 59% 2.7 mph WSW4.3 kmh WSW 6.0 mph9.7 kmh 30.04 in1017.3 mb 0.00 in0.0 mm 0.00 in0.0 mm 0.15 in3.8 mm
05:49 PM 48.9°F9.4°C 35.0°F1.7°C 59% 2.5 mph WSW4.0 kmh WSW 6.0 mph9.7 kmh 30.04 in1017.3 mb 0.00 in0.0 mm 0.00 in0.0 mm 0.15 in3.8 mm
05:50 PM 48.9°F9.4°C 35.0°F1.7°C 59% 2.6 mph W4.2 kmh W 5.0 mph8.0 kmh 30.04 in1017.3 mb 0.00 in0.0 mm 0.00 in0.0 mm 0.15 in3.8 mm
05:51 PM 48.9°F9.4°C 35.0°F1.7°C 59% 2.5 mph W4.0 kmh W 5.0 mph8.0 kmh 30.04 in1017.3 mb 0.00 in0.0 mm 0.00 in0.0 mm 0.15 in3.8 mm
05:52 PM 48.9°F9.4°C 35.0°F1.7°C 59% 2.3 mph WSW3.7 kmh WSW 5.0 mph8.0 kmh 30.04 in1017.3 mb 0.00 in0.0 mm 0.00 in0.0 mm 0.15 in3.8 mm
05:53 PM 48.8°F9.3°C 35.0°F1.7°C 60% 2.2 mph SW3.5 kmh SW 5.0 mph8.0 kmh 30.04 in1017.3 mb 0.00 in0.0 mm 0.00 in0.0 mm 0.15 in3.8 mm
05:54 PM 48.8°F9.3°C 35.0°F1.7°C 60% 2.2 mph WSW3.5 kmh WSW 5.0 mph8.0 kmh 30.04 in1017.3 mb 0.00 in0.0 mm 0.00 in0.0 mm 0.15 in3.8 mm
05:55 PM 48.7°F9.3°C 36.0°F2.2°C 61% 2.2 mph WSW3.5 kmh WSW 5.0 mph8.0 kmh 30.04 in1017.3 mb 0.00 in0.0 mm 0.00 in0.0 mm 0.15 in3.8 mm
05:56 PM 48.6°F9.2°C 36.0°F2.2°C 61% 2.3 mph SW3.7 kmh SW 5.0 mph8.0 kmh 30.04 in1017.3 mb 0.00 in0.0 mm 0.00 in0.0 mm 0.15 in3.8 mm
05:57 PM 48.5°F9.2°C 35.0°F1.7°C 61% 2.3 mph SW3.7 kmh SW 5.0 mph8.0 kmh 30.04 in1017.3 mb 0.00 in0.0 mm 0.00 in0.0 mm 0.15 in3.8 mm
05:58 PM 48.4°F9.1°C 36.0°F2.2°C 62% 2.3 mph SW3.7 kmh SW 5.0 mph8.0 kmh 30.04 in1017.3 mb 0.00 in0.0 mm 0.00 in0.0 mm 0.15 in3.8 mm
05:59 PM 48.3°F9.1°C 36.0°F2.2°C 62% 2.3 mph SW3.7 kmh SW 5.0 mph8.0 kmh 30.04 in1017.3 mb 0.00 in0.0 mm 0.00 in0.0 mm 0.15 in3.8 mm
06:00 PM 48.2°F9.0°C 36.0°F2.2°C 62% 2.2 mph SW3.5 kmh SW 5.0 mph8.0 kmh 30.04 in1017.3 mb 0.00 in0.0 mm 0.00 in0.0 mm 0.15 in3.8 mm
06:01 PM 48.1°F8.9°C 35.0°F1.7°C 62% 2.2 mph SW3.5 kmh SW 5.0 mph8.0 kmh 30.04 in1017.3 mb 0.00 in0.0 mm 0.00 in0.0 mm 0.15 in3.8 mm
06:02 PM 48.0°F8.9°C 35.0°F1.7°C 62% 2.4 mph WSW3.9 kmh WSW 5.0 mph8.0 kmh 30.04 in1017.3 mb 0.00 in0.0 mm 0.00 in0.0 mm 0.15 in3.8 mm
06:03 PM 47.9°F8.8°C 35.0°F1.7°C 62% 2.4 mph WSW3.9 kmh WSW 5.0 mph8.0 kmh 30.04 in1017.3 mb 0.00 in0.0 mm 0.00 in0.0 mm 0.15 in3.8 mm
06:04 PM 47.9°F8.8°C 36.0°F2.2°C 63% 2.4 mph SW3.9 kmh SW 5.0 mph8.0 kmh 30.04 in1017.3 mb 0.00 in0.0 mm 0.00 in0.0 mm 0.15 in3.8 mm
06:05 PM 47.8°F8.8°C 36.0°F2.2°C 63% 2.4 mph SW3.9 kmh SW 4.0 mph6.4 kmh 30.04 in1017.3 mb 0.00 in0.0 mm 0.00 in0.0 mm 0.15 in3.8 mm
06:06 PM 47.7°F8.7°C 36.0°F2.2°C 63% 2.3 mph WSW3.7 kmh WSW 4.0 mph6.4 kmh 30.05 in1017.6 mb 0.00 in0.0 mm 0.00 in0.0 mm 0.15 in3.8 mm
06:07 PM 47.6°F8.7°C 35.0°F1.7°C 63% 2.4 mph WSW3.9 kmh WSW 4.0 mph6.4 kmh 30.05 in1017.6 mb 0.00 in0.0 mm 0.00 in0.0 mm 0.15 in3.8 mm
06:08 PM 47.6°F8.7°C 35.0°F1.7°C 63% 2.3 mph WSW3.7 kmh WSW 4.0 mph6.4 kmh 30.05 in1017.6 mb 0.00 in0.0 mm 0.00 in0.0 mm 0.15 in3.8 mm
06:09 PM 47.6°F8.7°C 35.0°F1.7°C 63% 2.2 mph WSW3.5 kmh WSW 4.0 mph6.4 kmh 30.05 in1017.6 mb 0.00 in0.0 mm 0.00 in0.0 mm 0.15 in3.8 mm
06:10 PM 47.5°F8.6°C 36.0°F2.2°C 64% 2.0 mph SW3.2 kmh SW 4.0 mph6.4 kmh 30.05 in1017.6 mb 0.00 in0.0 mm 0.00 in0.0 mm 0.15 in3.8 mm
06:11 PM 47.4°F8.6°C 36.0°F2.2°C 64% 1.8 mph WSW2.9 kmh WSW 4.0 mph6.4 kmh 30.05 in1017.6 mb 0.00 in0.0 mm 0.00 in0.0 mm 0.15 in3.8 mm
06:12 PM 47.4°F8.6°C 36.0°F2.2°C 64% 1.7 mph WNW2.7 kmh WNW 4.0 mph6.4 kmh 30.05 in1017.6 mb 0.00 in0.0 mm 0.00 in0.0 mm 0.15 in3.8 mm
06:13 PM 47.3°F8.5°C 36.0°F2.2°C 64% 1.7 mph WSW2.7 kmh WSW 4.0 mph6.4 kmh 30.05 in1017.6 mb 0.00 in0.0 mm 0.00 in0.0 mm 0.15 in3.8 mm
06:14 PM 47.4°F8.6°C 36.0°F2.2°C 64% 1.6 mph WSW2.6 kmh WSW 4.0 mph6.4 kmh 30.05 in1017.6 mb 0.00 in0.0 mm 0.00 in0.0 mm 0.15 in3.8 mm
06:15 PM 47.4°F8.6°C 36.0°F2.2°C 64% 1.5 mph WNW2.4 kmh WNW 4.0 mph6.4 kmh 30.05 in1017.6 mb 0.00 in0.0 mm 0.00 in0.0 mm 0.15 in3.8 mm
06:16 PM 47.4°F8.6°C 36.0°F2.2°C 64% 1.5 mph W2.4 kmh W 3.0 mph4.8 kmh 30.05 in1017.6 mb 0.00 in0.0 mm 0.00 in0.0 mm 0.15 in3.8 mm
06:17 PM 47.3°F8.5°C 36.0°F2.2°C 64% 1.3 mph WSW2.1 kmh WSW 3.0 mph4.8 kmh 30.05 in1017.6 mb 0.00 in0.0 mm 0.00 in0.0 mm 0.15 in3.8 mm
06:18 PM 47.3°F8.5°C 36.0°F2.2°C 64% 1.2 mph W1.9 kmh W 3.0 mph4.8 kmh 30.05 in1017.6 mb 0.00 in0.0 mm 0.00 in0.0 mm 0.15 in3.8 mm
06:19 PM 47.3°F8.5°C 36.0°F2.2°C 64% 1.3 mph WSW2.1 kmh WSW 3.0 mph4.8 kmh 30.05 in1017.6 mb 0.00 in0.0 mm 0.00 in0.0 mm 0.15 in3.8 mm
06:20 PM 47.3°F8.5°C 35.0°F1.7°C 63% 1.5 mph W2.4 kmh W 5.0 mph8.0 kmh 30.05 in1017.6 mb 0.00 in0.0 mm 0.00 in0.0 mm 0.15 in3.8 mm
06:21 PM 47.4°F8.6°C 35.0°F1.7°C 63% 1.6 mph W2.6 kmh W 5.0 mph8.0 kmh 30.05 in1017.6 mb 0.00 in0.0 mm 0.00 in0.0 mm 0.15 in3.8 mm
06:22 PM 47.4°F8.6°C 35.0°F1.7°C 63% 1.5 mph W2.4 kmh W 5.0 mph8.0 kmh 30.05 in1017.6 mb 0.00 in0.0 mm 0.00 in0.0 mm 0.15 in3.8 mm
06:23 PM 47.3°F8.5°C 35.0°F1.7°C 63% 1.5 mph WSW2.4 kmh WSW 5.0 mph8.0 kmh 30.05 in1017.6 mb 0.00 in0.0 mm 0.00 in0.0 mm 0.15 in3.8 mm
06:24 PM 47.4°F8.6°C 35.0°F1.7°C 63% 1.6 mph WSW2.6 kmh WSW 5.0 mph8.0 kmh 30.05 in1017.6 mb 0.00 in0.0 mm 0.00 in0.0 mm 0.15 in3.8 mm
06:25 PM 47.4°F8.6°C 35.0°F1.7°C 63% 1.8 mph W2.9 kmh W 5.0 mph8.0 kmh 30.05 in1017.6 mb 0.00 in0.0 mm 0.00 in0.0 mm 0.15 in3.8 mm
06:26 PM 47.3°F8.5°C 35.0°F1.7°C 63% 1.9 mph W3.1 kmh W 5.0 mph8.0 kmh 30.06 in1017.9 mb 0.00 in0.0 mm 0.00 in0.0 mm 0.15 in3.8 mm
06:27 PM 47.3°F8.5°C 35.0°F1.7°C 63% 2.0 mph WSW3.2 kmh WSW 5.0 mph8.0 kmh 30.05 in1017.6 mb 0.00 in0.0 mm 0.00 in0.0 mm 0.15 in3.8 mm
06:28 PM 47.3°F8.5°C 35.0°F1.7°C 63% 2.1 mph W3.4 kmh W 5.0 mph8.0 kmh 30.06 in1017.9 mb 0.00 in0.0 mm 0.00 in0.0 mm 0.15 in3.8 mm
06:29 PM 47.2°F8.4°C 35.0°F1.7°C 63% 2.1 mph WSW3.4 kmh WSW 4.0 mph6.4 kmh 30.06 in1017.9 mb 0.00 in0.0 mm 0.00 in0.0 mm 0.15 in3.8 mm
06:30 PM 47.3°F8.5°C 35.0°F1.7°C 63% 2.0 mph WNW3.2 kmh WNW 4.0 mph6.4 kmh 30.06 in1017.9 mb 0.00 in0.0 mm 0.00 in0.0 mm 0.15 in3.8 mm
06:31 PM 47.2°F8.4°C 35.0°F1.7°C 63% 2.1 mph WSW3.4 kmh WSW 4.0 mph6.4 kmh 30.06 in1017.9 mb 0.00 in0.0 mm 0.00 in0.0 mm 0.15 in3.8 mm
06:32 PM 47.2°F8.4°C 35.0°F1.7°C 63% 2.2 mph SW3.5 kmh SW 5.0 mph8.0 kmh 30.06 in1017.9 mb 0.00 in0.0 mm 0.00 in0.0 mm 0.15 in3.8 mm
06:33 PM 47.1°F8.4°C 35.0°F1.7°C 63% 2.3 mph W3.7 kmh W 5.0 mph8.0 kmh 30.06 in1017.9 mb 0.00 in0.0 mm 0.00 in0.0 mm 0.15 in3.8 mm
06:34 PM 47.1°F8.4°C 35.0°F1.7°C 63% 2.4 mph W3.9 kmh W 5.0 mph8.0 kmh 30.06 in1017.9 mb 0.00 in0.0 mm 0.00 in0.0 mm 0.15 in3.8 mm
06:35 PM 47.1°F8.4°C 35.0°F1.7°C 63% 2.4 mph W3.9 kmh W 5.0 mph8.0 kmh 30.06 in1017.9 mb 0.00 in0.0 mm 0.00 in0.0 mm 0.15 in3.8 mm
06:36 PM 47.0°F8.3°C 35.0°F1.7°C 63% 2.4 mph WSW3.9 kmh WSW 5.0 mph8.0 kmh 30.06 in1017.9 mb 0.00 in0.0 mm 0.00 in0.0 mm 0.15 in3.8 mm
06:37 PM 47.0°F8.3°C 35.0°F1.7°C 64% 2.5 mph WSW4.0 kmh WSW 5.0 mph8.0 kmh 30.06 in1017.9 mb 0.00 in0.0 mm 0.00 in0.0 mm 0.15 in3.8 mm
06:38 PM 46.9°F8.3°C 35.0°F1.7°C 64% 2.6 mph WSW4.2 kmh WSW 5.0 mph8.0 kmh 30.06 in1017.9 mb 0.00 in0.0 mm 0.00 in0.0 mm 0.15 in3.8 mm
06:39 PM 46.9°F8.3°C 35.0°F1.7°C 64% 2.7 mph W4.3 kmh W 5.0 mph8.0 kmh 30.06 in1017.9 mb 0.00 in0.0 mm 0.00 in0.0 mm 0.15 in3.8 mm
06:40 PM 46.9°F8.3°C 35.0°F1.7°C 64% 2.8 mph SW4.5 kmh SW 5.0 mph8.0 kmh 30.06 in1017.9 mb 0.00 in0.0 mm 0.00 in0.0 mm 0.15 in3.8 mm
06:41 PM 46.9°F8.3°C 35.0°F1.7°C 64% 2.7 mph W4.3 kmh W 5.0 mph8.0 kmh 30.06 in1017.9 mb 0.00 in0.0 mm 0.00 in0.0 mm 0.15 in3.8 mm
06:42 PM 46.9°F8.3°C 35.0°F1.7°C 64% 2.7 mph W4.3 kmh W 5.0 mph8.0 kmh 30.06 in1017.9 mb 0.00 in0.0 mm 0.00 in0.0 mm 0.15 in3.8 mm
06:43 PM 46.9°F8.3°C 35.0°F1.7°C 64% 2.6 mph WSW4.2 kmh WSW 5.0 mph8.0 kmh 30.07 in1018.3 mb 0.00 in0.0 mm 0.00 in0.0 mm 0.15 in3.8 mm
06:44 PM 46.7°F8.2°C 35.0°F1.7°C 65% 2.6 mph WSW4.2 kmh WSW 5.0 mph8.0 kmh 30.07 in1018.3 mb 0.00 in0.0 mm 0.00 in0.0 mm 0.15 in3.8 mm
06:45 PM 46.7°F8.2°C 35.0°F1.7°C 65% 2.5 mph WSW4.0 kmh WSW 5.0 mph8.0 kmh 30.07 in1018.3 mb 0.00 in0.0 mm 0.00 in0.0 mm 0.15 in3.8 mm
06:46 PM 46.6°F8.1°C 35.0°F1.7°C 65% 2.5 mph WSW4.0 kmh WSW 5.0 mph8.0 kmh 30.07 in1018.3 mb 0.00 in0.0 mm 0.00 in0.0 mm 0.15 in3.8 mm
06:47 PM 46.5°F8.1°C 36.0°F2.2°C 66% 2.4 mph WSW3.9 kmh WSW 5.0 mph8.0 kmh 30.07 in1018.3 mb 0.00 in0.0 mm 0.00 in0.0 mm 0.15 in3.8 mm
06:48 PM 46.4°F8.0°C 36.0°F2.2°C 66% 2.3 mph SW3.7 kmh SW 5.0 mph8.0 kmh 30.07 in1018.3 mb 0.00 in0.0 mm 0.00 in0.0 mm 0.15 in3.8 mm
06:49 PM 46.3°F7.9°C 35.0°F1.7°C 66% 2.2 mph WSW3.5 kmh WSW 5.0 mph8.0 kmh 30.07 in1018.3 mb 0.00 in0.0 mm 0.00 in0.0 mm 0.15 in3.8 mm
06:50 PM 46.3°F7.9°C 35.0°F1.7°C 66% 2.1 mph WSW3.4 kmh WSW 5.0 mph8.0 kmh 30.07 in1018.3 mb 0.00 in0.0 mm 0.00 in0.0 mm 0.15 in3.8 mm
06:51 PM 46.1°F7.8°C 36.0°F2.2°C 67% 2.1 mph SW3.4 kmh SW 5.0 mph8.0 kmh 30.07 in1018.3 mb 0.00 in0.0 mm 0.00 in0.0 mm 0.15 in3.8 mm
06:52 PM 46.1°F7.8°C 36.0°F2.2°C 67% 2.1 mph WSW3.4 kmh WSW 5.0 mph8.0 kmh 30.07 in1018.3 mb 0.00 in0.0 mm 0.00 in0.0 mm 0.15 in3.8 mm
06:53 PM 46.0°F7.8°C 36.0°F2.2°C 67% 2.1 mph WSW3.4 kmh WSW 4.0 mph6.4 kmh 30.07 in1018.3 mb 0.00 in0.0 mm 0.00 in0.0 mm 0.15 in3.8 mm
06:54 PM 45.9°F7.7°C 35.0°F1.7°C 67% 2.1 mph WSW3.4 kmh WSW 6.0 mph9.7 kmh 30.07 in1018.3 mb 0.00 in0.0 mm 0.00 in0.0 mm 0.15 in3.8 mm
06:55 PM 45.8°F7.7°C 35.0°F1.7°C 67% 2.2 mph WSW3.5 kmh WSW 6.0 mph9.7 kmh 30.07 in1018.3 mb 0.00 in0.0 mm 0.00 in0.0 mm 0.15 in3.8 mm
06:56 PM 45.8°F7.7°C 35.0°F1.7°C 67% 2.2 mph WSW3.5 kmh WSW 6.0 mph9.7 kmh 30.07 in1018.3 mb 0.00 in0.0 mm 0.00 in0.0 mm 0.15 in3.8 mm
06:57 PM 45.8°F7.7°C 36.0°F2.2°C 68% 2.3 mph W3.7 kmh W 6.0 mph9.7 kmh 30.07 in1018.3 mb 0.00 in0.0 mm 0.00 in0.0 mm 0.15 in3.8 mm
06:58 PM 45.8°F7.7°C 36.0°F2.2°C 68% 2.4 mph WSW3.9 kmh WSW 6.0 mph9.7 kmh 30.07 in1018.3 mb 0.00 in0.0 mm 0.00 in0.0 mm 0.15 in3.8 mm
06:59 PM 45.8°F7.7°C 35.0°F1.7°C 67% 2.5 mph W4.0 kmh W 6.0 mph9.7 kmh 30.07 in1018.3 mb 0.00 in0.0 mm 0.00 in0.0 mm 0.15 in3.8 mm
07:00 PM 45.8°F7.7°C 35.0°F1.7°C 67% 2.7 mph WSW4.3 kmh WSW 6.0 mph9.7 kmh 30.07 in1018.3 mb 0.00 in0.0 mm 0.00 in0.0 mm 0.15 in3.8 mm
07:01 PM 46.0°F7.8°C 36.0°F2.2°C 67% 2.7 mph W4.3 kmh W 6.0 mph9.7 kmh 30.07 in1018.3 mb 0.00 in0.0 mm 0.00 in0.0 mm 0.15 in3.8 mm
07:02 PM 46.0°F7.8°C 36.0°F2.2°C 67% 3.0 mph WSW4.8 kmh WSW 6.0 mph9.7 kmh 30.07 in1018.3 mb 0.00 in0.0 mm 0.00 in0.0 mm 0.15 in3.8 mm
07:03 PM 46.0°F7.8°C 35.0°F1.7°C 66% 3.2 mph W5.1 kmh W 6.0 mph9.7 kmh 30.07 in1018.3 mb 0.00 in0.0 mm 0.00 in0.0 mm 0.15 in3.8 mm
07:04 PM 46.1°F7.8°C 35.0°F1.7°C 66% 3.3 mph W5.3 kmh W 6.0 mph9.7 kmh 30.07 in1018.3 mb 0.00 in0.0 mm 0.00 in0.0 mm 0.15 in3.8 mm
07:05 PM 46.1°F7.8°C 35.0°F1.7°C 66% 3.4 mph W5.5 kmh W 6.0 mph9.7 kmh 30.07 in1018.3 mb 0.00 in0.0 mm 0.00 in0.0 mm 0.15 in3.8 mm
07:06 PM 46.2°F7.9°C 35.0°F1.7°C 66% 3.5 mph WNW5.6 kmh WNW 6.0 mph9.7 kmh 30.07 in1018.3 mb 0.00 in0.0 mm 0.00 in0.0 mm 0.15 in3.8 mm
07:07 PM 46.2°F7.9°C 35.0°F1.7°C 66% 3.5 mph WSW5.6 kmh WSW 6.0 mph9.7 kmh 30.07 in1018.3 mb 0.00 in0.0 mm 0.00 in0.0 mm 0.15 in3.8 mm
07:08 PM 46.2°F7.9°C 35.0°F1.7°C 66% 3.5 mph W5.6 kmh W 6.0 mph9.7 kmh 30.07 in1018.3 mb 0.00 in0.0 mm 0.00 in0.0 mm 0.15 in3.8 mm
07:09 PM 46.1°F7.8°C 35.0°F1.7°C 66% 3.5 mph WSW5.6 kmh WSW 6.0 mph9.7 kmh 30.07 in1018.3 mb 0.00 in0.0 mm 0.00 in0.0 mm 0.15 in3.8 mm
07:10 PM 46.2°F7.9°C 35.0°F1.7°C 66% 3.4 mph WSW5.5 kmh WSW 6.0 mph9.7 kmh 30.07 in1018.3 mb 0.00 in0.0 mm 0.00 in0.0 mm 0.15 in3.8 mm
07:11 PM 46.1°F7.8°C 35.0°F1.7°C 66% 3.3 mph W5.3 kmh W 6.0 mph9.7 kmh 30.07 in1018.3 mb 0.00 in0.0 mm 0.00 in0.0 mm 0.15 in3.8 mm
07:12 PM 46.1°F7.8°C 35.0°F1.7°C 66% 3.2 mph WSW5.1 kmh WSW 6.0 mph9.7 kmh 30.07 in1018.3 mb 0.00 in0.0 mm 0.00 in0.0 mm 0.15 in3.8 mm
07:13 PM 46.0°F7.8°C 35.0°F1.7°C 66% 3.1 mph W5.0 kmh W 5.0 mph8.0 kmh 30.07 in1018.3 mb 0.00 in0.0 mm 0.00 in0.0 mm 0.15 in3.8 mm
07:14 PM 46.0°F7.8°C 35.0°F1.7°C 66% 2.9 mph W4.7 kmh W 5.0 mph8.0 kmh 30.07 in1018.3 mb 0.00 in0.0 mm 0.00 in0.0 mm 0.15 in3.8 mm
07:15 PM 46.0°F7.8°C 35.0°F1.7°C 66% 2.8 mph WSW4.5 kmh WSW 4.0 mph6.4 kmh 30.07 in1018.3 mb 0.00 in0.0 mm 0.00 in0.0 mm 0.15 in3.8 mm
07:16 PM 46.0°F7.8°C 35.0°F1.7°C 66% 2.9 mph WSW4.7 kmh WSW 5.0 mph8.0 kmh 30.08 in1018.6 mb 0.00 in0.0 mm 0.00 in0.0 mm 0.15 in3.8 mm
07:17 PM 46.0°F7.8°C 35.0°F1.7°C 66% 2.9 mph WSW4.7 kmh WSW 5.0 mph8.0 kmh 30.08 in1018.6 mb 0.00 in0.0 mm 0.00 in0.0 mm 0.15 in3.8 mm
07:18 PM 46.0°F7.8°C 35.0°F1.7°C 66% 2.9 mph W4.7 kmh W 5.0 mph8.0 kmh 30.08 in1018.6 mb 0.00 in0.0 mm 0.00 in0.0 mm 0.15 in3.8 mm
07:19 PM 46.0°F7.8°C 36.0°F2.2°C 67% 2.9 mph WSW4.7 kmh WSW 5.0 mph8.0 kmh 30.08 in1018.6 mb 0.00 in0.0 mm 0.00 in0.0 mm 0.15 in3.8 mm
07:20 PM 45.9°F7.7°C 35.0°F1.7°C 67% 2.9 mph WSW4.7 kmh WSW 5.0 mph8.0 kmh 30.08 in1018.6 mb 0.00 in0.0 mm 0.00 in0.0 mm 0.15 in3.8 mm
07:21 PM 45.9°F7.7°C 35.0°F1.7°C 67% 3.0 mph WSW4.8 kmh WSW 6.0 mph9.7 kmh 30.08 in1018.6 mb 0.00 in0.0 mm 0.00 in0.0 mm 0.15 in3.8 mm
07:22 PM 46.0°F7.8°C 36.0°F2.2°C 67% 3.2 mph WSW5.1 kmh WSW 6.0 mph9.7 kmh 30.08 in1018.6 mb 0.00 in0.0 mm 0.00 in0.0 mm 0.15 in3.8 mm
07:23 PM 46.0°F7.8°C 36.0°F2.2°C 67% 3.2 mph W5.1 kmh W 6.0 mph9.7 kmh 30.08 in1018.6 mb 0.00 in0.0 mm 0.00 in0.0 mm 0.15 in3.8 mm
07:24 PM 46.0°F7.8°C 36.0°F2.2°C 67% 3.3 mph WSW5.3 kmh WSW 6.0 mph9.7 kmh 30.08 in1018.6 mb 0.00 in0.0 mm 0.00 in0.0 mm 0.15 in3.8 mm
07:25 PM 46.0°F7.8°C 36.0°F2.2°C 67% 3.4 mph WSW5.5 kmh WSW 6.0 mph9.7 kmh 30.08 in1018.6 mb 0.00 in0.0 mm 0.00 in0.0 mm 0.15 in3.8 mm
07:26 PM 46.0°F7.8°C 35.0°F1.7°C 66% 3.4 mph WSW5.5 kmh WSW 6.0 mph9.7 kmh 30.08 in1018.6 mb 0.00 in0.0 mm 0.00 in0.0 mm 0.15 in3.8 mm
07:27 PM 46.1°F7.8°C 35.0°F1.7°C 66% 3.5 mph WSW5.6 kmh WSW 6.0 mph9.7 kmh 30.08 in1018.6 mb 0.00 in0.0 mm 0.00 in0.0 mm 0.15 in3.8 mm
07:28 PM 46.2°F7.9°C 35.0°F1.7°C 66% 3.6 mph SW5.8 kmh SW 6.0 mph9.7 kmh 30.08 in1018.6 mb 0.00 in0.0 mm 0.00 in0.0 mm 0.15 in3.8 mm
07:29 PM 46.2°F7.9°C 35.0°F1.7°C 66% 3.7 mph WSW6.0 kmh WSW 6.0 mph9.7 kmh 30.08 in1018.6 mb 0.00 in0.0 mm 0.00 in0.0 mm 0.15 in3.8 mm
07:30 PM 46.2°F7.9°C 35.0°F1.7°C 66% 3.7 mph WNW6.0 kmh WNW 6.0 mph9.7 kmh 30.08 in1018.6 mb 0.00 in0.0 mm 0.00 in0.0 mm 0.15 in3.8 mm
07:31 PM 46.3°F7.9°C 35.0°F1.7°C 66% 3.8 mph SW6.1 kmh SW 7.0 mph11.3 kmh 30.08 in1018.6 mb 0.00 in0.0 mm 0.00 in0.0 mm 0.15 in3.8 mm
07:32 PM 46.2°F7.9°C 35.0°F1.7°C 66% 3.9 mph WSW6.3 kmh WSW 7.0 mph11.3 kmh 30.08 in1018.6 mb 0.00 in0.0 mm 0.00 in0.0 mm 0.15 in3.8 mm
07:33 PM 46.2°F7.9°C 35.0°F1.7°C 66% 4.1 mph WSW6.6 kmh WSW 7.0 mph11.3 kmh 30.08 in1018.6 mb 0.00 in0.0 mm 0.00 in0.0 mm 0.15 in3.8 mm
07:34 PM 46.2°F7.9°C 35.0°F1.7°C 66% 4.4 mph W7.1 kmh W 8.0 mph12.9 kmh 30.08 in1018.6 mb 0.00 in0.0 mm 0.00 in0.0 mm 0.15 in3.8 mm
07:35 PM 46.2°F7.9°C 35.0°F1.7°C 66% 4.5 mph WSW7.2 kmh WSW 8.0 mph12.9 kmh 30.08 in1018.6 mb 0.00 in0.0 mm 0.00 in0.0 mm 0.15 in3.8 mm
07:36 PM 46.3°F7.9°C 35.0°F1.7°C 66% 4.5 mph WSW7.2 kmh WSW 8.0 mph12.9 kmh 30.08 in1018.6 mb 0.00 in0.0 mm 0.00 in0.0 mm 0.15 in3.8 mm
07:37 PM 46.3°F7.9°C 35.0°F1.7°C 66% 4.6 mph SW7.4 kmh SW 8.0 mph12.9 kmh 30.08 in1018.6 mb 0.00 in0.0 mm 0.00 in0.0 mm 0.15 in3.8 mm
07:38 PM 46.2°F7.9°C 35.0°F1.7°C 66% 4.7 mph WSW7.6 kmh WSW 8.0 mph12.9 kmh 30.08 in1018.6 mb 0.00 in0.0 mm 0.00 in0.0 mm 0.15 in3.8 mm
07:39 PM 46.2°F7.9°C 35.0°F1.7°C 66% 4.8 mph WNW7.7 kmh WNW 8.0 mph12.9 kmh 30.08 in1018.6 mb 0.00 in0.0 mm 0.00 in0.0 mm 0.15 in3.8 mm
07:40 PM 46.2°F7.9°C 35.0°F1.7°C 66% 5.1 mph W8.2 kmh W 8.0 mph12.9 kmh 30.08 in1018.6 mb 0.00 in0.0 mm 0.00 in0.0 mm 0.15 in3.8 mm
07:41 PM 46.1°F7.8°C 35.0°F1.7°C 66% 5.1 mph SSW8.2 kmh SSW 8.0 mph12.9 kmh 30.09 in1019.0 mb 0.00 in0.0 mm 0.00 in0.0 mm 0.15 in3.8 mm
07:42 PM 46.1°F7.8°C 36.0°F2.2°C 67% 4.9 mph W7.9 kmh W 8.0 mph12.9 kmh 30.09 in1019.0 mb 0.00 in0.0 mm 0.00 in0.0 mm 0.15 in3.8 mm
07:43 PM 46.0°F7.8°C 36.0°F2.2°C 67% 4.8 mph WNW7.7 kmh WNW 8.0 mph12.9 kmh 30.09 in1019.0 mb 0.00 in0.0 mm 0.00 in0.0 mm 0.15 in3.8 mm
07:44 PM 46.0°F7.8°C 36.0°F2.2°C 67% 4.7 mph W7.6 kmh W 8.0 mph12.9 kmh 30.09 in1019.0 mb 0.00 in0.0 mm 0.00 in0.0 mm 0.15 in3.8 mm
07:45 PM 46.0°F7.8°C 36.0°F2.2°C 67% 4.5 mph W7.2 kmh W 8.0 mph12.9 kmh 30.09 in1019.0 mb 0.00 in0.0 mm 0.00 in0.0 mm 0.15 in3.8 mm
07:46 PM 45.9°F7.7°C 35.0°F1.7°C 67% 4.5 mph W7.2 kmh W 8.0 mph12.9 kmh 30.09 in1019.0 mb 0.00 in0.0 mm 0.00 in0.0 mm 0.15 in3.8 mm
07:47 PM 45.9°F7.7°C 35.0°F1.7°C 67% 4.3 mph WSW6.9 kmh WSW 8.0 mph12.9 kmh 30.09 in1019.0 mb 0.00 in0.0 mm 0.00 in0.0 mm 0.15 in3.8 mm
07:48 PM 45.8°F7.7°C 35.0°F1.7°C 67% 4.1 mph WSW6.6 kmh WSW 8.0 mph12.9 kmh 30.09 in1019.0 mb 0.00 in0.0 mm 0.00 in0.0 mm 0.15 in3.8 mm
07:49 PM 45.8°F7.7°C 35.0°F1.7°C 67% 3.9 mph W6.3 kmh W 7.0 mph11.3 kmh 30.09 in1019.0 mb 0.00 in0.0 mm 0.00 in0.0 mm 0.15 in3.8 mm
07:50 PM 45.8°F7.7°C 36.0°F2.2°C 68%